<?xml version="1.0" encoding="UTF-8" standalone="no" ?>
<gpx xmlns="http://www.topografix.com/GPX/1/1" xmlns:xsi="http://www.w3.org/2001/XMLSchema-instance" xsi:schemaLocation="http://www.topografix.com/GPX/1/1 http://www.topografix.com/GPX/1/1/gpx.xsd" version="1.1" creator="VisuGPX - https://www.visugpx.com">
  <metadata>
    <name>VTT Turriers 04 : Tour des Barses par le bois de l\'Ubac</name>
    <desc><![CDATA[Circuit sympa ombragé par petites routes ,pistes et sentiers]]></desc>
  </metadata>
  <trk>
    <name><![CDATA[N°  Turriers tour des barses]]></name>
    <trkseg>
      <trkpt lat="44.39787" lon="6.17125">
        <ele>980.201416</ele>
        <time>2012-08-02T07:07:36Z</time>
      </trkpt>
      <trkpt lat="44.39794" lon="6.17131">
        <ele>981.1628418</ele>
        <time>2012-08-02T07:07:57Z</time>
      </trkpt>
      <trkpt lat="44.39799" lon="6.17132">
        <ele>985.0080566</ele>
        <time>2012-08-02T07:08:12Z</time>
      </trkpt>
      <trkpt lat="44.39799" lon="6.17132">
        <ele>988.3728027</ele>
        <time>2012-08-02T07:08:16Z</time>
      </trkpt>
      <trkpt lat="44.39799" lon="6.17132">
        <ele>992.2180176</ele>
        <time>2012-08-02T07:08:20Z</time>
      </trkpt>
      <trkpt lat="44.39799" lon="6.17132">
        <ele>995.5825195</ele>
        <time>2012-08-02T07:08:25Z</time>
      </trkpt>
      <trkpt lat="44.39799" lon="6.17132">
        <ele>998.9470215</ele>
        <time>2012-08-02T07:08:28Z</time>
      </trkpt>
      <trkpt lat="44.39799" lon="6.17132">
        <ele>1002.3115234</ele>
        <time>2012-08-02T07:08:35Z</time>
      </trkpt>
      <trkpt lat="44.39799" lon="6.17132">
        <ele>1003.7536621</ele>
        <time>2012-08-02T07:08:38Z</time>
      </trkpt>
      <trkpt lat="44.39799" lon="6.17132">
        <ele>1007.5991211</ele>
        <time>2012-08-02T07:08:47Z</time>
      </trkpt>
      <trkpt lat="44.39799" lon="6.17131">
        <ele>1010.0021973</ele>
        <time>2012-08-02T07:08:53Z</time>
      </trkpt>
      <trkpt lat="44.39799" lon="6.17125">
        <ele>1011.9250488</ele>
        <time>2012-08-02T07:08:57Z</time>
      </trkpt>
      <trkpt lat="44.39798" lon="6.17121">
        <ele>1013.8474121</ele>
        <time>2012-08-02T07:09:20Z</time>
      </trkpt>
      <trkpt lat="44.39797" lon="6.17124">
        <ele>1015.7702637</ele>
        <time>2012-08-02T07:10:06Z</time>
      </trkpt>
      <trkpt lat="44.39791" lon="6.17123">
        <ele>1014.328125</ele>
        <time>2012-08-02T07:10:24Z</time>
      </trkpt>
      <trkpt lat="44.39789" lon="6.1712">
        <ele>1014.328125</ele>
        <time>2012-08-02T07:10:56Z</time>
      </trkpt>
      <trkpt lat="44.39789" lon="6.1712">
        <ele>1014.328125</ele>
        <time>2012-08-02T07:11:01Z</time>
      </trkpt>
      <trkpt lat="44.3979" lon="6.17113">
        <ele>1014.8088379</ele>
        <time>2012-08-02T07:11:05Z</time>
      </trkpt>
      <trkpt lat="44.39792" lon="6.17109">
        <ele>1014.328125</ele>
        <time>2012-08-02T07:11:07Z</time>
      </trkpt>
      <trkpt lat="44.39806" lon="6.17077">
        <ele>1016.2507324</ele>
        <time>2012-08-02T07:11:23Z</time>
      </trkpt>
      <trkpt lat="44.39813" lon="6.17043">
        <ele>1017.2121582</ele>
        <time>2012-08-02T07:11:42Z</time>
      </trkpt>
      <trkpt lat="44.39813" lon="6.17042">
        <ele>1017.2121582</ele>
        <time>2012-08-02T07:11:54Z</time>
      </trkpt>
      <trkpt lat="44.39782" lon="6.1703">
        <ele>1016.2507324</ele>
        <time>2012-08-02T07:12:06Z</time>
      </trkpt>
      <trkpt lat="44.39777" lon="6.17029">
        <ele>1016.2507324</ele>
        <time>2012-08-02T07:12:07Z</time>
      </trkpt>
      <trkpt lat="44.39752" lon="6.17022">
        <ele>1015.2895508</ele>
        <time>2012-08-02T07:12:12Z</time>
      </trkpt>
      <trkpt lat="44.39704" lon="6.16992">
        <ele>1011.9250488</ele>
        <time>2012-08-02T07:12:20Z</time>
      </trkpt>
      <trkpt lat="44.39668" lon="6.1699">
        <ele>1009.5217285</ele>
        <time>2012-08-02T07:12:25Z</time>
      </trkpt>
      <trkpt lat="44.39607" lon="6.16989">
        <ele>1006.1569824</ele>
        <time>2012-08-02T07:12:33Z</time>
      </trkpt>
      <trkpt lat="44.396" lon="6.16989">
        <ele>1006.1569824</ele>
        <time>2012-08-02T07:12:35Z</time>
      </trkpt>
      <trkpt lat="44.39595" lon="6.16964">
        <ele>1004.7150879</ele>
        <time>2012-08-02T07:12:39Z</time>
      </trkpt>
      <trkpt lat="44.39626" lon="6.16834">
        <ele>1001.8310547</ele>
        <time>2012-08-02T07:12:55Z</time>
      </trkpt>
      <trkpt lat="44.39632" lon="6.16806">
        <ele>1000.3891602</ele>
        <time>2012-08-02T07:12:58Z</time>
      </trkpt>
      <trkpt lat="44.39651" lon="6.16759">
        <ele>998.9470215</ele>
        <time>2012-08-02T07:13:03Z</time>
      </trkpt>
      <trkpt lat="44.39694" lon="6.16683">
        <ele>995.1018066</ele>
        <time>2012-08-02T07:13:11Z</time>
      </trkpt>
      <trkpt lat="44.397" lon="6.16673">
        <ele>995.1018066</ele>
        <time>2012-08-02T07:13:12Z</time>
      </trkpt>
      <trkpt lat="44.39729" lon="6.16624">
        <ele>992.2180176</ele>
        <time>2012-08-02T07:13:17Z</time>
      </trkpt>
      <trkpt lat="44.39765" lon="6.16566">
        <ele>988.3728027</ele>
        <time>2012-08-02T07:13:23Z</time>
      </trkpt>
      <trkpt lat="44.39769" lon="6.16558">
        <ele>988.3728027</ele>
        <time>2012-08-02T07:13:24Z</time>
      </trkpt>
      <trkpt lat="44.39798" lon="6.1651">
        <ele>986.4499512</ele>
        <time>2012-08-02T07:13:30Z</time>
      </trkpt>
      <trkpt lat="44.39805" lon="6.16484">
        <ele>984.5273438</ele>
        <time>2012-08-02T07:13:33Z</time>
      </trkpt>
      <trkpt lat="44.39801" lon="6.16465">
        <ele>984.5273438</ele>
        <time>2012-08-02T07:13:35Z</time>
      </trkpt>
      <trkpt lat="44.39792" lon="6.16432">
        <ele>984.0466309</ele>
        <time>2012-08-02T07:13:39Z</time>
      </trkpt>
      <trkpt lat="44.39808" lon="6.16383">
        <ele>983.565918</ele>
        <time>2012-08-02T07:13:47Z</time>
      </trkpt>
      <trkpt lat="44.39843" lon="6.16355">
        <ele>983.0852051</ele>
        <time>2012-08-02T07:13:55Z</time>
      </trkpt>
      <trkpt lat="44.3987" lon="6.16355">
        <ele>982.6047363</ele>
        <time>2012-08-02T07:14:00Z</time>
      </trkpt>
      <trkpt lat="44.39997" lon="6.16369">
        <ele>981.1628418</ele>
        <time>2012-08-02T07:14:24Z</time>
      </trkpt>
      <trkpt lat="44.4008" lon="6.16363">
        <ele>979.7207031</ele>
        <time>2012-08-02T07:14:41Z</time>
      </trkpt>
      <trkpt lat="44.40089" lon="6.16363">
        <ele>979.7207031</ele>
        <time>2012-08-02T07:14:43Z</time>
      </trkpt>
      <trkpt lat="44.40136" lon="6.16373">
        <ele>977.7980957</ele>
        <time>2012-08-02T07:14:52Z</time>
      </trkpt>
      <trkpt lat="44.40194" lon="6.16391">
        <ele>974.9143066</ele>
        <time>2012-08-02T07:15:00Z</time>
      </trkpt>
      <trkpt lat="44.40201" lon="6.16393">
        <ele>974.9143066</ele>
        <time>2012-08-02T07:15:01Z</time>
      </trkpt>
      <trkpt lat="44.40269" lon="6.16413">
        <ele>971.0688477</ele>
        <time>2012-08-02T07:15:09Z</time>
      </trkpt>
      <trkpt lat="44.40356" lon="6.16464">
        <ele>968.1848145</ele>
        <time>2012-08-02T07:15:20Z</time>
      </trkpt>
      <trkpt lat="44.40373" lon="6.1647">
        <ele>967.2236328</ele>
        <time>2012-08-02T07:15:22Z</time>
      </trkpt>
      <trkpt lat="44.40408" lon="6.16475">
        <ele>965.3010254</ele>
        <time>2012-08-02T07:15:26Z</time>
      </trkpt>
      <trkpt lat="44.40435" lon="6.16489">
        <ele>962.8977051</ele>
        <time>2012-08-02T07:15:29Z</time>
      </trkpt>
      <trkpt lat="44.40443" lon="6.16497">
        <ele>961.9365234</ele>
        <time>2012-08-02T07:15:30Z</time>
      </trkpt>
      <trkpt lat="44.40466" lon="6.1652">
        <ele>960.9750977</ele>
        <time>2012-08-02T07:15:33Z</time>
      </trkpt>
      <trkpt lat="44.40481" lon="6.16531">
        <ele>959.5332031</ele>
        <time>2012-08-02T07:15:35Z</time>
      </trkpt>
      <trkpt lat="44.40507" lon="6.16537">
        <ele>957.6105957</ele>
        <time>2012-08-02T07:15:38Z</time>
      </trkpt>
      <trkpt lat="44.4054" lon="6.16547">
        <ele>955.2070313</ele>
        <time>2012-08-02T07:15:42Z</time>
      </trkpt>
      <trkpt lat="44.40565" lon="6.16558">
        <ele>953.2844238</ele>
        <time>2012-08-02T07:15:45Z</time>
      </trkpt>
      <trkpt lat="44.40601" lon="6.16573">
        <ele>951.3618164</ele>
        <time>2012-08-02T07:15:49Z</time>
      </trkpt>
      <trkpt lat="44.4062" lon="6.1658">
        <ele>949.439209</ele>
        <time>2012-08-02T07:15:51Z</time>
      </trkpt>
      <trkpt lat="44.40658" lon="6.16619">
        <ele>947.0358887</ele>
        <time>2012-08-02T07:15:56Z</time>
      </trkpt>
      <trkpt lat="44.40673" lon="6.16653">
        <ele>946.074707</ele>
        <time>2012-08-02T07:15:59Z</time>
      </trkpt>
      <trkpt lat="44.40695" lon="6.16711">
        <ele>943.6713867</ele>
        <time>2012-08-02T07:16:04Z</time>
      </trkpt>
      <trkpt lat="44.40706" lon="6.16733">
        <ele>942.7102051</ele>
        <time>2012-08-02T07:16:06Z</time>
      </trkpt>
      <trkpt lat="44.40722" lon="6.1675">
        <ele>941.2680664</ele>
        <time>2012-08-02T07:16:08Z</time>
      </trkpt>
      <trkpt lat="44.40763" lon="6.1679">
        <ele>938.3840332</ele>
        <time>2012-08-02T07:16:13Z</time>
      </trkpt>
      <trkpt lat="44.4078" lon="6.16799">
        <ele>935.9807129</ele>
        <time>2012-08-02T07:16:15Z</time>
      </trkpt>
      <trkpt lat="44.40798" lon="6.16803">
        <ele>935.0195313</ele>
        <time>2012-08-02T07:16:17Z</time>
      </trkpt>
      <trkpt lat="44.40817" lon="6.16802">
        <ele>934.5388184</ele>
        <time>2012-08-02T07:16:19Z</time>
      </trkpt>
      <trkpt lat="44.40848" lon="6.16797">
        <ele>931.6547852</ele>
        <time>2012-08-02T07:16:22Z</time>
      </trkpt>
      <trkpt lat="44.40899" lon="6.16795">
        <ele>928.7709961</ele>
        <time>2012-08-02T07:16:27Z</time>
      </trkpt>
      <trkpt lat="44.40947" lon="6.16809">
        <ele>929.2514648</ele>
        <time>2012-08-02T07:16:33Z</time>
      </trkpt>
      <trkpt lat="44.40996" lon="6.16845">
        <ele>931.1743164</ele>
        <time>2012-08-02T07:16:45Z</time>
      </trkpt>
      <trkpt lat="44.41048" lon="6.16874">
        <ele>928.7709961</ele>
        <time>2012-08-02T07:16:58Z</time>
      </trkpt>
      <trkpt lat="44.4107" lon="6.16892">
        <ele>927.8095703</ele>
        <time>2012-08-02T07:17:02Z</time>
      </trkpt>
      <trkpt lat="44.41084" lon="6.16912">
        <ele>926.8483887</ele>
        <time>2012-08-02T07:17:05Z</time>
      </trkpt>
      <trkpt lat="44.41116" lon="6.16932">
        <ele>925.8869629</ele>
        <time>2012-08-02T07:17:10Z</time>
      </trkpt>
      <trkpt lat="44.41193" lon="6.16925">
        <ele>920.5996094</ele>
        <time>2012-08-02T07:17:19Z</time>
      </trkpt>
      <trkpt lat="44.41202" lon="6.16924">
        <ele>920.5996094</ele>
        <time>2012-08-02T07:17:20Z</time>
      </trkpt>
      <trkpt lat="44.41259" lon="6.16926">
        <ele>917.2351074</ele>
        <time>2012-08-02T07:17:26Z</time>
      </trkpt>
      <trkpt lat="44.41278" lon="6.16933">
        <ele>916.2736816</ele>
        <time>2012-08-02T07:17:28Z</time>
      </trkpt>
      <trkpt lat="44.41327" lon="6.16974">
        <ele>913.8703613</ele>
        <time>2012-08-02T07:17:34Z</time>
      </trkpt>
      <trkpt lat="44.41334" lon="6.16983">
        <ele>913.8703613</ele>
        <time>2012-08-02T07:17:35Z</time>
      </trkpt>
      <trkpt lat="44.41362" lon="6.17049">
        <ele>911.4672852</ele>
        <time>2012-08-02T07:17:41Z</time>
      </trkpt>
      <trkpt lat="44.414" lon="6.17125">
        <ele>907.6218262</ele>
        <time>2012-08-02T07:17:48Z</time>
      </trkpt>
      <trkpt lat="44.41409" lon="6.17148">
        <ele>907.1411133</ele>
        <time>2012-08-02T07:17:50Z</time>
      </trkpt>
      <trkpt lat="44.41433" lon="6.17217">
        <ele>904.2573242</ele>
        <time>2012-08-02T07:17:56Z</time>
      </trkpt>
      <trkpt lat="44.41452" lon="6.17251">
        <ele>902.8151855</ele>
        <time>2012-08-02T07:18:00Z</time>
      </trkpt>
      <trkpt lat="44.41472" lon="6.17273">
        <ele>901.373291</ele>
        <time>2012-08-02T07:18:03Z</time>
      </trkpt>
      <trkpt lat="44.41506" lon="6.17342">
        <ele>899.4506836</ele>
        <time>2012-08-02T07:18:10Z</time>
      </trkpt>
      <trkpt lat="44.41552" lon="6.17391">
        <ele>897.0473633</ele>
        <time>2012-08-02T07:18:17Z</time>
      </trkpt>
      <trkpt lat="44.4156" lon="6.17396">
        <ele>897.0473633</ele>
        <time>2012-08-02T07:18:18Z</time>
      </trkpt>
      <trkpt lat="44.41603" lon="6.17404">
        <ele>894.644043</ele>
        <time>2012-08-02T07:18:23Z</time>
      </trkpt>
      <trkpt lat="44.41621" lon="6.17407">
        <ele>893.6828613</ele>
        <time>2012-08-02T07:18:25Z</time>
      </trkpt>
      <trkpt lat="44.41638" lon="6.17416">
        <ele>892.7216797</ele>
        <time>2012-08-02T07:18:27Z</time>
      </trkpt>
      <trkpt lat="44.41687" lon="6.17434">
        <ele>889.3566895</ele>
        <time>2012-08-02T07:18:32Z</time>
      </trkpt>
      <trkpt lat="44.41707" lon="6.17444">
        <ele>888.3955078</ele>
        <time>2012-08-02T07:18:34Z</time>
      </trkpt>
      <trkpt lat="44.41728" lon="6.1745">
        <ele>886.4729004</ele>
        <time>2012-08-02T07:18:36Z</time>
      </trkpt>
      <trkpt lat="44.41771" lon="6.17461">
        <ele>882.6276855</ele>
        <time>2012-08-02T07:18:40Z</time>
      </trkpt>
      <trkpt lat="44.41783" lon="6.17463">
        <ele>882.6276855</ele>
        <time>2012-08-02T07:18:41Z</time>
      </trkpt>
      <trkpt lat="44.41813" lon="6.17469">
        <ele>879.2629395</ele>
        <time>2012-08-02T07:18:44Z</time>
      </trkpt>
      <trkpt lat="44.41822" lon="6.17471">
        <ele>879.2629395</ele>
        <time>2012-08-02T07:18:45Z</time>
      </trkpt>
      <trkpt lat="44.41843" lon="6.17477">
        <ele>877.3405762</ele>
        <time>2012-08-02T07:18:48Z</time>
      </trkpt>
      <trkpt lat="44.4186" lon="6.17481">
        <ele>875.8981934</ele>
        <time>2012-08-02T07:18:51Z</time>
      </trkpt>
      <trkpt lat="44.41875" lon="6.17455">
        <ele>873.9755859</ele>
        <time>2012-08-02T07:18:57Z</time>
      </trkpt>
      <trkpt lat="44.41848" lon="6.17356">
        <ele>869.6499023</ele>
        <time>2012-08-02T07:19:07Z</time>
      </trkpt>
      <trkpt lat="44.41836" lon="6.17306">
        <ele>867.7270508</ele>
        <time>2012-08-02T07:19:11Z</time>
      </trkpt>
      <trkpt lat="44.4183" lon="6.17266">
        <ele>865.8046875</ele>
        <time>2012-08-02T07:19:14Z</time>
      </trkpt>
      <trkpt lat="44.41816" lon="6.17231">
        <ele>862.4399414</ele>
        <time>2012-08-02T07:19:17Z</time>
      </trkpt>
      <trkpt lat="44.41811" lon="6.17222">
        <ele>862.4399414</ele>
        <time>2012-08-02T07:19:18Z</time>
      </trkpt>
      <trkpt lat="44.41805" lon="6.17213">
        <ele>861.9594727</ele>
        <time>2012-08-02T07:19:19Z</time>
      </trkpt>
      <trkpt lat="44.41792" lon="6.17196">
        <ele>860.517334</ele>
        <time>2012-08-02T07:19:21Z</time>
      </trkpt>
      <trkpt lat="44.41779" lon="6.17141">
        <ele>858.1140137</ele>
        <time>2012-08-02T07:19:25Z</time>
      </trkpt>
      <trkpt lat="44.41775" lon="6.17084">
        <ele>856.1911621</ele>
        <time>2012-08-02T07:19:29Z</time>
      </trkpt>
      <trkpt lat="44.41767" lon="6.17042">
        <ele>853.7880859</ele>
        <time>2012-08-02T07:19:32Z</time>
      </trkpt>
      <trkpt lat="44.41756" lon="6.16984">
        <ele>851.8654785</ele>
        <time>2012-08-02T07:19:36Z</time>
      </trkpt>
      <trkpt lat="44.41737" lon="6.16948">
        <ele>849.4621582</ele>
        <time>2012-08-02T07:19:39Z</time>
      </trkpt>
      <trkpt lat="44.41709" lon="6.16907">
        <ele>847.0588379</ele>
        <time>2012-08-02T07:19:43Z</time>
      </trkpt>
      <trkpt lat="44.41696" lon="6.16886">
        <ele>844.6555176</ele>
        <time>2012-08-02T07:19:46Z</time>
      </trkpt>
      <trkpt lat="44.41687" lon="6.16868">
        <ele>843.2133789</ele>
        <time>2012-08-02T07:19:49Z</time>
      </trkpt>
      <trkpt lat="44.41696" lon="6.16829">
        <ele>842.2521973</ele>
        <time>2012-08-02T07:19:55Z</time>
      </trkpt>
      <trkpt lat="44.41708" lon="6.16829">
        <ele>841.2907715</ele>
        <time>2012-08-02T07:19:57Z</time>
      </trkpt>
      <trkpt lat="44.41721" lon="6.16832">
        <ele>841.2907715</ele>
        <time>2012-08-02T07:19:59Z</time>
      </trkpt>
      <trkpt lat="44.41757" lon="6.16866">
        <ele>838.8876953</ele>
        <time>2012-08-02T07:20:05Z</time>
      </trkpt>
      <trkpt lat="44.41767" lon="6.16883">
        <ele>837.9262695</ele>
        <time>2012-08-02T07:20:07Z</time>
      </trkpt>
      <trkpt lat="44.41809" lon="6.16906">
        <ele>836.9648438</ele>
        <time>2012-08-02T07:20:13Z</time>
      </trkpt>
      <trkpt lat="44.41873" lon="6.16905">
        <ele>836.484375</ele>
        <time>2012-08-02T07:20:24Z</time>
      </trkpt>
      <trkpt lat="44.41909" lon="6.16904">
        <ele>836.484375</ele>
        <time>2012-08-02T07:20:37Z</time>
      </trkpt>
      <trkpt lat="44.4195" lon="6.16902">
        <ele>837.9262695</ele>
        <time>2012-08-02T07:20:58Z</time>
      </trkpt>
      <trkpt lat="44.41978" lon="6.16934">
        <ele>839.848877</ele>
        <time>2012-08-02T07:21:20Z</time>
      </trkpt>
      <trkpt lat="44.41994" lon="6.16968">
        <ele>842.2521973</ele>
        <time>2012-08-02T07:21:42Z</time>
      </trkpt>
      <trkpt lat="44.42017" lon="6.17002">
        <ele>844.6555176</ele>
        <time>2012-08-02T07:22:07Z</time>
      </trkpt>
      <trkpt lat="44.42028" lon="6.17011">
        <ele>845.6169434</ele>
        <time>2012-08-02T07:22:16Z</time>
      </trkpt>
      <trkpt lat="44.42034" lon="6.16996">
        <ele>846.0976563</ele>
        <time>2012-08-02T07:22:26Z</time>
      </trkpt>
      <trkpt lat="44.42012" lon="6.16957">
        <ele>847.5395508</ele>
        <time>2012-08-02T07:22:47Z</time>
      </trkpt>
      <trkpt lat="44.42" lon="6.16912">
        <ele>848.9814453</ele>
        <time>2012-08-02T07:23:09Z</time>
      </trkpt>
      <trkpt lat="44.41998" lon="6.16904">
        <ele>849.4621582</ele>
        <time>2012-08-02T07:23:13Z</time>
      </trkpt>
      <trkpt lat="44.41985" lon="6.16836">
        <ele>851.8654785</ele>
        <time>2012-08-02T07:23:46Z</time>
      </trkpt>
      <trkpt lat="44.41978" lon="6.16797">
        <ele>853.307373</ele>
        <time>2012-08-02T07:24:04Z</time>
      </trkpt>
      <trkpt lat="44.41965" lon="6.1674">
        <ele>855.7106934</ele>
        <time>2012-08-02T07:24:32Z</time>
      </trkpt>
      <trkpt lat="44.41949" lon="6.16682">
        <ele>857.6333008</ele>
        <time>2012-08-02T07:25:00Z</time>
      </trkpt>
      <trkpt lat="44.4193" lon="6.16629">
        <ele>859.5559082</ele>
        <time>2012-08-02T07:25:27Z</time>
      </trkpt>
      <trkpt lat="44.41913" lon="6.16581">
        <ele>861.4787598</ele>
        <time>2012-08-02T07:25:51Z</time>
      </trkpt>
      <trkpt lat="44.41904" lon="6.16533">
        <ele>863.8818359</ele>
        <time>2012-08-02T07:26:15Z</time>
      </trkpt>
      <trkpt lat="44.41884" lon="6.1648">
        <ele>866.2851563</ele>
        <time>2012-08-02T07:26:43Z</time>
      </trkpt>
      <trkpt lat="44.41868" lon="6.16445">
        <ele>868.2077637</ele>
        <time>2012-08-02T07:27:03Z</time>
      </trkpt>
      <trkpt lat="44.41859" lon="6.16398">
        <ele>870.611084</ele>
        <time>2012-08-02T07:27:28Z</time>
      </trkpt>
      <trkpt lat="44.41856" lon="6.16339">
        <ele>872.5336914</ele>
        <time>2012-08-02T07:27:55Z</time>
      </trkpt>
      <trkpt lat="44.41864" lon="6.16277">
        <ele>874.4562988</ele>
        <time>2012-08-02T07:28:23Z</time>
      </trkpt>
      <trkpt lat="44.41867" lon="6.16236">
        <ele>876.3791504</ele>
        <time>2012-08-02T07:28:43Z</time>
      </trkpt>
      <trkpt lat="44.41865" lon="6.16184">
        <ele>878.3017578</ele>
        <time>2012-08-02T07:29:07Z</time>
      </trkpt>
      <trkpt lat="44.41865" lon="6.16136">
        <ele>879.2629395</ele>
        <time>2012-08-02T07:29:27Z</time>
      </trkpt>
      <trkpt lat="44.41865" lon="6.16074">
        <ele>880.7050781</ele>
        <time>2012-08-02T07:29:53Z</time>
      </trkpt>
      <trkpt lat="44.41887" lon="6.15952">
        <ele>881.6662598</ele>
        <time>2012-08-02T07:30:39Z</time>
      </trkpt>
      <trkpt lat="44.41888" lon="6.15947">
        <ele>882.6276855</ele>
        <time>2012-08-02T07:30:41Z</time>
      </trkpt>
      <trkpt lat="44.41895" lon="6.15891">
        <ele>884.0695801</ele>
        <time>2012-08-02T07:31:04Z</time>
      </trkpt>
      <trkpt lat="44.41899" lon="6.15838">
        <ele>885.9921875</ele>
        <time>2012-08-02T07:31:28Z</time>
      </trkpt>
      <trkpt lat="44.41902" lon="6.1579">
        <ele>887.9147949</ele>
        <time>2012-08-02T07:31:51Z</time>
      </trkpt>
      <trkpt lat="44.41903" lon="6.15741">
        <ele>889.3566895</ele>
        <time>2012-08-02T07:32:14Z</time>
      </trkpt>
      <trkpt lat="44.41901" lon="6.15688">
        <ele>891.2792969</ele>
        <time>2012-08-02T07:32:38Z</time>
      </trkpt>
      <trkpt lat="44.41899" lon="6.15641">
        <ele>893.2021484</ele>
        <time>2012-08-02T07:33:00Z</time>
      </trkpt>
      <trkpt lat="44.41901" lon="6.15586">
        <ele>895.1247559</ele>
        <time>2012-08-02T07:33:26Z</time>
      </trkpt>
      <trkpt lat="44.41907" lon="6.15538">
        <ele>896.5668945</ele>
        <time>2012-08-02T07:33:49Z</time>
      </trkpt>
      <trkpt lat="44.41914" lon="6.15485">
        <ele>898.9699707</ele>
        <time>2012-08-02T07:34:14Z</time>
      </trkpt>
      <trkpt lat="44.4192" lon="6.15444">
        <ele>900.8925781</ele>
        <time>2012-08-02T07:34:34Z</time>
      </trkpt>
      <trkpt lat="44.41927" lon="6.15394">
        <ele>902.8151855</ele>
        <time>2012-08-02T07:34:57Z</time>
      </trkpt>
      <trkpt lat="44.41934" lon="6.15348">
        <ele>904.737793</ele>
        <time>2012-08-02T07:35:19Z</time>
      </trkpt>
      <trkpt lat="44.41942" lon="6.15307">
        <ele>906.1796875</ele>
        <time>2012-08-02T07:35:39Z</time>
      </trkpt>
      <trkpt lat="44.41949" lon="6.15266">
        <ele>908.583252</ele>
        <time>2012-08-02T07:35:59Z</time>
      </trkpt>
      <trkpt lat="44.41963" lon="6.15204">
        <ele>910.5058594</ele>
        <time>2012-08-02T07:36:28Z</time>
      </trkpt>
      <trkpt lat="44.41975" lon="6.15166">
        <ele>911.947998</ele>
        <time>2012-08-02T07:36:48Z</time>
      </trkpt>
      <trkpt lat="44.41976" lon="6.15163">
        <ele>912.4284668</ele>
        <time>2012-08-02T07:37:08Z</time>
      </trkpt>
      <trkpt lat="44.4197" lon="6.15133">
        <ele>911.4672852</ele>
        <time>2012-08-02T07:37:48Z</time>
      </trkpt>
      <trkpt lat="44.41953" lon="6.15074">
        <ele>912.4284668</ele>
        <time>2012-08-02T07:38:07Z</time>
      </trkpt>
      <trkpt lat="44.41951" lon="6.14999">
        <ele>911.4672852</ele>
        <time>2012-08-02T07:38:28Z</time>
      </trkpt>
      <trkpt lat="44.41946" lon="6.14948">
        <ele>909.0639648</ele>
        <time>2012-08-02T07:38:38Z</time>
      </trkpt>
      <trkpt lat="44.41946" lon="6.1494">
        <ele>908.583252</ele>
        <time>2012-08-02T07:38:40Z</time>
      </trkpt>
      <trkpt lat="44.41955" lon="6.14927">
        <ele>907.1411133</ele>
        <time>2012-08-02T07:38:44Z</time>
      </trkpt>
      <trkpt lat="44.41982" lon="6.14917">
        <ele>903.7766113</ele>
        <time>2012-08-02T07:38:51Z</time>
      </trkpt>
      <trkpt lat="44.41987" lon="6.14893">
        <ele>902.8151855</ele>
        <time>2012-08-02T07:38:57Z</time>
      </trkpt>
      <trkpt lat="44.41979" lon="6.14834">
        <ele>903.2958984</ele>
        <time>2012-08-02T07:39:16Z</time>
      </trkpt>
      <trkpt lat="44.41988" lon="6.14769">
        <ele>904.737793</ele>
        <time>2012-08-02T07:39:42Z</time>
      </trkpt>
      <trkpt lat="44.41993" lon="6.1471">
        <ele>905.6992188</ele>
        <time>2012-08-02T07:40:06Z</time>
      </trkpt>
      <trkpt lat="44.41993" lon="6.14662">
        <ele>907.6218262</ele>
        <time>2012-08-02T07:40:25Z</time>
      </trkpt>
      <trkpt lat="44.41987" lon="6.14599">
        <ele>909.0639648</ele>
        <time>2012-08-02T07:40:50Z</time>
      </trkpt>
      <trkpt lat="44.41977" lon="6.14547">
        <ele>910.5058594</ele>
        <time>2012-08-02T07:41:12Z</time>
      </trkpt>
      <trkpt lat="44.41969" lon="6.14493">
        <ele>911.4672852</ele>
        <time>2012-08-02T07:41:34Z</time>
      </trkpt>
      <trkpt lat="44.41966" lon="6.14439">
        <ele>913.3898926</ele>
        <time>2012-08-02T07:41:59Z</time>
      </trkpt>
      <trkpt lat="44.41967" lon="6.14437">
        <ele>913.3898926</ele>
        <time>2012-08-02T07:42:00Z</time>
      </trkpt>
      <trkpt lat="44.41968" lon="6.14401">
        <ele>914.8317871</ele>
        <time>2012-08-02T07:42:17Z</time>
      </trkpt>
      <trkpt lat="44.41966" lon="6.1437">
        <ele>916.7543945</ele>
        <time>2012-08-02T07:42:44Z</time>
      </trkpt>
      <trkpt lat="44.41966" lon="6.1437">
        <ele>918.677002</ele>
        <time>2012-08-02T07:43:04Z</time>
      </trkpt>
      <trkpt lat="44.41966" lon="6.1437">
        <ele>920.5996094</ele>
        <time>2012-08-02T07:43:15Z</time>
      </trkpt>
      <trkpt lat="44.41966" lon="6.1437">
        <ele>922.5222168</ele>
        <time>2012-08-02T07:43:34Z</time>
      </trkpt>
      <trkpt lat="44.41966" lon="6.1437">
        <ele>923.0029297</ele>
        <time>2012-08-02T07:43:38Z</time>
      </trkpt>
      <trkpt lat="44.41966" lon="6.1437">
        <ele>925.40625</ele>
        <time>2012-08-02T07:43:58Z</time>
      </trkpt>
      <trkpt lat="44.41967" lon="6.14243">
        <ele>926.8483887</ele>
        <time>2012-08-02T07:44:14Z</time>
      </trkpt>
      <trkpt lat="44.41967" lon="6.14243">
        <ele>928.7709961</ele>
        <time>2012-08-02T07:44:33Z</time>
      </trkpt>
      <trkpt lat="44.41967" lon="6.14243">
        <ele>931.6547852</ele>
        <time>2012-08-02T07:45:00Z</time>
      </trkpt>
      <trkpt lat="44.41967" lon="6.14243">
        <ele>933.0966797</ele>
        <time>2012-08-02T07:45:13Z</time>
      </trkpt>
      <trkpt lat="44.41999" lon="6.14128">
        <ele>935.5</ele>
        <time>2012-08-02T07:45:34Z</time>
      </trkpt>
      <trkpt lat="44.41999" lon="6.14128">
        <ele>937.4226074</ele>
        <time>2012-08-02T07:45:53Z</time>
      </trkpt>
      <trkpt lat="44.42003" lon="6.14072">
        <ele>938.8647461</ele>
        <time>2012-08-02T07:46:04Z</time>
      </trkpt>
      <trkpt lat="44.42003" lon="6.14072">
        <ele>939.3452148</ele>
        <time>2012-08-02T07:46:08Z</time>
      </trkpt>
      <trkpt lat="44.42003" lon="6.14072">
        <ele>940.7873535</ele>
        <time>2012-08-02T07:46:23Z</time>
      </trkpt>
      <trkpt lat="44.41977" lon="6.14019">
        <ele>943.1906738</ele>
        <time>2012-08-02T07:46:53Z</time>
      </trkpt>
      <trkpt lat="44.41977" lon="6.14019">
        <ele>944.1520996</ele>
        <time>2012-08-02T07:47:01Z</time>
      </trkpt>
      <trkpt lat="44.41966" lon="6.1398">
        <ele>945.5939941</ele>
        <time>2012-08-02T07:47:23Z</time>
      </trkpt>
      <trkpt lat="44.41966" lon="6.1398">
        <ele>946.074707</ele>
        <time>2012-08-02T07:47:26Z</time>
      </trkpt>
      <trkpt lat="44.41962" lon="6.13958">
        <ele>946.5554199</ele>
        <time>2012-08-02T07:47:33Z</time>
      </trkpt>
      <trkpt lat="44.41954" lon="6.13956">
        <ele>947.0358887</ele>
        <time>2012-08-02T07:47:37Z</time>
      </trkpt>
      <trkpt lat="44.41948" lon="6.13968">
        <ele>947.0358887</ele>
        <time>2012-08-02T07:47:44Z</time>
      </trkpt>
      <trkpt lat="44.41951" lon="6.13991">
        <ele>948.4777832</ele>
        <time>2012-08-02T07:48:07Z</time>
      </trkpt>
      <trkpt lat="44.41951" lon="6.13991">
        <ele>950.4006348</ele>
        <time>2012-08-02T07:48:29Z</time>
      </trkpt>
      <trkpt lat="44.41951" lon="6.13991">
        <ele>951.8425293</ele>
        <time>2012-08-02T07:48:45Z</time>
      </trkpt>
      <trkpt lat="44.41942" lon="6.14065">
        <ele>952.8037109</ele>
        <time>2012-08-02T07:48:53Z</time>
      </trkpt>
      <trkpt lat="44.41942" lon="6.14065">
        <ele>953.2844238</ele>
        <time>2012-08-02T07:49:00Z</time>
      </trkpt>
      <trkpt lat="44.41931" lon="6.14095">
        <ele>954.7263184</ele>
        <time>2012-08-02T07:49:20Z</time>
      </trkpt>
      <trkpt lat="44.4193" lon="6.14143">
        <ele>956.6491699</ele>
        <time>2012-08-02T07:49:39Z</time>
      </trkpt>
      <trkpt lat="44.4193" lon="6.14143">
        <ele>958.0913086</ele>
        <time>2012-08-02T07:49:58Z</time>
      </trkpt>
      <trkpt lat="44.41917" lon="6.14194">
        <ele>960.4943848</ele>
        <time>2012-08-02T07:50:20Z</time>
      </trkpt>
      <trkpt lat="44.41912" lon="6.14213">
        <ele>960.9750977</ele>
        <time>2012-08-02T07:50:29Z</time>
      </trkpt>
      <trkpt lat="44.4191" lon="6.14221">
        <ele>962.8977051</ele>
        <time>2012-08-02T07:50:57Z</time>
      </trkpt>
      <trkpt lat="44.41892" lon="6.14292">
        <ele>964.8203125</ele>
        <time>2012-08-02T07:51:22Z</time>
      </trkpt>
      <trkpt lat="44.41885" lon="6.14321">
        <ele>965.7817383</ele>
        <time>2012-08-02T07:51:45Z</time>
      </trkpt>
      <trkpt lat="44.41881" lon="6.14335">
        <ele>966.7429199</ele>
        <time>2012-08-02T07:52:30Z</time>
      </trkpt>
      <trkpt lat="44.41871" lon="6.14363">
        <ele>968.1848145</ele>
        <time>2012-08-02T07:52:48Z</time>
      </trkpt>
      <trkpt lat="44.41857" lon="6.14391">
        <ele>971.0688477</ele>
        <time>2012-08-02T07:53:12Z</time>
      </trkpt>
      <trkpt lat="44.41838" lon="6.14431">
        <ele>972.9916992</ele>
        <time>2012-08-02T07:53:39Z</time>
      </trkpt>
      <trkpt lat="44.41822" lon="6.14468">
        <ele>974.9143066</ele>
        <time>2012-08-02T07:54:03Z</time>
      </trkpt>
      <trkpt lat="44.41804" lon="6.14506">
        <ele>976.8369141</ele>
        <time>2012-08-02T07:54:32Z</time>
      </trkpt>
      <trkpt lat="44.41791" lon="6.14531">
        <ele>978.7595215</ele>
        <time>2012-08-02T07:54:52Z</time>
      </trkpt>
      <trkpt lat="44.41786" lon="6.14539">
        <ele>978.7595215</ele>
        <time>2012-08-02T07:54:57Z</time>
      </trkpt>
      <trkpt lat="44.41786" lon="6.14539">
        <ele>978.7595215</ele>
        <time>2012-08-02T07:55:00Z</time>
      </trkpt>
      <trkpt lat="44.4178" lon="6.14549">
        <ele>979.2399902</ele>
        <time>2012-08-02T07:55:13Z</time>
      </trkpt>
      <trkpt lat="44.41764" lon="6.1458">
        <ele>980.201416</ele>
        <time>2012-08-02T07:55:32Z</time>
      </trkpt>
      <trkpt lat="44.41764" lon="6.14592">
        <ele>980.201416</ele>
        <time>2012-08-02T07:55:39Z</time>
      </trkpt>
      <trkpt lat="44.41766" lon="6.14632">
        <ele>980.201416</ele>
        <time>2012-08-02T07:55:59Z</time>
      </trkpt>
      <trkpt lat="44.41769" lon="6.14675">
        <ele>980.6821289</ele>
        <time>2012-08-02T07:56:18Z</time>
      </trkpt>
      <trkpt lat="44.4177" lon="6.14695">
        <ele>980.201416</ele>
        <time>2012-08-02T07:56:26Z</time>
      </trkpt>
      <trkpt lat="44.4177" lon="6.14733">
        <ele>979.7207031</ele>
        <time>2012-08-02T07:56:41Z</time>
      </trkpt>
      <trkpt lat="44.41769" lon="6.14775">
        <ele>979.2399902</ele>
        <time>2012-08-02T07:56:55Z</time>
      </trkpt>
      <trkpt lat="44.41758" lon="6.14838">
        <ele>979.2399902</ele>
        <time>2012-08-02T07:57:17Z</time>
      </trkpt>
      <trkpt lat="44.41745" lon="6.1491">
        <ele>978.7595215</ele>
        <time>2012-08-02T07:57:40Z</time>
      </trkpt>
      <trkpt lat="44.41724" lon="6.15">
        <ele>977.317627</ele>
        <time>2012-08-02T07:58:05Z</time>
      </trkpt>
      <trkpt lat="44.41715" lon="6.15026">
        <ele>977.317627</ele>
        <time>2012-08-02T07:58:13Z</time>
      </trkpt>
      <trkpt lat="44.41703" lon="6.15081">
        <ele>976.3562012</ele>
        <time>2012-08-02T07:58:29Z</time>
      </trkpt>
      <trkpt lat="44.41694" lon="6.1515">
        <ele>976.3562012</ele>
        <time>2012-08-02T07:58:49Z</time>
      </trkpt>
      <trkpt lat="44.41676" lon="6.15228">
        <ele>976.3562012</ele>
        <time>2012-08-02T07:59:10Z</time>
      </trkpt>
      <trkpt lat="44.41675" lon="6.15235">
        <ele>976.3562012</ele>
        <time>2012-08-02T07:59:12Z</time>
      </trkpt>
      <trkpt lat="44.41671" lon="6.1525">
        <ele>975.8754883</ele>
        <time>2012-08-02T07:59:21Z</time>
      </trkpt>
      <trkpt lat="44.4163" lon="6.15315">
        <ele>974.9143066</ele>
        <time>2012-08-02T07:59:38Z</time>
      </trkpt>
      <trkpt lat="44.41623" lon="6.15327">
        <ele>974.9143066</ele>
        <time>2012-08-02T07:59:42Z</time>
      </trkpt>
      <trkpt lat="44.41623" lon="6.15342">
        <ele>974.9143066</ele>
        <time>2012-08-02T07:59:46Z</time>
      </trkpt>
      <trkpt lat="44.41616" lon="6.15397">
        <ele>974.4335938</ele>
        <time>2012-08-02T08:00:02Z</time>
      </trkpt>
      <trkpt lat="44.41615" lon="6.15396">
        <ele>973.9528809</ele>
        <time>2012-08-02T08:00:13Z</time>
      </trkpt>
      <trkpt lat="44.41615" lon="6.15396">
        <ele>974.4335938</ele>
        <time>2012-08-02T08:00:51Z</time>
      </trkpt>
      <trkpt lat="44.41615" lon="6.15396">
        <ele>973.4724121</ele>
        <time>2012-08-02T08:02:08Z</time>
      </trkpt>
      <trkpt lat="44.41611" lon="6.15402">
        <ele>973.4724121</ele>
        <time>2012-08-02T08:02:24Z</time>
      </trkpt>
      <trkpt lat="44.41611" lon="6.15402">
        <ele>973.9528809</ele>
        <time>2012-08-02T08:02:41Z</time>
      </trkpt>
      <trkpt lat="44.41613" lon="6.1541">
        <ele>972.0302734</ele>
        <time>2012-08-02T08:03:19Z</time>
      </trkpt>
      <trkpt lat="44.41615" lon="6.15407">
        <ele>972.0302734</ele>
        <time>2012-08-02T08:03:41Z</time>
      </trkpt>
      <trkpt lat="44.41611" lon="6.15406">
        <ele>971.5493164</ele>
        <time>2012-08-02T08:04:04Z</time>
      </trkpt>
      <trkpt lat="44.41604" lon="6.15401">
        <ele>971.5493164</ele>
        <time>2012-08-02T08:06:39Z</time>
      </trkpt>
      <trkpt lat="44.41604" lon="6.15396">
        <ele>969.1462402</ele>
        <time>2012-08-02T08:06:57Z</time>
      </trkpt>
      <trkpt lat="44.41608" lon="6.15389">
        <ele>972.5109863</ele>
        <time>2012-08-02T08:07:12Z</time>
      </trkpt>
      <trkpt lat="44.416" lon="6.15391">
        <ele>972.0302734</ele>
        <time>2012-08-02T08:07:22Z</time>
      </trkpt>
      <trkpt lat="44.41609" lon="6.15399">
        <ele>972.9916992</ele>
        <time>2012-08-02T08:07:35Z</time>
      </trkpt>
      <trkpt lat="44.41612" lon="6.15401">
        <ele>972.9916992</ele>
        <time>2012-08-02T08:08:03Z</time>
      </trkpt>
      <trkpt lat="44.41611" lon="6.15401">
        <ele>972.9916992</ele>
        <time>2012-08-02T08:08:06Z</time>
      </trkpt>
      <trkpt lat="44.41616" lon="6.15391">
        <ele>972.5109863</ele>
        <time>2012-08-02T08:08:12Z</time>
      </trkpt>
      <trkpt lat="44.41616" lon="6.15387">
        <ele>972.9916992</ele>
        <time>2012-08-02T08:08:14Z</time>
      </trkpt>
      <trkpt lat="44.41617" lon="6.15377">
        <ele>972.9916992</ele>
        <time>2012-08-02T08:08:20Z</time>
      </trkpt>
      <trkpt lat="44.41619" lon="6.15371">
        <ele>973.4724121</ele>
        <time>2012-08-02T08:08:24Z</time>
      </trkpt>
      <trkpt lat="44.4162" lon="6.15362">
        <ele>973.9528809</ele>
        <time>2012-08-02T08:08:30Z</time>
      </trkpt>
      <trkpt lat="44.41621" lon="6.15359">
        <ele>974.4335938</ele>
        <time>2012-08-02T08:08:32Z</time>
      </trkpt>
      <trkpt lat="44.4162" lon="6.15355">
        <ele>974.9143066</ele>
        <time>2012-08-02T08:08:34Z</time>
      </trkpt>
      <trkpt lat="44.41618" lon="6.1534">
        <ele>975.8754883</ele>
        <time>2012-08-02T08:08:45Z</time>
      </trkpt>
      <trkpt lat="44.41618" lon="6.15334">
        <ele>976.3562012</ele>
        <time>2012-08-02T08:08:49Z</time>
      </trkpt>
      <trkpt lat="44.41614" lon="6.15317">
        <ele>977.317627</ele>
        <time>2012-08-02T08:09:01Z</time>
      </trkpt>
      <trkpt lat="44.4162" lon="6.15306">
        <ele>979.2399902</ele>
        <time>2012-08-02T08:09:14Z</time>
      </trkpt>
      <trkpt lat="44.41634" lon="6.15295">
        <ele>981.1628418</ele>
        <time>2012-08-02T08:09:30Z</time>
      </trkpt>
      <trkpt lat="44.41641" lon="6.1528">
        <ele>982.1240234</ele>
        <time>2012-08-02T08:09:42Z</time>
      </trkpt>
      <trkpt lat="44.41649" lon="6.15255">
        <ele>983.565918</ele>
        <time>2012-08-02T08:09:59Z</time>
      </trkpt>
      <trkpt lat="44.41654" lon="6.15238">
        <ele>985.0080566</ele>
        <time>2012-08-02T08:10:11Z</time>
      </trkpt>
      <trkpt lat="44.41657" lon="6.15218">
        <ele>986.4499512</ele>
        <time>2012-08-02T08:10:28Z</time>
      </trkpt>
      <trkpt lat="44.41658" lon="6.1521">
        <ele>986.9304199</ele>
        <time>2012-08-02T08:10:34Z</time>
      </trkpt>
      <trkpt lat="44.41661" lon="6.15182">
        <ele>989.3339844</ele>
        <time>2012-08-02T08:10:55Z</time>
      </trkpt>
      <trkpt lat="44.41664" lon="6.15163">
        <ele>990.2954102</ele>
        <time>2012-08-02T08:11:10Z</time>
      </trkpt>
      <trkpt lat="44.41664" lon="6.15156">
        <ele>990.2954102</ele>
        <time>2012-08-02T08:11:13Z</time>
      </trkpt>
      <trkpt lat="44.41664" lon="6.15151">
        <ele>990.7758789</ele>
        <time>2012-08-02T08:11:16Z</time>
      </trkpt>
      <trkpt lat="44.41664" lon="6.15144">
        <ele>991.2565918</ele>
        <time>2012-08-02T08:11:20Z</time>
      </trkpt>
      <trkpt lat="44.41664" lon="6.15132">
        <ele>992.2180176</ele>
        <time>2012-08-02T08:11:27Z</time>
      </trkpt>
      <trkpt lat="44.41664" lon="6.15131">
        <ele>992.2180176</ele>
        <time>2012-08-02T08:11:28Z</time>
      </trkpt>
      <trkpt lat="44.41668" lon="6.15117">
        <ele>993.6599121</ele>
        <time>2012-08-02T08:11:39Z</time>
      </trkpt>
      <trkpt lat="44.41668" lon="6.15116">
        <ele>993.6599121</ele>
        <time>2012-08-02T08:11:40Z</time>
      </trkpt>
      <trkpt lat="44.41672" lon="6.15112">
        <ele>994.140625</ele>
        <time>2012-08-02T08:11:43Z</time>
      </trkpt>
      <trkpt lat="44.41674" lon="6.15102">
        <ele>994.140625</ele>
        <time>2012-08-02T08:11:50Z</time>
      </trkpt>
      <trkpt lat="44.41675" lon="6.15081">
        <ele>996.0632324</ele>
        <time>2012-08-02T08:12:04Z</time>
      </trkpt>
      <trkpt lat="44.41674" lon="6.15079">
        <ele>996.0632324</ele>
        <time>2012-08-02T08:12:06Z</time>
      </trkpt>
      <trkpt lat="44.41676" lon="6.15059">
        <ele>997.0244141</ele>
        <time>2012-08-02T08:12:20Z</time>
      </trkpt>
      <trkpt lat="44.41682" lon="6.15046">
        <ele>997.505127</ele>
        <time>2012-08-02T08:12:28Z</time>
      </trkpt>
      <trkpt lat="44.4168" lon="6.15024">
        <ele>999.4277344</ele>
        <time>2012-08-02T08:12:42Z</time>
      </trkpt>
      <trkpt lat="44.41679" lon="6.1502">
        <ele>999.9084473</ele>
        <time>2012-08-02T08:12:46Z</time>
      </trkpt>
      <trkpt lat="44.41682" lon="6.15014">
        <ele>999.9084473</ele>
        <time>2012-08-02T08:12:51Z</time>
      </trkpt>
      <trkpt lat="44.41682" lon="6.15011">
        <ele>1000.3891602</ele>
        <time>2012-08-02T08:12:53Z</time>
      </trkpt>
      <trkpt lat="44.4168" lon="6.15006">
        <ele>1001.3503418</ele>
        <time>2012-08-02T08:12:57Z</time>
      </trkpt>
      <trkpt lat="44.4168" lon="6.15002">
        <ele>1001.3503418</ele>
        <time>2012-08-02T08:13:00Z</time>
      </trkpt>
      <trkpt lat="44.41684" lon="6.14989">
        <ele>1002.3115234</ele>
        <time>2012-08-02T08:13:10Z</time>
      </trkpt>
      <trkpt lat="44.41682" lon="6.14971">
        <ele>1003.2729492</ele>
        <time>2012-08-02T08:13:24Z</time>
      </trkpt>
      <trkpt lat="44.41681" lon="6.14967">
        <ele>1004.2346191</ele>
        <time>2012-08-02T08:13:28Z</time>
      </trkpt>
      <trkpt lat="44.41681" lon="6.14959">
        <ele>1004.2346191</ele>
        <time>2012-08-02T08:13:32Z</time>
      </trkpt>
      <trkpt lat="44.41683" lon="6.14945">
        <ele>1005.6765137</ele>
        <time>2012-08-02T08:13:42Z</time>
      </trkpt>
      <trkpt lat="44.4168" lon="6.14932">
        <ele>1006.1569824</ele>
        <time>2012-08-02T08:13:49Z</time>
      </trkpt>
      <trkpt lat="44.41677" lon="6.14924">
        <ele>1006.6376953</ele>
        <time>2012-08-02T08:13:53Z</time>
      </trkpt>
      <trkpt lat="44.41691" lon="6.149">
        <ele>1008.079834</ele>
        <time>2012-08-02T08:14:10Z</time>
      </trkpt>
      <trkpt lat="44.41693" lon="6.14893">
        <ele>1008.5603027</ele>
        <time>2012-08-02T08:14:14Z</time>
      </trkpt>
      <trkpt lat="44.41698" lon="6.14875">
        <ele>1009.5217285</ele>
        <time>2012-08-02T08:14:25Z</time>
      </trkpt>
      <trkpt lat="44.41698" lon="6.14874">
        <ele>1009.5217285</ele>
        <time>2012-08-02T08:14:26Z</time>
      </trkpt>
      <trkpt lat="44.41695" lon="6.14861">
        <ele>1010.4829102</ele>
        <time>2012-08-02T08:14:36Z</time>
      </trkpt>
      <trkpt lat="44.41692" lon="6.14845">
        <ele>1011.9250488</ele>
        <time>2012-08-02T08:14:48Z</time>
      </trkpt>
      <trkpt lat="44.41693" lon="6.14832">
        <ele>1012.8862305</ele>
        <time>2012-08-02T08:14:56Z</time>
      </trkpt>
      <trkpt lat="44.41688" lon="6.14817">
        <ele>1013.3669434</ele>
        <time>2012-08-02T08:15:06Z</time>
      </trkpt>
      <trkpt lat="44.41688" lon="6.1481">
        <ele>1013.8474121</ele>
        <time>2012-08-02T08:15:10Z</time>
      </trkpt>
      <trkpt lat="44.4169" lon="6.14802">
        <ele>1014.328125</ele>
        <time>2012-08-02T08:15:14Z</time>
      </trkpt>
      <trkpt lat="44.4169" lon="6.14796">
        <ele>1014.328125</ele>
        <time>2012-08-02T08:15:18Z</time>
      </trkpt>
      <trkpt lat="44.41691" lon="6.14791">
        <ele>1014.328125</ele>
        <time>2012-08-02T08:15:22Z</time>
      </trkpt>
      <trkpt lat="44.41693" lon="6.14787">
        <ele>1014.8088379</ele>
        <time>2012-08-02T08:15:24Z</time>
      </trkpt>
      <trkpt lat="44.4169" lon="6.14777">
        <ele>1015.2895508</ele>
        <time>2012-08-02T08:15:31Z</time>
      </trkpt>
      <trkpt lat="44.4169" lon="6.1476">
        <ele>1016.2507324</ele>
        <time>2012-08-02T08:15:41Z</time>
      </trkpt>
      <trkpt lat="44.41691" lon="6.14755">
        <ele>1016.7314453</ele>
        <time>2012-08-02T08:15:44Z</time>
      </trkpt>
      <trkpt lat="44.41692" lon="6.14749">
        <ele>1016.7314453</ele>
        <time>2012-08-02T08:15:48Z</time>
      </trkpt>
      <trkpt lat="44.41696" lon="6.14737">
        <ele>1018.1733398</ele>
        <time>2012-08-02T08:15:59Z</time>
      </trkpt>
      <trkpt lat="44.41696" lon="6.14714">
        <ele>1018.6540527</ele>
        <time>2012-08-02T08:16:13Z</time>
      </trkpt>
      <trkpt lat="44.41694" lon="6.14689">
        <ele>1020.5769043</ele>
        <time>2012-08-02T08:16:30Z</time>
      </trkpt>
      <trkpt lat="44.41693" lon="6.14671">
        <ele>1021.5380859</ele>
        <time>2012-08-02T08:16:42Z</time>
      </trkpt>
      <trkpt lat="44.41691" lon="6.14667">
        <ele>1022.0187988</ele>
        <time>2012-08-02T08:16:44Z</time>
      </trkpt>
      <trkpt lat="44.41694" lon="6.14662">
        <ele>1022.4995117</ele>
        <time>2012-08-02T08:16:51Z</time>
      </trkpt>
      <trkpt lat="44.41687" lon="6.14654">
        <ele>1022.9802246</ele>
        <time>2012-08-02T08:16:59Z</time>
      </trkpt>
      <trkpt lat="44.41669" lon="6.1465">
        <ele>1023.9414063</ele>
        <time>2012-08-02T08:17:13Z</time>
      </trkpt>
      <trkpt lat="44.41668" lon="6.1465">
        <ele>1023.9414063</ele>
        <time>2012-08-02T08:17:14Z</time>
      </trkpt>
      <trkpt lat="44.41657" lon="6.14649">
        <ele>1024.902832</ele>
        <time>2012-08-02T08:17:22Z</time>
      </trkpt>
      <trkpt lat="44.41657" lon="6.14647">
        <ele>1025.8640137</ele>
        <time>2012-08-02T08:17:29Z</time>
      </trkpt>
      <trkpt lat="44.41655" lon="6.14635">
        <ele>1026.8254395</ele>
        <time>2012-08-02T08:17:35Z</time>
      </trkpt>
      <trkpt lat="44.41651" lon="6.14624">
        <ele>1027.7866211</ele>
        <time>2012-08-02T08:17:39Z</time>
      </trkpt>
      <trkpt lat="44.41653" lon="6.14618">
        <ele>1027.7866211</ele>
        <time>2012-08-02T08:17:43Z</time>
      </trkpt>
      <trkpt lat="44.41652" lon="6.14614">
        <ele>1027.7866211</ele>
        <time>2012-08-02T08:17:45Z</time>
      </trkpt>
      <trkpt lat="44.41653" lon="6.14611">
        <ele>1027.7866211</ele>
        <time>2012-08-02T08:17:47Z</time>
      </trkpt>
      <trkpt lat="44.41652" lon="6.14606">
        <ele>1028.267334</ele>
        <time>2012-08-02T08:17:50Z</time>
      </trkpt>
      <trkpt lat="44.41658" lon="6.14589">
        <ele>1029.2285156</ele>
        <time>2012-08-02T08:18:02Z</time>
      </trkpt>
      <trkpt lat="44.41658" lon="6.1458">
        <ele>1030.1899414</ele>
        <time>2012-08-02T08:18:08Z</time>
      </trkpt>
      <trkpt lat="44.41661" lon="6.14573">
        <ele>1031.1513672</ele>
        <time>2012-08-02T08:18:15Z</time>
      </trkpt>
      <trkpt lat="44.41659" lon="6.14566">
        <ele>1031.1513672</ele>
        <time>2012-08-02T08:18:18Z</time>
      </trkpt>
      <trkpt lat="44.4166" lon="6.14555">
        <ele>1031.6318359</ele>
        <time>2012-08-02T08:18:27Z</time>
      </trkpt>
      <trkpt lat="44.41662" lon="6.14547">
        <ele>1032.5932617</ele>
        <time>2012-08-02T08:18:31Z</time>
      </trkpt>
      <trkpt lat="44.41676" lon="6.1453">
        <ele>1033.0737305</ele>
        <time>2012-08-02T08:18:43Z</time>
      </trkpt>
      <trkpt lat="44.41678" lon="6.14527">
        <ele>1033.0737305</ele>
        <time>2012-08-02T08:18:45Z</time>
      </trkpt>
      <trkpt lat="44.41681" lon="6.14521">
        <ele>1033.0737305</ele>
        <time>2012-08-02T08:18:50Z</time>
      </trkpt>
      <trkpt lat="44.41687" lon="6.14496">
        <ele>1034.5158691</ele>
        <time>2012-08-02T08:19:08Z</time>
      </trkpt>
      <trkpt lat="44.41697" lon="6.14487">
        <ele>1035.4770508</ele>
        <time>2012-08-02T08:19:19Z</time>
      </trkpt>
      <trkpt lat="44.41704" lon="6.14479">
        <ele>1036.4387207</ele>
        <time>2012-08-02T08:19:31Z</time>
      </trkpt>
      <trkpt lat="44.41709" lon="6.14471">
        <ele>1037.3999023</ele>
        <time>2012-08-02T08:19:38Z</time>
      </trkpt>
      <trkpt lat="44.41709" lon="6.14467">
        <ele>1037.3999023</ele>
        <time>2012-08-02T08:19:41Z</time>
      </trkpt>
      <trkpt lat="44.41715" lon="6.14452">
        <ele>1038.842041</ele>
        <time>2012-08-02T08:19:52Z</time>
      </trkpt>
      <trkpt lat="44.41721" lon="6.1444">
        <ele>1040.2839355</ele>
        <time>2012-08-02T08:20:07Z</time>
      </trkpt>
      <trkpt lat="44.41722" lon="6.14439">
        <ele>1040.2839355</ele>
        <time>2012-08-02T08:20:08Z</time>
      </trkpt>
      <trkpt lat="44.41714" lon="6.14426">
        <ele>1040.7644043</ele>
        <time>2012-08-02T08:20:16Z</time>
      </trkpt>
      <trkpt lat="44.41721" lon="6.14413">
        <ele>1042.206543</ele>
        <time>2012-08-02T08:20:29Z</time>
      </trkpt>
      <trkpt lat="44.41724" lon="6.14408">
        <ele>1042.206543</ele>
        <time>2012-08-02T08:20:32Z</time>
      </trkpt>
      <trkpt lat="44.41726" lon="6.14388">
        <ele>1043.6484375</ele>
        <time>2012-08-02T08:20:48Z</time>
      </trkpt>
      <trkpt lat="44.41727" lon="6.14378">
        <ele>1044.1291504</ele>
        <time>2012-08-02T08:20:54Z</time>
      </trkpt>
      <trkpt lat="44.41727" lon="6.14367">
        <ele>1044.6096191</ele>
        <time>2012-08-02T08:21:05Z</time>
      </trkpt>
      <trkpt lat="44.41726" lon="6.14351">
        <ele>1045.090332</ele>
        <time>2012-08-02T08:21:14Z</time>
      </trkpt>
      <trkpt lat="44.41728" lon="6.14345">
        <ele>1045.090332</ele>
        <time>2012-08-02T08:21:19Z</time>
      </trkpt>
      <trkpt lat="44.41734" lon="6.14328">
        <ele>1047.0129395</ele>
        <time>2012-08-02T08:21:32Z</time>
      </trkpt>
      <trkpt lat="44.41733" lon="6.14321">
        <ele>1047.0129395</ele>
        <time>2012-08-02T08:21:37Z</time>
      </trkpt>
      <trkpt lat="44.41732" lon="6.14317">
        <ele>1047.4936523</ele>
        <time>2012-08-02T08:21:40Z</time>
      </trkpt>
      <trkpt lat="44.41735" lon="6.14311">
        <ele>1047.9743652</ele>
        <time>2012-08-02T08:21:44Z</time>
      </trkpt>
      <trkpt lat="44.41733" lon="6.14301">
        <ele>1048.454834</ele>
        <time>2012-08-02T08:21:51Z</time>
      </trkpt>
      <trkpt lat="44.41736" lon="6.14293">
        <ele>1048.9355469</ele>
        <time>2012-08-02T08:21:55Z</time>
      </trkpt>
      <trkpt lat="44.41733" lon="6.14273">
        <ele>1050.3776855</ele>
        <time>2012-08-02T08:22:09Z</time>
      </trkpt>
      <trkpt lat="44.41732" lon="6.14253">
        <ele>1051.8195801</ele>
        <time>2012-08-02T08:22:24Z</time>
      </trkpt>
      <trkpt lat="44.41738" lon="6.14238">
        <ele>1053.2617188</ele>
        <time>2012-08-02T08:22:37Z</time>
      </trkpt>
      <trkpt lat="44.41739" lon="6.14219">
        <ele>1054.7036133</ele>
        <time>2012-08-02T08:22:52Z</time>
      </trkpt>
      <trkpt lat="44.4174" lon="6.14214">
        <ele>1055.6650391</ele>
        <time>2012-08-02T08:22:57Z</time>
      </trkpt>
      <trkpt lat="44.41738" lon="6.14206">
        <ele>1055.1843262</ele>
        <time>2012-08-02T08:23:01Z</time>
      </trkpt>
      <trkpt lat="44.41739" lon="6.14189">
        <ele>1056.1455078</ele>
        <time>2012-08-02T08:23:12Z</time>
      </trkpt>
      <trkpt lat="44.41739" lon="6.14179">
        <ele>1057.5876465</ele>
        <time>2012-08-02T08:23:18Z</time>
      </trkpt>
      <trkpt lat="44.41741" lon="6.14159">
        <ele>1058.5488281</ele>
        <time>2012-08-02T08:23:32Z</time>
      </trkpt>
      <trkpt lat="44.41741" lon="6.14154">
        <ele>1059.029541</ele>
        <time>2012-08-02T08:23:36Z</time>
      </trkpt>
      <trkpt lat="44.41734" lon="6.14138">
        <ele>1059.9907227</ele>
        <time>2012-08-02T08:23:49Z</time>
      </trkpt>
      <trkpt lat="44.41729" lon="6.14131">
        <ele>1061.4328613</ele>
        <time>2012-08-02T08:23:59Z</time>
      </trkpt>
      <trkpt lat="44.41713" lon="6.14124">
        <ele>1062.394043</ele>
        <time>2012-08-02T08:24:14Z</time>
      </trkpt>
      <trkpt lat="44.41708" lon="6.14124">
        <ele>1063.3554688</ele>
        <time>2012-08-02T08:24:24Z</time>
      </trkpt>
      <trkpt lat="44.41703" lon="6.14117">
        <ele>1064.3166504</ele>
        <time>2012-08-02T08:24:34Z</time>
      </trkpt>
      <trkpt lat="44.41684" lon="6.14088">
        <ele>1065.7587891</ele>
        <time>2012-08-02T08:24:50Z</time>
      </trkpt>
      <trkpt lat="44.41684" lon="6.14086">
        <ele>1065.7587891</ele>
        <time>2012-08-02T08:25:10Z</time>
      </trkpt>
      <trkpt lat="44.41682" lon="6.14084">
        <ele>1065.7587891</ele>
        <time>2012-08-02T08:25:30Z</time>
      </trkpt>
      <trkpt lat="44.41684" lon="6.14079">
        <ele>1066.2392578</ele>
        <time>2012-08-02T08:25:35Z</time>
      </trkpt>
      <trkpt lat="44.41693" lon="6.14064">
        <ele>1066.7199707</ele>
        <time>2012-08-02T08:25:42Z</time>
      </trkpt>
      <trkpt lat="44.41697" lon="6.14059">
        <ele>1066.7199707</ele>
        <time>2012-08-02T08:25:46Z</time>
      </trkpt>
      <trkpt lat="44.41702" lon="6.14051">
        <ele>1067.2006836</ele>
        <time>2012-08-02T08:25:54Z</time>
      </trkpt>
      <trkpt lat="44.41708" lon="6.14041">
        <ele>1068.1621094</ele>
        <time>2012-08-02T08:26:00Z</time>
      </trkpt>
      <trkpt lat="44.41717" lon="6.14025">
        <ele>1069.1235352</ele>
        <time>2012-08-02T08:26:14Z</time>
      </trkpt>
      <trkpt lat="44.41718" lon="6.1402">
        <ele>1069.1235352</ele>
        <time>2012-08-02T08:26:18Z</time>
      </trkpt>
      <trkpt lat="44.41717" lon="6.14017">
        <ele>1069.1235352</ele>
        <time>2012-08-02T08:26:20Z</time>
      </trkpt>
      <trkpt lat="44.41721" lon="6.14012">
        <ele>1070.0847168</ele>
        <time>2012-08-02T08:26:24Z</time>
      </trkpt>
      <trkpt lat="44.41723" lon="6.14006">
        <ele>1070.0847168</ele>
        <time>2012-08-02T08:26:28Z</time>
      </trkpt>
      <trkpt lat="44.41725" lon="6.13996">
        <ele>1071.5266113</ele>
        <time>2012-08-02T08:26:36Z</time>
      </trkpt>
      <trkpt lat="44.41726" lon="6.13994">
        <ele>1071.5266113</ele>
        <time>2012-08-02T08:26:38Z</time>
      </trkpt>
      <trkpt lat="44.41721" lon="6.13978">
        <ele>1072.96875</ele>
        <time>2012-08-02T08:26:47Z</time>
      </trkpt>
      <trkpt lat="44.41721" lon="6.13954">
        <ele>1074.8913574</ele>
        <time>2012-08-02T08:27:03Z</time>
      </trkpt>
      <trkpt lat="44.41723" lon="6.13943">
        <ele>1075.8525391</ele>
        <time>2012-08-02T08:27:12Z</time>
      </trkpt>
      <trkpt lat="44.4172" lon="6.1394">
        <ele>1075.8525391</ele>
        <time>2012-08-02T08:27:16Z</time>
      </trkpt>
      <trkpt lat="44.41717" lon="6.13922">
        <ele>1076.8139648</ele>
        <time>2012-08-02T08:27:31Z</time>
      </trkpt>
      <trkpt lat="44.41716" lon="6.13918">
        <ele>1077.2946777</ele>
        <time>2012-08-02T08:27:35Z</time>
      </trkpt>
      <trkpt lat="44.41716" lon="6.13915">
        <ele>1077.7751465</ele>
        <time>2012-08-02T08:27:37Z</time>
      </trkpt>
      <trkpt lat="44.41706" lon="6.13893">
        <ele>1079.217041</ele>
        <time>2012-08-02T08:27:54Z</time>
      </trkpt>
      <trkpt lat="44.41702" lon="6.13881">
        <ele>1080.6591797</ele>
        <time>2012-08-02T08:28:08Z</time>
      </trkpt>
      <trkpt lat="44.41685" lon="6.13865">
        <ele>1082.5817871</ele>
        <time>2012-08-02T08:28:30Z</time>
      </trkpt>
      <trkpt lat="44.4167" lon="6.13847">
        <ele>1081.6203613</ele>
        <time>2012-08-02T08:28:46Z</time>
      </trkpt>
      <trkpt lat="44.41659" lon="6.13825">
        <ele>1083.5429688</ele>
        <time>2012-08-02T08:29:02Z</time>
      </trkpt>
      <trkpt lat="44.41642" lon="6.13809">
        <ele>1085.9465332</ele>
        <time>2012-08-02T08:29:21Z</time>
      </trkpt>
      <trkpt lat="44.41631" lon="6.13799">
        <ele>1085.9465332</ele>
        <time>2012-08-02T08:29:34Z</time>
      </trkpt>
      <trkpt lat="44.41623" lon="6.13791">
        <ele>1087.3884277</ele>
        <time>2012-08-02T08:29:47Z</time>
      </trkpt>
      <trkpt lat="44.41609" lon="6.13766">
        <ele>1089.3110352</ele>
        <time>2012-08-02T08:30:09Z</time>
      </trkpt>
      <trkpt lat="44.41605" lon="6.13764">
        <ele>1089.791748</ele>
        <time>2012-08-02T08:30:11Z</time>
      </trkpt>
      <trkpt lat="44.41596" lon="6.13757">
        <ele>1090.7529297</ele>
        <time>2012-08-02T08:30:18Z</time>
      </trkpt>
      <trkpt lat="44.41581" lon="6.13738">
        <ele>1092.6757813</ele>
        <time>2012-08-02T08:30:31Z</time>
      </trkpt>
      <trkpt lat="44.41579" lon="6.13736">
        <ele>1092.6757813</ele>
        <time>2012-08-02T08:30:32Z</time>
      </trkpt>
      <trkpt lat="44.41572" lon="6.13722">
        <ele>1092.6757813</ele>
        <time>2012-08-02T08:30:41Z</time>
      </trkpt>
      <trkpt lat="44.41572" lon="6.13719">
        <ele>1093.15625</ele>
        <time>2012-08-02T08:30:44Z</time>
      </trkpt>
      <trkpt lat="44.41575" lon="6.13709">
        <ele>1093.6369629</ele>
        <time>2012-08-02T08:30:50Z</time>
      </trkpt>
      <trkpt lat="44.41576" lon="6.13693">
        <ele>1094.5981445</ele>
        <time>2012-08-02T08:31:00Z</time>
      </trkpt>
      <trkpt lat="44.41578" lon="6.13674">
        <ele>1095.0788574</ele>
        <time>2012-08-02T08:31:14Z</time>
      </trkpt>
      <trkpt lat="44.41571" lon="6.13654">
        <ele>1096.5209961</ele>
        <time>2012-08-02T08:31:31Z</time>
      </trkpt>
      <trkpt lat="44.41556" lon="6.13635">
        <ele>1098.4433594</ele>
        <time>2012-08-02T08:31:50Z</time>
      </trkpt>
      <trkpt lat="44.41555" lon="6.13634">
        <ele>1098.4433594</ele>
        <time>2012-08-02T08:31:51Z</time>
      </trkpt>
      <trkpt lat="44.4155" lon="6.1361">
        <ele>1100.3664551</ele>
        <time>2012-08-02T08:32:07Z</time>
      </trkpt>
      <trkpt lat="44.4155" lon="6.13597">
        <ele>1100.8469238</ele>
        <time>2012-08-02T08:32:15Z</time>
      </trkpt>
      <trkpt lat="44.41554" lon="6.13591">
        <ele>1100.8469238</ele>
        <time>2012-08-02T08:32:20Z</time>
      </trkpt>
      <trkpt lat="44.41557" lon="6.13583">
        <ele>1101.8083496</ele>
        <time>2012-08-02T08:32:28Z</time>
      </trkpt>
      <trkpt lat="44.41562" lon="6.1356">
        <ele>1102.7695313</ele>
        <time>2012-08-02T08:32:42Z</time>
      </trkpt>
      <trkpt lat="44.41562" lon="6.13556">
        <ele>1103.2502441</ele>
        <time>2012-08-02T08:32:45Z</time>
      </trkpt>
      <trkpt lat="44.41561" lon="6.13543">
        <ele>1103.730957</ele>
        <time>2012-08-02T08:32:55Z</time>
      </trkpt>
      <trkpt lat="44.41561" lon="6.1354">
        <ele>1104.2116699</ele>
        <time>2012-08-02T08:32:57Z</time>
      </trkpt>
      <trkpt lat="44.41559" lon="6.13527">
        <ele>1104.6921387</ele>
        <time>2012-08-02T08:33:05Z</time>
      </trkpt>
      <trkpt lat="44.41557" lon="6.13515">
        <ele>1105.1728516</ele>
        <time>2012-08-02T08:33:13Z</time>
      </trkpt>
      <trkpt lat="44.41558" lon="6.13493">
        <ele>1107.095459</ele>
        <time>2012-08-02T08:33:30Z</time>
      </trkpt>
      <trkpt lat="44.41559" lon="6.13488">
        <ele>1107.5761719</ele>
        <time>2012-08-02T08:33:33Z</time>
      </trkpt>
      <trkpt lat="44.4156" lon="6.13482">
        <ele>1107.095459</ele>
        <time>2012-08-02T08:33:36Z</time>
      </trkpt>
      <trkpt lat="44.41561" lon="6.13468">
        <ele>1108.0568848</ele>
        <time>2012-08-02T08:33:45Z</time>
      </trkpt>
      <trkpt lat="44.4156" lon="6.13464">
        <ele>1108.0568848</ele>
        <time>2012-08-02T08:33:47Z</time>
      </trkpt>
      <trkpt lat="44.41559" lon="6.13453">
        <ele>1108.5373535</ele>
        <time>2012-08-02T08:33:55Z</time>
      </trkpt>
      <trkpt lat="44.4155" lon="6.13458">
        <ele>1109.4987793</ele>
        <time>2012-08-02T08:34:05Z</time>
      </trkpt>
      <trkpt lat="44.41547" lon="6.13463">
        <ele>1109.979248</ele>
        <time>2012-08-02T08:34:08Z</time>
      </trkpt>
      <trkpt lat="44.41547" lon="6.13466">
        <ele>1109.979248</ele>
        <time>2012-08-02T08:34:10Z</time>
      </trkpt>
      <trkpt lat="44.41547" lon="6.13473">
        <ele>1109.979248</ele>
        <time>2012-08-02T08:34:13Z</time>
      </trkpt>
      <trkpt lat="44.41547" lon="6.1348">
        <ele>1110.4599609</ele>
        <time>2012-08-02T08:34:17Z</time>
      </trkpt>
      <trkpt lat="44.41546" lon="6.13486">
        <ele>1110.9406738</ele>
        <time>2012-08-02T08:34:20Z</time>
      </trkpt>
      <trkpt lat="44.41542" lon="6.13512">
        <ele>1113.3439941</ele>
        <time>2012-08-02T08:34:37Z</time>
      </trkpt>
      <trkpt lat="44.41539" lon="6.13534">
        <ele>1114.3051758</ele>
        <time>2012-08-02T08:34:52Z</time>
      </trkpt>
      <trkpt lat="44.41537" lon="6.13546">
        <ele>1115.2666016</ele>
        <time>2012-08-02T08:35:00Z</time>
      </trkpt>
      <trkpt lat="44.41529" lon="6.13568">
        <ele>1116.2280273</ele>
        <time>2012-08-02T08:35:14Z</time>
      </trkpt>
      <trkpt lat="44.41527" lon="6.13581">
        <ele>1117.1894531</ele>
        <time>2012-08-02T08:35:22Z</time>
      </trkpt>
      <trkpt lat="44.41522" lon="6.13589">
        <ele>1118.1506348</ele>
        <time>2012-08-02T08:35:35Z</time>
      </trkpt>
      <trkpt lat="44.41513" lon="6.13607">
        <ele>1119.5927734</ele>
        <time>2012-08-02T08:35:50Z</time>
      </trkpt>
      <trkpt lat="44.4151" lon="6.13621">
        <ele>1120.5539551</ele>
        <time>2012-08-02T08:36:00Z</time>
      </trkpt>
      <trkpt lat="44.4151" lon="6.1363">
        <ele>1120.5539551</ele>
        <time>2012-08-02T08:36:05Z</time>
      </trkpt>
      <trkpt lat="44.41514" lon="6.13664">
        <ele>1122.4765625</ele>
        <time>2012-08-02T08:36:23Z</time>
      </trkpt>
      <trkpt lat="44.41514" lon="6.13668">
        <ele>1122.4765625</ele>
        <time>2012-08-02T08:36:24Z</time>
      </trkpt>
      <trkpt lat="44.41516" lon="6.1368">
        <ele>1122.9572754</ele>
        <time>2012-08-02T08:36:34Z</time>
      </trkpt>
      <trkpt lat="44.41516" lon="6.13688">
        <ele>1122.9572754</ele>
        <time>2012-08-02T08:36:41Z</time>
      </trkpt>
      <trkpt lat="44.4152" lon="6.13715">
        <ele>1124.3991699</ele>
        <time>2012-08-02T08:36:56Z</time>
      </trkpt>
      <trkpt lat="44.4152" lon="6.13723">
        <ele>1124.8798828</ele>
        <time>2012-08-02T08:37:01Z</time>
      </trkpt>
      <trkpt lat="44.41521" lon="6.13725">
        <ele>1125.3603516</ele>
        <time>2012-08-02T08:37:03Z</time>
      </trkpt>
      <trkpt lat="44.41519" lon="6.13733">
        <ele>1125.8410645</ele>
        <time>2012-08-02T08:37:10Z</time>
      </trkpt>
      <trkpt lat="44.41521" lon="6.13754">
        <ele>1127.7636719</ele>
        <time>2012-08-02T08:37:27Z</time>
      </trkpt>
      <trkpt lat="44.41517" lon="6.13776">
        <ele>1129.6862793</ele>
        <time>2012-08-02T08:37:49Z</time>
      </trkpt>
      <trkpt lat="44.41523" lon="6.13803">
        <ele>1130.6477051</ele>
        <time>2012-08-02T08:38:00Z</time>
      </trkpt>
      <trkpt lat="44.41525" lon="6.13806">
        <ele>1130.6477051</ele>
        <time>2012-08-02T08:38:02Z</time>
      </trkpt>
      <trkpt lat="44.41528" lon="6.13813">
        <ele>1131.128418</ele>
        <time>2012-08-02T08:38:07Z</time>
      </trkpt>
      <trkpt lat="44.41531" lon="6.13832">
        <ele>1131.6088867</ele>
        <time>2012-08-02T08:38:18Z</time>
      </trkpt>
      <trkpt lat="44.41537" lon="6.13846">
        <ele>1132.5705566</ele>
        <time>2012-08-02T08:38:31Z</time>
      </trkpt>
      <trkpt lat="44.41538" lon="6.13853">
        <ele>1133.0510254</ele>
        <time>2012-08-02T08:38:34Z</time>
      </trkpt>
      <trkpt lat="44.4154" lon="6.13859">
        <ele>1133.0510254</ele>
        <time>2012-08-02T08:38:37Z</time>
      </trkpt>
      <trkpt lat="44.41546" lon="6.13868">
        <ele>1133.5317383</ele>
        <time>2012-08-02T08:38:45Z</time>
      </trkpt>
      <trkpt lat="44.41548" lon="6.13875">
        <ele>1133.5317383</ele>
        <time>2012-08-02T08:38:50Z</time>
      </trkpt>
      <trkpt lat="44.41554" lon="6.13886">
        <ele>1134.973877</ele>
        <time>2012-08-02T08:38:59Z</time>
      </trkpt>
      <trkpt lat="44.4156" lon="6.13894">
        <ele>1135.4543457</ele>
        <time>2012-08-02T08:39:06Z</time>
      </trkpt>
      <trkpt lat="44.41576" lon="6.13917">
        <ele>1136.4157715</ele>
        <time>2012-08-02T08:39:26Z</time>
      </trkpt>
      <trkpt lat="44.41577" lon="6.1392">
        <ele>1136.8962402</ele>
        <time>2012-08-02T08:39:28Z</time>
      </trkpt>
      <trkpt lat="44.41578" lon="6.13925">
        <ele>1137.3769531</ele>
        <time>2012-08-02T08:39:32Z</time>
      </trkpt>
      <trkpt lat="44.41587" lon="6.13953">
        <ele>1138.3383789</ele>
        <time>2012-08-02T08:39:52Z</time>
      </trkpt>
      <trkpt lat="44.41589" lon="6.13961">
        <ele>1139.2995605</ele>
        <time>2012-08-02T08:39:56Z</time>
      </trkpt>
      <trkpt lat="44.41589" lon="6.13967">
        <ele>1139.7802734</ele>
        <time>2012-08-02T08:40:00Z</time>
      </trkpt>
      <trkpt lat="44.4159" lon="6.13973">
        <ele>1139.7802734</ele>
        <time>2012-08-02T08:40:03Z</time>
      </trkpt>
      <trkpt lat="44.41597" lon="6.14">
        <ele>1141.222168</ele>
        <time>2012-08-02T08:40:22Z</time>
      </trkpt>
      <trkpt lat="44.41598" lon="6.14002">
        <ele>1141.222168</ele>
        <time>2012-08-02T08:40:23Z</time>
      </trkpt>
      <trkpt lat="44.41598" lon="6.14004">
        <ele>1141.7028809</ele>
        <time>2012-08-02T08:40:25Z</time>
      </trkpt>
      <trkpt lat="44.41596" lon="6.1401">
        <ele>1141.7028809</ele>
        <time>2012-08-02T08:40:28Z</time>
      </trkpt>
      <trkpt lat="44.41599" lon="6.14013">
        <ele>1142.6643066</ele>
        <time>2012-08-02T08:40:31Z</time>
      </trkpt>
      <trkpt lat="44.41605" lon="6.1403">
        <ele>1143.6254883</ele>
        <time>2012-08-02T08:40:43Z</time>
      </trkpt>
      <trkpt lat="44.41606" lon="6.14036">
        <ele>1144.1062012</ele>
        <time>2012-08-02T08:40:47Z</time>
      </trkpt>
      <trkpt lat="44.41608" lon="6.1404">
        <ele>1144.5866699</ele>
        <time>2012-08-02T08:41:03Z</time>
      </trkpt>
      <trkpt lat="44.41602" lon="6.14046">
        <ele>1145.5480957</ele>
        <time>2012-08-02T08:41:36Z</time>
      </trkpt>
      <trkpt lat="44.41598" lon="6.1405">
        <ele>1145.5480957</ele>
        <time>2012-08-02T08:41:40Z</time>
      </trkpt>
      <trkpt lat="44.41598" lon="6.14052">
        <ele>1147.4707031</ele>
        <time>2012-08-02T08:41:43Z</time>
      </trkpt>
      <trkpt lat="44.416" lon="6.14057">
        <ele>1146.0288086</ele>
        <time>2012-08-02T08:42:25Z</time>
      </trkpt>
      <trkpt lat="44.416" lon="6.14057">
        <ele>1146.5095215</ele>
        <time>2012-08-02T08:42:51Z</time>
      </trkpt>
      <trkpt lat="44.416" lon="6.14057">
        <ele>1146.5095215</ele>
        <time>2012-08-02T08:43:18Z</time>
      </trkpt>
      <trkpt lat="44.416" lon="6.14057">
        <ele>1147.951416</ele>
        <time>2012-08-02T08:43:23Z</time>
      </trkpt>
      <trkpt lat="44.416" lon="6.14057">
        <ele>1147.4707031</ele>
        <time>2012-08-02T08:44:21Z</time>
      </trkpt>
      <trkpt lat="44.41598" lon="6.14059">
        <ele>1148.9128418</ele>
        <time>2012-08-02T08:45:30Z</time>
      </trkpt>
      <trkpt lat="44.41594" lon="6.14072">
        <ele>1149.8742676</ele>
        <time>2012-08-02T08:45:45Z</time>
      </trkpt>
      <trkpt lat="44.41586" lon="6.14078">
        <ele>1151.3161621</ele>
        <time>2012-08-02T08:45:58Z</time>
      </trkpt>
      <trkpt lat="44.41585" lon="6.1408">
        <ele>1151.3161621</ele>
        <time>2012-08-02T08:46:00Z</time>
      </trkpt>
      <trkpt lat="44.4158" lon="6.14094">
        <ele>1152.2773438</ele>
        <time>2012-08-02T08:46:15Z</time>
      </trkpt>
      <trkpt lat="44.41578" lon="6.14112">
        <ele>1154.2001953</ele>
        <time>2012-08-02T08:46:31Z</time>
      </trkpt>
      <trkpt lat="44.41579" lon="6.14127">
        <ele>1155.161377</ele>
        <time>2012-08-02T08:46:44Z</time>
      </trkpt>
      <trkpt lat="44.41579" lon="6.14133">
        <ele>1155.161377</ele>
        <time>2012-08-02T08:46:53Z</time>
      </trkpt>
      <trkpt lat="44.41582" lon="6.14139">
        <ele>1155.6420898</ele>
        <time>2012-08-02T08:46:57Z</time>
      </trkpt>
      <trkpt lat="44.41582" lon="6.14142">
        <ele>1155.161377</ele>
        <time>2012-08-02T08:46:59Z</time>
      </trkpt>
      <trkpt lat="44.41586" lon="6.14154">
        <ele>1156.1225586</ele>
        <time>2012-08-02T08:47:11Z</time>
      </trkpt>
      <trkpt lat="44.41585" lon="6.14155">
        <ele>1157.5646973</ele>
        <time>2012-08-02T08:47:22Z</time>
      </trkpt>
      <trkpt lat="44.41581" lon="6.14157">
        <ele>1158.5258789</ele>
        <time>2012-08-02T08:47:38Z</time>
      </trkpt>
      <trkpt lat="44.41583" lon="6.14157">
        <ele>1157.0839844</ele>
        <time>2012-08-02T08:47:42Z</time>
      </trkpt>
      <trkpt lat="44.41581" lon="6.14158">
        <ele>1157.5646973</ele>
        <time>2012-08-02T08:47:49Z</time>
      </trkpt>
      <trkpt lat="44.41581" lon="6.1416">
        <ele>1158.5258789</ele>
        <time>2012-08-02T08:48:09Z</time>
      </trkpt>
      <trkpt lat="44.41588" lon="6.14164">
        <ele>1158.0454102</ele>
        <time>2012-08-02T08:48:21Z</time>
      </trkpt>
      <trkpt lat="44.41585" lon="6.14165">
        <ele>1159.0065918</ele>
        <time>2012-08-02T08:48:25Z</time>
      </trkpt>
      <trkpt lat="44.41589" lon="6.14171">
        <ele>1159.0065918</ele>
        <time>2012-08-02T08:48:29Z</time>
      </trkpt>
      <trkpt lat="44.41589" lon="6.14186">
        <ele>1160.4484863</ele>
        <time>2012-08-02T08:48:39Z</time>
      </trkpt>
      <trkpt lat="44.41589" lon="6.14197">
        <ele>1161.4099121</ele>
        <time>2012-08-02T08:48:45Z</time>
      </trkpt>
      <trkpt lat="44.41589" lon="6.1421">
        <ele>1160.9291992</ele>
        <time>2012-08-02T08:48:52Z</time>
      </trkpt>
      <trkpt lat="44.41603" lon="6.1424">
        <ele>1162.3710938</ele>
        <time>2012-08-02T08:49:12Z</time>
      </trkpt>
      <trkpt lat="44.41604" lon="6.14253">
        <ele>1163.3325195</ele>
        <time>2012-08-02T08:49:18Z</time>
      </trkpt>
      <trkpt lat="44.41604" lon="6.14257">
        <ele>1164.2939453</ele>
        <time>2012-08-02T08:49:22Z</time>
      </trkpt>
      <trkpt lat="44.41605" lon="6.14261">
        <ele>1164.2939453</ele>
        <time>2012-08-02T08:49:24Z</time>
      </trkpt>
      <trkpt lat="44.41601" lon="6.14273">
        <ele>1164.7746582</ele>
        <time>2012-08-02T08:49:33Z</time>
      </trkpt>
      <trkpt lat="44.416" lon="6.14287">
        <ele>1165.736084</ele>
        <time>2012-08-02T08:49:42Z</time>
      </trkpt>
      <trkpt lat="44.41599" lon="6.14296">
        <ele>1166.2165527</ele>
        <time>2012-08-02T08:49:47Z</time>
      </trkpt>
      <trkpt lat="44.41598" lon="6.14304">
        <ele>1166.6972656</ele>
        <time>2012-08-02T08:49:52Z</time>
      </trkpt>
      <trkpt lat="44.41599" lon="6.14321">
        <ele>1168.619873</ele>
        <time>2012-08-02T08:50:04Z</time>
      </trkpt>
      <trkpt lat="44.41597" lon="6.14327">
        <ele>1168.619873</ele>
        <time>2012-08-02T08:50:08Z</time>
      </trkpt>
      <trkpt lat="44.41584" lon="6.1435">
        <ele>1171.5036621</ele>
        <time>2012-08-02T08:50:25Z</time>
      </trkpt>
      <trkpt lat="44.41582" lon="6.1436">
        <ele>1171.984375</ele>
        <time>2012-08-02T08:50:30Z</time>
      </trkpt>
      <trkpt lat="44.41569" lon="6.1438">
        <ele>1174.3876953</ele>
        <time>2012-08-02T08:50:47Z</time>
      </trkpt>
      <trkpt lat="44.41566" lon="6.14383">
        <ele>1175.348877</ele>
        <time>2012-08-02T08:50:51Z</time>
      </trkpt>
      <trkpt lat="44.41554" lon="6.14401">
        <ele>1177.2717285</ele>
        <time>2012-08-02T08:51:06Z</time>
      </trkpt>
      <trkpt lat="44.41544" lon="6.14422">
        <ele>1179.6748047</ele>
        <time>2012-08-02T08:51:21Z</time>
      </trkpt>
      <trkpt lat="44.41536" lon="6.14438">
        <ele>1180.6364746</ele>
        <time>2012-08-02T08:51:34Z</time>
      </trkpt>
      <trkpt lat="44.41534" lon="6.14445">
        <ele>1182.0783691</ele>
        <time>2012-08-02T08:51:40Z</time>
      </trkpt>
      <trkpt lat="44.41528" lon="6.14463">
        <ele>1183.5202637</ele>
        <time>2012-08-02T08:51:52Z</time>
      </trkpt>
      <trkpt lat="44.41532" lon="6.14471">
        <ele>1184.4816895</ele>
        <time>2012-08-02T08:52:04Z</time>
      </trkpt>
      <trkpt lat="44.41527" lon="6.1448">
        <ele>1185.923584</ele>
        <time>2012-08-02T08:52:17Z</time>
      </trkpt>
      <trkpt lat="44.41522" lon="6.14494">
        <ele>1187.8461914</ele>
        <time>2012-08-02T08:52:33Z</time>
      </trkpt>
      <trkpt lat="44.41515" lon="6.14503">
        <ele>1189.2880859</ele>
        <time>2012-08-02T08:52:49Z</time>
      </trkpt>
      <trkpt lat="44.41507" lon="6.14517">
        <ele>1190.2495117</ele>
        <time>2012-08-02T08:53:04Z</time>
      </trkpt>
      <trkpt lat="44.41507" lon="6.14525">
        <ele>1191.2106934</ele>
        <time>2012-08-02T08:53:09Z</time>
      </trkpt>
      <trkpt lat="44.41511" lon="6.14537">
        <ele>1191.6914063</ele>
        <time>2012-08-02T08:53:19Z</time>
      </trkpt>
      <trkpt lat="44.41515" lon="6.14542">
        <ele>1192.1721191</ele>
        <time>2012-08-02T08:53:24Z</time>
      </trkpt>
      <trkpt lat="44.41511" lon="6.14564">
        <ele>1194.0947266</ele>
        <time>2012-08-02T08:53:42Z</time>
      </trkpt>
      <trkpt lat="44.41508" lon="6.14569">
        <ele>1194.5751953</ele>
        <time>2012-08-02T08:53:45Z</time>
      </trkpt>
      <trkpt lat="44.41503" lon="6.14581">
        <ele>1196.0175781</ele>
        <time>2012-08-02T08:54:01Z</time>
      </trkpt>
      <trkpt lat="44.41494" lon="6.14592">
        <ele>1197.4594727</ele>
        <time>2012-08-02T08:54:14Z</time>
      </trkpt>
      <trkpt lat="44.41487" lon="6.14605">
        <ele>1199.862793</ele>
        <time>2012-08-02T08:54:32Z</time>
      </trkpt>
      <trkpt lat="44.41479" lon="6.14626">
        <ele>1202.2658691</ele>
        <time>2012-08-02T08:54:54Z</time>
      </trkpt>
      <trkpt lat="44.41475" lon="6.14641">
        <ele>1203.7080078</ele>
        <time>2012-08-02T08:55:10Z</time>
      </trkpt>
      <trkpt lat="44.41465" lon="6.14656">
        <ele>1205.6306152</ele>
        <time>2012-08-02T08:55:29Z</time>
      </trkpt>
      <trkpt lat="44.41458" lon="6.14672">
        <ele>1207.0725098</ele>
        <time>2012-08-02T08:55:46Z</time>
      </trkpt>
      <trkpt lat="44.41455" lon="6.14687">
        <ele>1208.5144043</ele>
        <time>2012-08-02T08:56:02Z</time>
      </trkpt>
      <trkpt lat="44.4145" lon="6.14709">
        <ele>1209.9562988</ele>
        <time>2012-08-02T08:56:23Z</time>
      </trkpt>
      <trkpt lat="44.41451" lon="6.14713">
        <ele>1210.9177246</ele>
        <time>2012-08-02T08:56:50Z</time>
      </trkpt>
      <trkpt lat="44.41451" lon="6.14715">
        <ele>1210.4370117</ele>
        <time>2012-08-02T08:56:58Z</time>
      </trkpt>
      <trkpt lat="44.4145" lon="6.14725">
        <ele>1210.9177246</ele>
        <time>2012-08-02T08:57:03Z</time>
      </trkpt>
      <trkpt lat="44.41452" lon="6.14732">
        <ele>1210.9177246</ele>
        <time>2012-08-02T08:57:07Z</time>
      </trkpt>
      <trkpt lat="44.41455" lon="6.14743">
        <ele>1210.4370117</ele>
        <time>2012-08-02T08:57:12Z</time>
      </trkpt>
      <trkpt lat="44.41454" lon="6.14747">
        <ele>1210.9177246</ele>
        <time>2012-08-02T08:57:14Z</time>
      </trkpt>
      <trkpt lat="44.41457" lon="6.14751">
        <ele>1210.9177246</ele>
        <time>2012-08-02T08:57:18Z</time>
      </trkpt>
      <trkpt lat="44.41463" lon="6.14758">
        <ele>1211.3984375</ele>
        <time>2012-08-02T08:57:26Z</time>
      </trkpt>
      <trkpt lat="44.41469" lon="6.14759">
        <ele>1211.8791504</ele>
        <time>2012-08-02T08:57:31Z</time>
      </trkpt>
      <trkpt lat="44.41482" lon="6.14758">
        <ele>1212.8405762</ele>
        <time>2012-08-02T08:57:41Z</time>
      </trkpt>
      <trkpt lat="44.41489" lon="6.14765">
        <ele>1213.8017578</ele>
        <time>2012-08-02T08:57:49Z</time>
      </trkpt>
      <trkpt lat="44.41488" lon="6.14779">
        <ele>1215.2438965</ele>
        <time>2012-08-02T08:57:59Z</time>
      </trkpt>
      <trkpt lat="44.41484" lon="6.14799">
        <ele>1217.1665039</ele>
        <time>2012-08-02T08:58:15Z</time>
      </trkpt>
      <trkpt lat="44.41483" lon="6.14809">
        <ele>1218.6083984</ele>
        <time>2012-08-02T08:58:25Z</time>
      </trkpt>
      <trkpt lat="44.41479" lon="6.14817">
        <ele>1219.0891113</ele>
        <time>2012-08-02T08:58:30Z</time>
      </trkpt>
      <trkpt lat="44.4148" lon="6.14843">
        <ele>1220.5310059</ele>
        <time>2012-08-02T08:58:47Z</time>
      </trkpt>
      <trkpt lat="44.41461" lon="6.14866">
        <ele>1223.8955078</ele>
        <time>2012-08-02T08:59:12Z</time>
      </trkpt>
      <trkpt lat="44.41451" lon="6.14897">
        <ele>1226.2988281</ele>
        <time>2012-08-02T08:59:34Z</time>
      </trkpt>
      <trkpt lat="44.4145" lon="6.1492">
        <ele>1228.2216797</ele>
        <time>2012-08-02T08:59:51Z</time>
      </trkpt>
      <trkpt lat="44.41443" lon="6.14953">
        <ele>1232.0668945</ele>
        <time>2012-08-02T09:00:14Z</time>
      </trkpt>
      <trkpt lat="44.41425" lon="6.1498">
        <ele>1234.9509277</ele>
        <time>2012-08-02T09:00:37Z</time>
      </trkpt>
      <trkpt lat="44.41421" lon="6.15009">
        <ele>1236.873291</ele>
        <time>2012-08-02T09:00:58Z</time>
      </trkpt>
      <trkpt lat="44.41419" lon="6.15015">
        <ele>1237.8347168</ele>
        <time>2012-08-02T09:01:21Z</time>
      </trkpt>
      <trkpt lat="44.41411" lon="6.15036">
        <ele>1239.7573242</ele>
        <time>2012-08-02T09:01:35Z</time>
      </trkpt>
      <trkpt lat="44.41407" lon="6.1504">
        <ele>1239.7573242</ele>
        <time>2012-08-02T09:01:37Z</time>
      </trkpt>
      <trkpt lat="44.41398" lon="6.15053">
        <ele>1241.6799316</ele>
        <time>2012-08-02T09:01:55Z</time>
      </trkpt>
      <trkpt lat="44.41392" lon="6.15058">
        <ele>1242.1606445</ele>
        <time>2012-08-02T09:02:06Z</time>
      </trkpt>
      <trkpt lat="44.41392" lon="6.15057">
        <ele>1241.1992188</ele>
        <time>2012-08-02T09:02:34Z</time>
      </trkpt>
      <trkpt lat="44.4139" lon="6.15056">
        <ele>1243.6025391</ele>
        <time>2012-08-02T09:04:59Z</time>
      </trkpt>
      <trkpt lat="44.4139" lon="6.15056">
        <ele>1245.5253906</ele>
        <time>2012-08-02T09:06:46Z</time>
      </trkpt>
      <trkpt lat="44.41389" lon="6.15057">
        <ele>1246.4868164</ele>
        <time>2012-08-02T09:08:41Z</time>
      </trkpt>
      <trkpt lat="44.41392" lon="6.15056">
        <ele>1246.9672852</ele>
        <time>2012-08-02T09:08:53Z</time>
      </trkpt>
      <trkpt lat="44.41396" lon="6.15057">
        <ele>1246.9672852</ele>
        <time>2012-08-02T09:09:12Z</time>
      </trkpt>
      <trkpt lat="44.41397" lon="6.15063">
        <ele>1246.4868164</ele>
        <time>2012-08-02T09:09:26Z</time>
      </trkpt>
      <trkpt lat="44.41397" lon="6.15063">
        <ele>1245.0446777</ele>
        <time>2012-08-02T09:10:07Z</time>
      </trkpt>
      <trkpt lat="44.41389" lon="6.15068">
        <ele>1244.5639648</ele>
        <time>2012-08-02T09:10:42Z</time>
      </trkpt>
      <trkpt lat="44.41388" lon="6.1507">
        <ele>1243.6025391</ele>
        <time>2012-08-02T09:11:05Z</time>
      </trkpt>
      <trkpt lat="44.41388" lon="6.1507">
        <ele>1246.4868164</ele>
        <time>2012-08-02T09:12:21Z</time>
      </trkpt>
      <trkpt lat="44.41388" lon="6.15061">
        <ele>1248.8898926</ele>
        <time>2012-08-02T09:18:37Z</time>
      </trkpt>
      <trkpt lat="44.41392" lon="6.15059">
        <ele>1249.8513184</ele>
        <time>2012-08-02T09:19:00Z</time>
      </trkpt>
      <trkpt lat="44.4139" lon="6.1506">
        <ele>1249.8513184</ele>
        <time>2012-08-02T09:19:53Z</time>
      </trkpt>
      <trkpt lat="44.41387" lon="6.15059">
        <ele>1249.3706055</ele>
        <time>2012-08-02T09:20:29Z</time>
      </trkpt>
      <trkpt lat="44.4138" lon="6.1506">
        <ele>1249.3706055</ele>
        <time>2012-08-02T09:24:11Z</time>
      </trkpt>
      <trkpt lat="44.41379" lon="6.15055">
        <ele>1249.3706055</ele>
        <time>2012-08-02T09:24:27Z</time>
      </trkpt>
      <trkpt lat="44.41387" lon="6.15019">
        <ele>1249.8513184</ele>
        <time>2012-08-02T09:24:44Z</time>
      </trkpt>
      <trkpt lat="44.41388" lon="6.14994">
        <ele>1251.2932129</ele>
        <time>2012-08-02T09:25:01Z</time>
      </trkpt>
      <trkpt lat="44.41387" lon="6.14982">
        <ele>1252.2543945</ele>
        <time>2012-08-02T09:25:09Z</time>
      </trkpt>
      <trkpt lat="44.41387" lon="6.14978">
        <ele>1251.7739258</ele>
        <time>2012-08-02T09:25:11Z</time>
      </trkpt>
      <trkpt lat="44.41389" lon="6.14973">
        <ele>1252.7351074</ele>
        <time>2012-08-02T09:25:14Z</time>
      </trkpt>
      <trkpt lat="44.41399" lon="6.1495">
        <ele>1253.6965332</ele>
        <time>2012-08-02T09:25:29Z</time>
      </trkpt>
      <trkpt lat="44.414" lon="6.14933">
        <ele>1254.6577148</ele>
        <time>2012-08-02T09:25:40Z</time>
      </trkpt>
      <trkpt lat="44.41407" lon="6.14906">
        <ele>1255.6191406</ele>
        <time>2012-08-02T09:25:55Z</time>
      </trkpt>
      <trkpt lat="44.41405" lon="6.14878">
        <ele>1256.0996094</ele>
        <time>2012-08-02T09:26:10Z</time>
      </trkpt>
      <trkpt lat="44.41405" lon="6.14871">
        <ele>1256.0996094</ele>
        <time>2012-08-02T09:26:14Z</time>
      </trkpt>
      <trkpt lat="44.41405" lon="6.14862">
        <ele>1256.5803223</ele>
        <time>2012-08-02T09:26:17Z</time>
      </trkpt>
      <trkpt lat="44.41405" lon="6.14857">
        <ele>1256.5803223</ele>
        <time>2012-08-02T09:26:20Z</time>
      </trkpt>
      <trkpt lat="44.41399" lon="6.14824">
        <ele>1258.0224609</ele>
        <time>2012-08-02T09:26:38Z</time>
      </trkpt>
      <trkpt lat="44.41398" lon="6.14796">
        <ele>1258.5029297</ele>
        <time>2012-08-02T09:26:50Z</time>
      </trkpt>
      <trkpt lat="44.41399" lon="6.14785">
        <ele>1259.4643555</ele>
        <time>2012-08-02T09:26:54Z</time>
      </trkpt>
      <trkpt lat="44.41403" lon="6.14778">
        <ele>1258.9836426</ele>
        <time>2012-08-02T09:26:58Z</time>
      </trkpt>
      <trkpt lat="44.41404" lon="6.14745">
        <ele>1259.4643555</ele>
        <time>2012-08-02T09:27:13Z</time>
      </trkpt>
      <trkpt lat="44.41402" lon="6.14733">
        <ele>1259.4643555</ele>
        <time>2012-08-02T09:27:19Z</time>
      </trkpt>
      <trkpt lat="44.41402" lon="6.14728">
        <ele>1258.9836426</ele>
        <time>2012-08-02T09:27:21Z</time>
      </trkpt>
      <trkpt lat="44.41405" lon="6.14718">
        <ele>1259.4643555</ele>
        <time>2012-08-02T09:27:25Z</time>
      </trkpt>
      <trkpt lat="44.41409" lon="6.14711">
        <ele>1258.9836426</ele>
        <time>2012-08-02T09:27:28Z</time>
      </trkpt>
      <trkpt lat="44.41413" lon="6.14696">
        <ele>1259.9448242</ele>
        <time>2012-08-02T09:27:37Z</time>
      </trkpt>
      <trkpt lat="44.41418" lon="6.14681">
        <ele>1260.9064941</ele>
        <time>2012-08-02T09:27:44Z</time>
      </trkpt>
      <trkpt lat="44.41419" lon="6.14678">
        <ele>1261.387207</ele>
        <time>2012-08-02T09:27:46Z</time>
      </trkpt>
      <trkpt lat="44.41419" lon="6.14674">
        <ele>1261.8679199</ele>
        <time>2012-08-02T09:27:49Z</time>
      </trkpt>
      <trkpt lat="44.41416" lon="6.14664">
        <ele>1262.3483887</ele>
        <time>2012-08-02T09:27:55Z</time>
      </trkpt>
      <trkpt lat="44.41418" lon="6.14634">
        <ele>1263.7902832</ele>
        <time>2012-08-02T09:28:11Z</time>
      </trkpt>
      <trkpt lat="44.4142" lon="6.14623">
        <ele>1264.2709961</ele>
        <time>2012-08-02T09:28:18Z</time>
      </trkpt>
      <trkpt lat="44.4142" lon="6.14617">
        <ele>1264.751709</ele>
        <time>2012-08-02T09:28:21Z</time>
      </trkpt>
      <trkpt lat="44.4142" lon="6.14614">
        <ele>1264.751709</ele>
        <time>2012-08-02T09:28:23Z</time>
      </trkpt>
      <trkpt lat="44.41418" lon="6.14596">
        <ele>1265.7131348</ele>
        <time>2012-08-02T09:28:34Z</time>
      </trkpt>
      <trkpt lat="44.41418" lon="6.14594">
        <ele>1265.7131348</ele>
        <time>2012-08-02T09:28:35Z</time>
      </trkpt>
      <trkpt lat="44.41422" lon="6.14573">
        <ele>1267.1550293</ele>
        <time>2012-08-02T09:28:48Z</time>
      </trkpt>
      <trkpt lat="44.41422" lon="6.14568">
        <ele>1267.1550293</ele>
        <time>2012-08-02T09:28:51Z</time>
      </trkpt>
      <trkpt lat="44.4142" lon="6.14548">
        <ele>1269.0776367</ele>
        <time>2012-08-02T09:29:04Z</time>
      </trkpt>
      <trkpt lat="44.41418" lon="6.14546">
        <ele>1269.0776367</ele>
        <time>2012-08-02T09:29:05Z</time>
      </trkpt>
      <trkpt lat="44.41418" lon="6.14536">
        <ele>1270.0388184</ele>
        <time>2012-08-02T09:29:11Z</time>
      </trkpt>
      <trkpt lat="44.41418" lon="6.14533">
        <ele>1270.0388184</ele>
        <time>2012-08-02T09:29:13Z</time>
      </trkpt>
      <trkpt lat="44.41418" lon="6.1453">
        <ele>1270.0388184</ele>
        <time>2012-08-02T09:29:15Z</time>
      </trkpt>
      <trkpt lat="44.41412" lon="6.14509">
        <ele>1271.4807129</ele>
        <time>2012-08-02T09:29:28Z</time>
      </trkpt>
      <trkpt lat="44.4141" lon="6.14503">
        <ele>1271.4807129</ele>
        <time>2012-08-02T09:29:31Z</time>
      </trkpt>
      <trkpt lat="44.41409" lon="6.14499">
        <ele>1271.4807129</ele>
        <time>2012-08-02T09:29:33Z</time>
      </trkpt>
      <trkpt lat="44.41407" lon="6.14496">
        <ele>1271.4807129</ele>
        <time>2012-08-02T09:29:35Z</time>
      </trkpt>
      <trkpt lat="44.41402" lon="6.14474">
        <ele>1272.4421387</ele>
        <time>2012-08-02T09:29:48Z</time>
      </trkpt>
      <trkpt lat="44.41402" lon="6.14466">
        <ele>1272.4421387</ele>
        <time>2012-08-02T09:29:52Z</time>
      </trkpt>
      <trkpt lat="44.41406" lon="6.1446">
        <ele>1272.4421387</ele>
        <time>2012-08-02T09:29:57Z</time>
      </trkpt>
      <trkpt lat="44.41426" lon="6.14442">
        <ele>1273.8840332</ele>
        <time>2012-08-02T09:30:13Z</time>
      </trkpt>
      <trkpt lat="44.41439" lon="6.14425">
        <ele>1274.3647461</ele>
        <time>2012-08-02T09:30:26Z</time>
      </trkpt>
      <trkpt lat="44.41444" lon="6.14418">
        <ele>1274.845459</ele>
        <time>2012-08-02T09:30:32Z</time>
      </trkpt>
      <trkpt lat="44.41448" lon="6.1441">
        <ele>1275.3259277</ele>
        <time>2012-08-02T09:30:37Z</time>
      </trkpt>
      <trkpt lat="44.41447" lon="6.14385">
        <ele>1277.2490234</ele>
        <time>2012-08-02T09:30:52Z</time>
      </trkpt>
      <trkpt lat="44.41456" lon="6.1436">
        <ele>1278.690918</ele>
        <time>2012-08-02T09:31:07Z</time>
      </trkpt>
      <trkpt lat="44.41465" lon="6.14327">
        <ele>1279.1713867</ele>
        <time>2012-08-02T09:31:24Z</time>
      </trkpt>
      <trkpt lat="44.41464" lon="6.14324">
        <ele>1279.1713867</ele>
        <time>2012-08-02T09:31:26Z</time>
      </trkpt>
      <trkpt lat="44.41471" lon="6.14282">
        <ele>1279.6520996</ele>
        <time>2012-08-02T09:31:44Z</time>
      </trkpt>
      <trkpt lat="44.4147" lon="6.14275">
        <ele>1280.1328125</ele>
        <time>2012-08-02T09:31:47Z</time>
      </trkpt>
      <trkpt lat="44.41466" lon="6.14267">
        <ele>1280.1328125</ele>
        <time>2012-08-02T09:31:52Z</time>
      </trkpt>
      <trkpt lat="44.41464" lon="6.14265">
        <ele>1280.6135254</ele>
        <time>2012-08-02T09:31:54Z</time>
      </trkpt>
      <trkpt lat="44.41438" lon="6.14264">
        <ele>1283.4973145</ele>
        <time>2012-08-02T09:32:17Z</time>
      </trkpt>
      <trkpt lat="44.41429" lon="6.1426">
        <ele>1284.4587402</ele>
        <time>2012-08-02T09:32:25Z</time>
      </trkpt>
      <trkpt lat="44.41424" lon="6.14257">
        <ele>1284.9394531</ele>
        <time>2012-08-02T09:32:32Z</time>
      </trkpt>
      <trkpt lat="44.41421" lon="6.14254">
        <ele>1285.4199219</ele>
        <time>2012-08-02T09:32:35Z</time>
      </trkpt>
      <trkpt lat="44.41418" lon="6.14247">
        <ele>1285.4199219</ele>
        <time>2012-08-02T09:32:39Z</time>
      </trkpt>
      <trkpt lat="44.41414" lon="6.14238">
        <ele>1286.8618164</ele>
        <time>2012-08-02T09:32:46Z</time>
      </trkpt>
      <trkpt lat="44.41413" lon="6.14228">
        <ele>1287.3425293</ele>
        <time>2012-08-02T09:32:51Z</time>
      </trkpt>
      <trkpt lat="44.41413" lon="6.14221">
        <ele>1286.8618164</ele>
        <time>2012-08-02T09:32:55Z</time>
      </trkpt>
      <trkpt lat="44.41411" lon="6.1421">
        <ele>1287.3425293</ele>
        <time>2012-08-02T09:33:02Z</time>
      </trkpt>
      <trkpt lat="44.41405" lon="6.14202">
        <ele>1287.3425293</ele>
        <time>2012-08-02T09:33:08Z</time>
      </trkpt>
      <trkpt lat="44.41396" lon="6.14173">
        <ele>1289.2651367</ele>
        <time>2012-08-02T09:33:25Z</time>
      </trkpt>
      <trkpt lat="44.41384" lon="6.14147">
        <ele>1289.2651367</ele>
        <time>2012-08-02T09:33:41Z</time>
      </trkpt>
      <trkpt lat="44.41375" lon="6.14122">
        <ele>1291.1877441</ele>
        <time>2012-08-02T09:33:57Z</time>
      </trkpt>
      <trkpt lat="44.41368" lon="6.14092">
        <ele>1291.668457</ele>
        <time>2012-08-02T09:34:11Z</time>
      </trkpt>
      <trkpt lat="44.41377" lon="6.14079">
        <ele>1293.1105957</ele>
        <time>2012-08-02T09:34:22Z</time>
      </trkpt>
      <trkpt lat="44.41394" lon="6.14066">
        <ele>1294.5524902</ele>
        <time>2012-08-02T09:34:35Z</time>
      </trkpt>
      <trkpt lat="44.414" lon="6.14049">
        <ele>1295.513916</ele>
        <time>2012-08-02T09:34:48Z</time>
      </trkpt>
      <trkpt lat="44.41402" lon="6.14047">
        <ele>1295.513916</ele>
        <time>2012-08-02T09:34:50Z</time>
      </trkpt>
      <trkpt lat="44.41404" lon="6.14046">
        <ele>1295.513916</ele>
        <time>2012-08-02T09:34:52Z</time>
      </trkpt>
      <trkpt lat="44.41414" lon="6.14043">
        <ele>1295.513916</ele>
        <time>2012-08-02T09:35:00Z</time>
      </trkpt>
      <trkpt lat="44.41432" lon="6.1404">
        <ele>1296.4753418</ele>
        <time>2012-08-02T09:35:13Z</time>
      </trkpt>
      <trkpt lat="44.41429" lon="6.14023">
        <ele>1297.4365234</ele>
        <time>2012-08-02T09:35:25Z</time>
      </trkpt>
      <trkpt lat="44.41417" lon="6.14006">
        <ele>1297.9172363</ele>
        <time>2012-08-02T09:35:36Z</time>
      </trkpt>
      <trkpt lat="44.41402" lon="6.13992">
        <ele>1298.878418</ele>
        <time>2012-08-02T09:35:51Z</time>
      </trkpt>
      <trkpt lat="44.41398" lon="6.13985">
        <ele>1299.3591309</ele>
        <time>2012-08-02T09:35:55Z</time>
      </trkpt>
      <trkpt lat="44.41399" lon="6.13955">
        <ele>1299.8398438</ele>
        <time>2012-08-02T09:36:09Z</time>
      </trkpt>
      <trkpt lat="44.41398" lon="6.13949">
        <ele>1300.3205566</ele>
        <time>2012-08-02T09:36:13Z</time>
      </trkpt>
      <trkpt lat="44.41394" lon="6.1394">
        <ele>1300.8010254</ele>
        <time>2012-08-02T09:36:20Z</time>
      </trkpt>
      <trkpt lat="44.41383" lon="6.1393">
        <ele>1302.7236328</ele>
        <time>2012-08-02T09:36:34Z</time>
      </trkpt>
      <trkpt lat="44.41382" lon="6.13928">
        <ele>1302.7236328</ele>
        <time>2012-08-02T09:36:35Z</time>
      </trkpt>
      <trkpt lat="44.4138" lon="6.13924">
        <ele>1302.7236328</ele>
        <time>2012-08-02T09:36:37Z</time>
      </trkpt>
      <trkpt lat="44.41372" lon="6.13913">
        <ele>1304.1657715</ele>
        <time>2012-08-02T09:36:48Z</time>
      </trkpt>
      <trkpt lat="44.41364" lon="6.13905">
        <ele>1304.6462402</ele>
        <time>2012-08-02T09:36:56Z</time>
      </trkpt>
      <trkpt lat="44.41361" lon="6.13902">
        <ele>1304.6462402</ele>
        <time>2012-08-02T09:36:59Z</time>
      </trkpt>
      <trkpt lat="44.41356" lon="6.13897">
        <ele>1305.1269531</ele>
        <time>2012-08-02T09:37:05Z</time>
      </trkpt>
      <trkpt lat="44.41349" lon="6.13863">
        <ele>1307.0495605</ele>
        <time>2012-08-02T09:37:22Z</time>
      </trkpt>
      <trkpt lat="44.41349" lon="6.13857">
        <ele>1307.0495605</ele>
        <time>2012-08-02T09:37:25Z</time>
      </trkpt>
      <trkpt lat="44.41343" lon="6.13844">
        <ele>1307.5302734</ele>
        <time>2012-08-02T09:37:34Z</time>
      </trkpt>
      <trkpt lat="44.4133" lon="6.13832">
        <ele>1308.9724121</ele>
        <time>2012-08-02T09:37:48Z</time>
      </trkpt>
      <trkpt lat="44.41326" lon="6.13828">
        <ele>1308.9724121</ele>
        <time>2012-08-02T09:37:51Z</time>
      </trkpt>
      <trkpt lat="44.41319" lon="6.13813">
        <ele>1309.453125</ele>
        <time>2012-08-02T09:37:58Z</time>
      </trkpt>
      <trkpt lat="44.41316" lon="6.13808">
        <ele>1309.453125</ele>
        <time>2012-08-02T09:38:02Z</time>
      </trkpt>
      <trkpt lat="44.41313" lon="6.13786">
        <ele>1309.453125</ele>
        <time>2012-08-02T09:38:12Z</time>
      </trkpt>
      <trkpt lat="44.41311" lon="6.13763">
        <ele>1309.9335938</ele>
        <time>2012-08-02T09:38:20Z</time>
      </trkpt>
      <trkpt lat="44.41317" lon="6.13722">
        <ele>1310.4143066</ele>
        <time>2012-08-02T09:38:37Z</time>
      </trkpt>
      <trkpt lat="44.41317" lon="6.13708">
        <ele>1310.4143066</ele>
        <time>2012-08-02T09:38:43Z</time>
      </trkpt>
      <trkpt lat="44.41312" lon="6.13666">
        <ele>1310.4143066</ele>
        <time>2012-08-02T09:38:59Z</time>
      </trkpt>
      <trkpt lat="44.4131" lon="6.13649">
        <ele>1310.4143066</ele>
        <time>2012-08-02T09:39:05Z</time>
      </trkpt>
      <trkpt lat="44.41303" lon="6.13642">
        <ele>1309.9335938</ele>
        <time>2012-08-02T09:39:09Z</time>
      </trkpt>
      <trkpt lat="44.41273" lon="6.13647">
        <ele>1309.9335938</ele>
        <time>2012-08-02T09:39:24Z</time>
      </trkpt>
      <trkpt lat="44.41242" lon="6.13641">
        <ele>1308.4916992</ele>
        <time>2012-08-02T09:39:36Z</time>
      </trkpt>
      <trkpt lat="44.41224" lon="6.13617">
        <ele>1308.0112305</ele>
        <time>2012-08-02T09:39:44Z</time>
      </trkpt>
      <trkpt lat="44.41206" lon="6.13569">
        <ele>1307.0495605</ele>
        <time>2012-08-02T09:39:58Z</time>
      </trkpt>
      <trkpt lat="44.41205" lon="6.13566">
        <ele>1307.5302734</ele>
        <time>2012-08-02T09:39:59Z</time>
      </trkpt>
      <trkpt lat="44.41182" lon="6.13524">
        <ele>1308.0112305</ele>
        <time>2012-08-02T09:40:16Z</time>
      </trkpt>
      <trkpt lat="44.41178" lon="6.13521">
        <ele>1308.0112305</ele>
        <time>2012-08-02T09:40:18Z</time>
      </trkpt>
      <trkpt lat="44.41154" lon="6.13502">
        <ele>1308.9724121</ele>
        <time>2012-08-02T09:40:31Z</time>
      </trkpt>
      <trkpt lat="44.41121" lon="6.13505">
        <ele>1308.4916992</ele>
        <time>2012-08-02T09:40:43Z</time>
      </trkpt>
      <trkpt lat="44.41094" lon="6.13513">
        <ele>1308.9724121</ele>
        <time>2012-08-02T09:40:56Z</time>
      </trkpt>
      <trkpt lat="44.41065" lon="6.13515">
        <ele>1309.453125</ele>
        <time>2012-08-02T09:41:10Z</time>
      </trkpt>
      <trkpt lat="44.41064" lon="6.13515">
        <ele>1308.4916992</ele>
        <time>2012-08-02T09:41:25Z</time>
      </trkpt>
      <trkpt lat="44.41064" lon="6.13515">
        <ele>1310.8950195</ele>
        <time>2012-08-02T09:41:33Z</time>
      </trkpt>
      <trkpt lat="44.41064" lon="6.13515">
        <ele>1308.9724121</ele>
        <time>2012-08-02T09:41:37Z</time>
      </trkpt>
      <trkpt lat="44.41064" lon="6.13515">
        <ele>1310.4143066</ele>
        <time>2012-08-02T09:41:42Z</time>
      </trkpt>
      <trkpt lat="44.41064" lon="6.13515">
        <ele>1310.8950195</ele>
        <time>2012-08-02T09:42:21Z</time>
      </trkpt>
      <trkpt lat="44.41064" lon="6.13515">
        <ele>1309.9335938</ele>
        <time>2012-08-02T09:42:23Z</time>
      </trkpt>
      <trkpt lat="44.41064" lon="6.13515">
        <ele>1310.8950195</ele>
        <time>2012-08-02T09:42:28Z</time>
      </trkpt>
      <trkpt lat="44.41064" lon="6.13515">
        <ele>1308.9724121</ele>
        <time>2012-08-02T09:42:32Z</time>
      </trkpt>
      <trkpt lat="44.4106" lon="6.13516">
        <ele>1308.4916992</ele>
        <time>2012-08-02T09:43:16Z</time>
      </trkpt>
      <trkpt lat="44.41061" lon="6.13521">
        <ele>1307.5302734</ele>
        <time>2012-08-02T09:43:49Z</time>
      </trkpt>
      <trkpt lat="44.41062" lon="6.1352">
        <ele>1309.9335938</ele>
        <time>2012-08-02T09:44:52Z</time>
      </trkpt>
      <trkpt lat="44.41065" lon="6.13523">
        <ele>1308.9724121</ele>
        <time>2012-08-02T09:45:54Z</time>
      </trkpt>
      <trkpt lat="44.41065" lon="6.13523">
        <ele>1309.9335938</ele>
        <time>2012-08-02T09:45:59Z</time>
      </trkpt>
      <trkpt lat="44.41065" lon="6.13523">
        <ele>1307.0495605</ele>
        <time>2012-08-02T09:46:04Z</time>
      </trkpt>
      <trkpt lat="44.41065" lon="6.13523">
        <ele>1312.3369141</ele>
        <time>2012-08-02T09:46:05Z</time>
      </trkpt>
      <trkpt lat="44.41065" lon="6.13523">
        <ele>1312.3369141</ele>
        <time>2012-08-02T09:46:06Z</time>
      </trkpt>
      <trkpt lat="44.41065" lon="6.13523">
        <ele>1309.9335938</ele>
        <time>2012-08-02T09:46:08Z</time>
      </trkpt>
      <trkpt lat="44.41066" lon="6.1352">
        <ele>1309.453125</ele>
        <time>2012-08-02T09:47:25Z</time>
      </trkpt>
      <trkpt lat="44.41067" lon="6.1352">
        <ele>1310.4143066</ele>
        <time>2012-08-02T09:49:40Z</time>
      </trkpt>
      <trkpt lat="44.41068" lon="6.13516">
        <ele>1310.4143066</ele>
        <time>2012-08-02T09:49:54Z</time>
      </trkpt>
      <trkpt lat="44.41067" lon="6.13516">
        <ele>1310.4143066</ele>
        <time>2012-08-02T09:49:58Z</time>
      </trkpt>
      <trkpt lat="44.41058" lon="6.13514">
        <ele>1310.4143066</ele>
        <time>2012-08-02T09:50:03Z</time>
      </trkpt>
      <trkpt lat="44.41044" lon="6.13493">
        <ele>1311.3757324</ele>
        <time>2012-08-02T09:50:13Z</time>
      </trkpt>
      <trkpt lat="44.41037" lon="6.13476">
        <ele>1311.3757324</ele>
        <time>2012-08-02T09:50:20Z</time>
      </trkpt>
      <trkpt lat="44.4104" lon="6.13434">
        <ele>1311.3757324</ele>
        <time>2012-08-02T09:50:33Z</time>
      </trkpt>
      <trkpt lat="44.41042" lon="6.13428">
        <ele>1311.3757324</ele>
        <time>2012-08-02T09:50:35Z</time>
      </trkpt>
      <trkpt lat="44.41063" lon="6.13408">
        <ele>1311.8564453</ele>
        <time>2012-08-02T09:50:49Z</time>
      </trkpt>
      <trkpt lat="44.41066" lon="6.13403">
        <ele>1312.817627</ele>
        <time>2012-08-02T09:50:53Z</time>
      </trkpt>
      <trkpt lat="44.41072" lon="6.13394">
        <ele>1313.2983398</ele>
        <time>2012-08-02T09:50:59Z</time>
      </trkpt>
      <trkpt lat="44.41076" lon="6.13385">
        <ele>1313.7788086</ele>
        <time>2012-08-02T09:51:03Z</time>
      </trkpt>
      <trkpt lat="44.41078" lon="6.13377">
        <ele>1314.7402344</ele>
        <time>2012-08-02T09:51:09Z</time>
      </trkpt>
      <trkpt lat="44.41078" lon="6.13374">
        <ele>1314.7402344</ele>
        <time>2012-08-02T09:51:11Z</time>
      </trkpt>
      <trkpt lat="44.41086" lon="6.13365">
        <ele>1315.7016602</ele>
        <time>2012-08-02T09:51:20Z</time>
      </trkpt>
      <trkpt lat="44.41089" lon="6.13361">
        <ele>1316.1821289</ele>
        <time>2012-08-02T09:51:23Z</time>
      </trkpt>
      <trkpt lat="44.41106" lon="6.13334">
        <ele>1317.1435547</ele>
        <time>2012-08-02T09:51:38Z</time>
      </trkpt>
      <trkpt lat="44.41112" lon="6.13328">
        <ele>1317.6240234</ele>
        <time>2012-08-02T09:51:41Z</time>
      </trkpt>
      <trkpt lat="44.41115" lon="6.13319">
        <ele>1318.1047363</ele>
        <time>2012-08-02T09:51:45Z</time>
      </trkpt>
      <trkpt lat="44.41127" lon="6.13295">
        <ele>1319.0661621</ele>
        <time>2012-08-02T09:52:01Z</time>
      </trkpt>
      <trkpt lat="44.41129" lon="6.13284">
        <ele>1319.546875</ele>
        <time>2012-08-02T09:52:07Z</time>
      </trkpt>
      <trkpt lat="44.41132" lon="6.13272">
        <ele>1320.0273438</ele>
        <time>2012-08-02T09:52:13Z</time>
      </trkpt>
      <trkpt lat="44.41134" lon="6.13263">
        <ele>1320.9887695</ele>
        <time>2012-08-02T09:52:17Z</time>
      </trkpt>
      <trkpt lat="44.41139" lon="6.13236">
        <ele>1321.4692383</ele>
        <time>2012-08-02T09:52:31Z</time>
      </trkpt>
      <trkpt lat="44.41127" lon="6.13199">
        <ele>1323.3920898</ele>
        <time>2012-08-02T09:52:52Z</time>
      </trkpt>
      <trkpt lat="44.41126" lon="6.13198">
        <ele>1323.3920898</ele>
        <time>2012-08-02T09:52:53Z</time>
      </trkpt>
      <trkpt lat="44.41123" lon="6.13193">
        <ele>1323.8725586</ele>
        <time>2012-08-02T09:52:57Z</time>
      </trkpt>
      <trkpt lat="44.41111" lon="6.13172">
        <ele>1324.8342285</ele>
        <time>2012-08-02T09:53:11Z</time>
      </trkpt>
      <trkpt lat="44.41096" lon="6.13147">
        <ele>1326.276123</ele>
        <time>2012-08-02T09:53:28Z</time>
      </trkpt>
      <trkpt lat="44.4109" lon="6.13114">
        <ele>1328.1987305</ele>
        <time>2012-08-02T09:53:47Z</time>
      </trkpt>
      <trkpt lat="44.41084" lon="6.13078">
        <ele>1328.6794434</ele>
        <time>2012-08-02T09:54:07Z</time>
      </trkpt>
      <trkpt lat="44.41059" lon="6.13061">
        <ele>1330.6020508</ele>
        <time>2012-08-02T09:54:29Z</time>
      </trkpt>
      <trkpt lat="44.4105" lon="6.13052">
        <ele>1331.0827637</ele>
        <time>2012-08-02T09:54:42Z</time>
      </trkpt>
      <trkpt lat="44.41046" lon="6.13049">
        <ele>1332.0439453</ele>
        <time>2012-08-02T09:55:18Z</time>
      </trkpt>
      <trkpt lat="44.41029" lon="6.13028">
        <ele>1333.005127</ele>
        <time>2012-08-02T09:55:32Z</time>
      </trkpt>
      <trkpt lat="44.41009" lon="6.13011">
        <ele>1333.9665527</ele>
        <time>2012-08-02T09:55:49Z</time>
      </trkpt>
      <trkpt lat="44.41001" lon="6.12999">
        <ele>1334.9279785</ele>
        <time>2012-08-02T09:55:58Z</time>
      </trkpt>
      <trkpt lat="44.40998" lon="6.12995">
        <ele>1334.9279785</ele>
        <time>2012-08-02T09:56:02Z</time>
      </trkpt>
      <trkpt lat="44.40967" lon="6.12997">
        <ele>1336.8503418</ele>
        <time>2012-08-02T09:56:25Z</time>
      </trkpt>
      <trkpt lat="44.40945" lon="6.12996">
        <ele>1338.7731934</ele>
        <time>2012-08-02T09:56:42Z</time>
      </trkpt>
      <trkpt lat="44.40932" lon="6.12991">
        <ele>1339.2536621</ele>
        <time>2012-08-02T09:56:51Z</time>
      </trkpt>
      <trkpt lat="44.40914" lon="6.12989">
        <ele>1339.2536621</ele>
        <time>2012-08-02T09:57:03Z</time>
      </trkpt>
      <trkpt lat="44.40905" lon="6.12979">
        <ele>1340.215332</ele>
        <time>2012-08-02T09:57:11Z</time>
      </trkpt>
      <trkpt lat="44.409" lon="6.12958">
        <ele>1341.1765137</ele>
        <time>2012-08-02T09:57:19Z</time>
      </trkpt>
      <trkpt lat="44.40899" lon="6.12938">
        <ele>1341.6572266</ele>
        <time>2012-08-02T09:57:29Z</time>
      </trkpt>
      <trkpt lat="44.409" lon="6.12932">
        <ele>1342.1379395</ele>
        <time>2012-08-02T09:57:32Z</time>
      </trkpt>
      <trkpt lat="44.40903" lon="6.12917">
        <ele>1342.6186523</ele>
        <time>2012-08-02T09:57:40Z</time>
      </trkpt>
      <trkpt lat="44.40904" lon="6.12909">
        <ele>1343.0991211</ele>
        <time>2012-08-02T09:57:44Z</time>
      </trkpt>
      <trkpt lat="44.40904" lon="6.12898">
        <ele>1343.0991211</ele>
        <time>2012-08-02T09:57:50Z</time>
      </trkpt>
      <trkpt lat="44.40916" lon="6.12864">
        <ele>1344.0605469</ele>
        <time>2012-08-02T09:58:07Z</time>
      </trkpt>
      <trkpt lat="44.40932" lon="6.12836">
        <ele>1345.0217285</ele>
        <time>2012-08-02T09:58:23Z</time>
      </trkpt>
      <trkpt lat="44.40934" lon="6.12824">
        <ele>1345.5024414</ele>
        <time>2012-08-02T09:58:29Z</time>
      </trkpt>
      <trkpt lat="44.40941" lon="6.12793">
        <ele>1345.9831543</ele>
        <time>2012-08-02T09:58:45Z</time>
      </trkpt>
      <trkpt lat="44.40945" lon="6.12785">
        <ele>1346.9443359</ele>
        <time>2012-08-02T09:58:49Z</time>
      </trkpt>
      <trkpt lat="44.40948" lon="6.1277">
        <ele>1347.9057617</ele>
        <time>2012-08-02T09:58:58Z</time>
      </trkpt>
      <trkpt lat="44.40927" lon="6.12772">
        <ele>1349.3476563</ele>
        <time>2012-08-02T09:59:15Z</time>
      </trkpt>
      <trkpt lat="44.40918" lon="6.12779">
        <ele>1349.3476563</ele>
        <time>2012-08-02T09:59:22Z</time>
      </trkpt>
      <trkpt lat="44.40891" lon="6.12773">
        <ele>1350.7895508</ele>
        <time>2012-08-02T09:59:41Z</time>
      </trkpt>
      <trkpt lat="44.40874" lon="6.12761">
        <ele>1352.2314453</ele>
        <time>2012-08-02T09:59:54Z</time>
      </trkpt>
      <trkpt lat="44.40869" lon="6.12757">
        <ele>1352.2314453</ele>
        <time>2012-08-02T09:59:58Z</time>
      </trkpt>
      <trkpt lat="44.40852" lon="6.12737">
        <ele>1352.2314453</ele>
        <time>2012-08-02T10:00:13Z</time>
      </trkpt>
      <trkpt lat="44.40827" lon="6.12736">
        <ele>1354.1542969</ele>
        <time>2012-08-02T10:00:28Z</time>
      </trkpt>
      <trkpt lat="44.40804" lon="6.12727">
        <ele>1354.6347656</ele>
        <time>2012-08-02T10:00:43Z</time>
      </trkpt>
      <trkpt lat="44.40798" lon="6.12721">
        <ele>1355.1154785</ele>
        <time>2012-08-02T10:00:47Z</time>
      </trkpt>
      <trkpt lat="44.40782" lon="6.12686">
        <ele>1356.0769043</ele>
        <time>2012-08-02T10:01:03Z</time>
      </trkpt>
      <trkpt lat="44.40775" lon="6.1267">
        <ele>1356.5576172</ele>
        <time>2012-08-02T10:01:11Z</time>
      </trkpt>
      <trkpt lat="44.40753" lon="6.12663">
        <ele>1357.9997559</ele>
        <time>2012-08-02T10:01:27Z</time>
      </trkpt>
      <trkpt lat="44.40725" lon="6.12668">
        <ele>1359.4416504</ele>
        <time>2012-08-02T10:01:44Z</time>
      </trkpt>
      <trkpt lat="44.40698" lon="6.12657">
        <ele>1360.402832</ele>
        <time>2012-08-02T10:02:02Z</time>
      </trkpt>
      <trkpt lat="44.40686" lon="6.12634">
        <ele>1361.3642578</ele>
        <time>2012-08-02T10:02:15Z</time>
      </trkpt>
      <trkpt lat="44.40683" lon="6.1262">
        <ele>1362.3254395</ele>
        <time>2012-08-02T10:02:23Z</time>
      </trkpt>
      <trkpt lat="44.40681" lon="6.12614">
        <ele>1362.8061523</ele>
        <time>2012-08-02T10:02:27Z</time>
      </trkpt>
      <trkpt lat="44.40679" lon="6.12604">
        <ele>1363.2868652</ele>
        <time>2012-08-02T10:02:31Z</time>
      </trkpt>
      <trkpt lat="44.40675" lon="6.12564">
        <ele>1364.2480469</ele>
        <time>2012-08-02T10:02:51Z</time>
      </trkpt>
      <trkpt lat="44.40674" lon="6.12563">
        <ele>1364.7287598</ele>
        <time>2012-08-02T10:02:52Z</time>
      </trkpt>
      <trkpt lat="44.40659" lon="6.12526">
        <ele>1365.6901855</ele>
        <time>2012-08-02T10:03:13Z</time>
      </trkpt>
      <trkpt lat="44.40653" lon="6.12523">
        <ele>1365.2094727</ele>
        <time>2012-08-02T10:03:17Z</time>
      </trkpt>
      <trkpt lat="44.40644" lon="6.12522">
        <ele>1366.1706543</ele>
        <time>2012-08-02T10:03:23Z</time>
      </trkpt>
      <trkpt lat="44.40639" lon="6.12518">
        <ele>1366.1706543</ele>
        <time>2012-08-02T10:03:27Z</time>
      </trkpt>
      <trkpt lat="44.40636" lon="6.1251">
        <ele>1367.1320801</ele>
        <time>2012-08-02T10:03:33Z</time>
      </trkpt>
      <trkpt lat="44.40636" lon="6.12496">
        <ele>1368.0932617</ele>
        <time>2012-08-02T10:03:39Z</time>
      </trkpt>
      <trkpt lat="44.4064" lon="6.12464">
        <ele>1368.5739746</ele>
        <time>2012-08-02T10:03:55Z</time>
      </trkpt>
      <trkpt lat="44.40638" lon="6.12461">
        <ele>1368.5739746</ele>
        <time>2012-08-02T10:03:57Z</time>
      </trkpt>
      <trkpt lat="44.40641" lon="6.12416">
        <ele>1369.5354004</ele>
        <time>2012-08-02T10:04:17Z</time>
      </trkpt>
      <trkpt lat="44.40641" lon="6.12414">
        <ele>1369.5354004</ele>
        <time>2012-08-02T10:04:18Z</time>
      </trkpt>
      <trkpt lat="44.40629" lon="6.12399">
        <ele>1370.496582</ele>
        <time>2012-08-02T10:04:30Z</time>
      </trkpt>
      <trkpt lat="44.40628" lon="6.12389">
        <ele>1371.9384766</ele>
        <time>2012-08-02T10:04:43Z</time>
      </trkpt>
      <trkpt lat="44.40628" lon="6.12389">
        <ele>1371.9384766</ele>
        <time>2012-08-02T10:04:44Z</time>
      </trkpt>
      <trkpt lat="44.40628" lon="6.12389">
        <ele>1370.496582</ele>
        <time>2012-08-02T10:04:46Z</time>
      </trkpt>
      <trkpt lat="44.40628" lon="6.12389">
        <ele>1370.496582</ele>
        <time>2012-08-02T10:05:08Z</time>
      </trkpt>
      <trkpt lat="44.40622" lon="6.12381">
        <ele>1371.4577637</ele>
        <time>2012-08-02T10:05:27Z</time>
      </trkpt>
      <trkpt lat="44.40616" lon="6.1237">
        <ele>1372.4194336</ele>
        <time>2012-08-02T10:05:42Z</time>
      </trkpt>
      <trkpt lat="44.40608" lon="6.12359">
        <ele>1373.8613281</ele>
        <time>2012-08-02T10:05:57Z</time>
      </trkpt>
      <trkpt lat="44.40607" lon="6.12358">
        <ele>1373.8613281</ele>
        <time>2012-08-02T10:06:23Z</time>
      </trkpt>
      <trkpt lat="44.4061" lon="6.12354">
        <ele>1373.3808594</ele>
        <time>2012-08-02T10:07:02Z</time>
      </trkpt>
      <trkpt lat="44.40617" lon="6.12344">
        <ele>1370.0158691</ele>
        <time>2012-08-02T10:07:21Z</time>
      </trkpt>
      <trkpt lat="44.40623" lon="6.12333">
        <ele>1367.6125488</ele>
        <time>2012-08-02T10:07:42Z</time>
      </trkpt>
      <trkpt lat="44.40625" lon="6.12327">
        <ele>1365.2094727</ele>
        <time>2012-08-02T10:07:56Z</time>
      </trkpt>
      <trkpt lat="44.40627" lon="6.12316">
        <ele>1363.2868652</ele>
        <time>2012-08-02T10:08:13Z</time>
      </trkpt>
      <trkpt lat="44.4063" lon="6.12301">
        <ele>1360.8835449</ele>
        <time>2012-08-02T10:08:31Z</time>
      </trkpt>
      <trkpt lat="44.40635" lon="6.12282">
        <ele>1358.4802246</ele>
        <time>2012-08-02T10:08:54Z</time>
      </trkpt>
      <trkpt lat="44.40643" lon="6.12261">
        <ele>1356.5576172</ele>
        <time>2012-08-02T10:09:16Z</time>
      </trkpt>
      <trkpt lat="44.40644" lon="6.1226">
        <ele>1356.0769043</ele>
        <time>2012-08-02T10:09:39Z</time>
      </trkpt>
      <trkpt lat="44.40641" lon="6.12262">
        <ele>1355.1154785</ele>
        <time>2012-08-02T10:09:51Z</time>
      </trkpt>
      <trkpt lat="44.40638" lon="6.12265">
        <ele>1355.1154785</ele>
        <time>2012-08-02T10:09:54Z</time>
      </trkpt>
      <trkpt lat="44.40629" lon="6.12279">
        <ele>1352.7121582</ele>
        <time>2012-08-02T10:10:09Z</time>
      </trkpt>
      <trkpt lat="44.40625" lon="6.12282">
        <ele>1351.2702637</ele>
        <time>2012-08-02T10:10:20Z</time>
      </trkpt>
      <trkpt lat="44.40618" lon="6.12289">
        <ele>1349.8283691</ele>
        <time>2012-08-02T10:10:34Z</time>
      </trkpt>
      <trkpt lat="44.40613" lon="6.12296">
        <ele>1348.8669434</ele>
        <time>2012-08-02T10:10:38Z</time>
      </trkpt>
      <trkpt lat="44.40611" lon="6.123">
        <ele>1348.3862305</ele>
        <time>2012-08-02T10:10:41Z</time>
      </trkpt>
      <trkpt lat="44.40608" lon="6.12305">
        <ele>1346.9443359</ele>
        <time>2012-08-02T10:10:44Z</time>
      </trkpt>
      <trkpt lat="44.40599" lon="6.12315">
        <ele>1345.5024414</ele>
        <time>2012-08-02T10:10:55Z</time>
      </trkpt>
      <trkpt lat="44.40594" lon="6.1232">
        <ele>1344.5410156</ele>
        <time>2012-08-02T10:11:27Z</time>
      </trkpt>
      <trkpt lat="44.40587" lon="6.12327">
        <ele>1343.0991211</ele>
        <time>2012-08-02T10:11:46Z</time>
      </trkpt>
      <trkpt lat="44.40579" lon="6.12342">
        <ele>1339.2536621</ele>
        <time>2012-08-02T10:12:05Z</time>
      </trkpt>
      <trkpt lat="44.40575" lon="6.12346">
        <ele>1338.2924805</ele>
        <time>2012-08-02T10:12:09Z</time>
      </trkpt>
      <trkpt lat="44.40566" lon="6.1235">
        <ele>1336.369873</ele>
        <time>2012-08-02T10:12:15Z</time>
      </trkpt>
      <trkpt lat="44.40555" lon="6.12358">
        <ele>1333.4858398</ele>
        <time>2012-08-02T10:12:25Z</time>
      </trkpt>
      <trkpt lat="44.40546" lon="6.12359">
        <ele>1331.0827637</ele>
        <time>2012-08-02T10:12:30Z</time>
      </trkpt>
      <trkpt lat="44.40534" lon="6.12365">
        <ele>1330.1213379</ele>
        <time>2012-08-02T10:12:36Z</time>
      </trkpt>
      <trkpt lat="44.40532" lon="6.12367">
        <ele>1329.640625</ele>
        <time>2012-08-02T10:12:38Z</time>
      </trkpt>
      <trkpt lat="44.40512" lon="6.12364">
        <ele>1327.2375488</ele>
        <time>2012-08-02T10:12:55Z</time>
      </trkpt>
      <trkpt lat="44.40504" lon="6.12361">
        <ele>1323.8725586</ele>
        <time>2012-08-02T10:13:05Z</time>
      </trkpt>
      <trkpt lat="44.40496" lon="6.12365">
        <ele>1320.9887695</ele>
        <time>2012-08-02T10:13:21Z</time>
      </trkpt>
      <trkpt lat="44.40492" lon="6.1237">
        <ele>1319.546875</ele>
        <time>2012-08-02T10:13:27Z</time>
      </trkpt>
      <trkpt lat="44.40491" lon="6.12383">
        <ele>1317.6240234</ele>
        <time>2012-08-02T10:13:42Z</time>
      </trkpt>
      <trkpt lat="44.40488" lon="6.12393">
        <ele>1315.7016602</ele>
        <time>2012-08-02T10:14:00Z</time>
      </trkpt>
      <trkpt lat="44.4048" lon="6.12402">
        <ele>1312.817627</ele>
        <time>2012-08-02T10:14:21Z</time>
      </trkpt>
      <trkpt lat="44.40474" lon="6.12398">
        <ele>1312.3369141</ele>
        <time>2012-08-02T10:14:40Z</time>
      </trkpt>
      <trkpt lat="44.40468" lon="6.12398">
        <ele>1310.8950195</ele>
        <time>2012-08-02T10:14:53Z</time>
      </trkpt>
      <trkpt lat="44.40467" lon="6.12399">
        <ele>1310.8950195</ele>
        <time>2012-08-02T10:14:55Z</time>
      </trkpt>
      <trkpt lat="44.40459" lon="6.12404">
        <ele>1310.4143066</ele>
        <time>2012-08-02T10:15:08Z</time>
      </trkpt>
      <trkpt lat="44.40447" lon="6.12405">
        <ele>1309.453125</ele>
        <time>2012-08-02T10:15:15Z</time>
      </trkpt>
      <trkpt lat="44.40441" lon="6.12412">
        <ele>1308.9724121</ele>
        <time>2012-08-02T10:15:19Z</time>
      </trkpt>
      <trkpt lat="44.40429" lon="6.1241">
        <ele>1308.0112305</ele>
        <time>2012-08-02T10:15:30Z</time>
      </trkpt>
      <trkpt lat="44.40424" lon="6.1241">
        <ele>1307.5302734</ele>
        <time>2012-08-02T10:15:44Z</time>
      </trkpt>
      <trkpt lat="44.40422" lon="6.12405">
        <ele>1306.5688477</ele>
        <time>2012-08-02T10:15:58Z</time>
      </trkpt>
      <trkpt lat="44.40413" lon="6.12403">
        <ele>1305.607666</ele>
        <time>2012-08-02T10:16:14Z</time>
      </trkpt>
      <trkpt lat="44.40413" lon="6.12402">
        <ele>1305.1269531</ele>
        <time>2012-08-02T10:16:15Z</time>
      </trkpt>
      <trkpt lat="44.40402" lon="6.12401">
        <ele>1305.1269531</ele>
        <time>2012-08-02T10:16:21Z</time>
      </trkpt>
      <trkpt lat="44.40381" lon="6.12393">
        <ele>1303.2043457</ele>
        <time>2012-08-02T10:16:35Z</time>
      </trkpt>
      <trkpt lat="44.40377" lon="6.12391">
        <ele>1302.7236328</ele>
        <time>2012-08-02T10:16:37Z</time>
      </trkpt>
      <trkpt lat="44.40356" lon="6.12391">
        <ele>1301.2817383</ele>
        <time>2012-08-02T10:16:52Z</time>
      </trkpt>
      <trkpt lat="44.40351" lon="6.12392">
        <ele>1299.3591309</ele>
        <time>2012-08-02T10:17:04Z</time>
      </trkpt>
      <trkpt lat="44.40344" lon="6.12393">
        <ele>1296.9558105</ele>
        <time>2012-08-02T10:17:31Z</time>
      </trkpt>
      <trkpt lat="44.4034" lon="6.12394">
        <ele>1294.5524902</ele>
        <time>2012-08-02T10:17:55Z</time>
      </trkpt>
      <trkpt lat="44.40338" lon="6.12402">
        <ele>1292.630127</ele>
        <time>2012-08-02T10:18:07Z</time>
      </trkpt>
      <trkpt lat="44.4034" lon="6.12414">
        <ele>1290.7070313</ele>
        <time>2012-08-02T10:18:27Z</time>
      </trkpt>
      <trkpt lat="44.40339" lon="6.12426">
        <ele>1288.784668</ele>
        <time>2012-08-02T10:18:41Z</time>
      </trkpt>
      <trkpt lat="44.40337" lon="6.1244">
        <ele>1285.4199219</ele>
        <time>2012-08-02T10:19:00Z</time>
      </trkpt>
      <trkpt lat="44.40338" lon="6.12441">
        <ele>1283.9780273</ele>
        <time>2012-08-02T10:19:23Z</time>
      </trkpt>
      <trkpt lat="44.40336" lon="6.12456">
        <ele>1281.0942383</ele>
        <time>2012-08-02T10:19:34Z</time>
      </trkpt>
      <trkpt lat="44.40335" lon="6.12465">
        <ele>1278.2102051</ele>
        <time>2012-08-02T10:19:43Z</time>
      </trkpt>
      <trkpt lat="44.40334" lon="6.12475">
        <ele>1276.7683105</ele>
        <time>2012-08-02T10:19:46Z</time>
      </trkpt>
      <trkpt lat="44.4032" lon="6.12487">
        <ele>1274.845459</ele>
        <time>2012-08-02T10:19:55Z</time>
      </trkpt>
      <trkpt lat="44.40299" lon="6.12489">
        <ele>1271.4807129</ele>
        <time>2012-08-02T10:20:07Z</time>
      </trkpt>
      <trkpt lat="44.40299" lon="6.1249">
        <ele>1271.4807129</ele>
        <time>2012-08-02T10:20:08Z</time>
      </trkpt>
      <trkpt lat="44.40287" lon="6.12501">
        <ele>1267.635498</ele>
        <time>2012-08-02T10:20:19Z</time>
      </trkpt>
      <trkpt lat="44.40287" lon="6.12501">
        <ele>1267.635498</ele>
        <time>2012-08-02T10:20:20Z</time>
      </trkpt>
      <trkpt lat="44.40287" lon="6.12509">
        <ele>1267.635498</ele>
        <time>2012-08-02T10:20:25Z</time>
      </trkpt>
      <trkpt lat="44.40283" lon="6.12517">
        <ele>1264.751709</ele>
        <time>2012-08-02T10:20:30Z</time>
      </trkpt>
      <trkpt lat="44.40278" lon="6.12521">
        <ele>1263.3098145</ele>
        <time>2012-08-02T10:20:33Z</time>
      </trkpt>
      <trkpt lat="44.40274" lon="6.12529">
        <ele>1263.3098145</ele>
        <time>2012-08-02T10:20:44Z</time>
      </trkpt>
      <trkpt lat="44.40267" lon="6.1252">
        <ele>1263.3098145</ele>
        <time>2012-08-02T10:21:02Z</time>
      </trkpt>
      <trkpt lat="44.40264" lon="6.12518">
        <ele>1262.8291016</ele>
        <time>2012-08-02T10:21:10Z</time>
      </trkpt>
      <trkpt lat="44.40241" lon="6.12505">
        <ele>1264.751709</ele>
        <time>2012-08-02T10:21:27Z</time>
      </trkpt>
      <trkpt lat="44.40228" lon="6.12501">
        <ele>1265.7131348</ele>
        <time>2012-08-02T10:21:43Z</time>
      </trkpt>
      <trkpt lat="44.4022" lon="6.12496">
        <ele>1267.635498</ele>
        <time>2012-08-02T10:21:56Z</time>
      </trkpt>
      <trkpt lat="44.40209" lon="6.12494">
        <ele>1269.0776367</ele>
        <time>2012-08-02T10:22:08Z</time>
      </trkpt>
      <trkpt lat="44.402" lon="6.12495">
        <ele>1271.4807129</ele>
        <time>2012-08-02T10:22:25Z</time>
      </trkpt>
      <trkpt lat="44.40191" lon="6.12491">
        <ele>1272.9228516</ele>
        <time>2012-08-02T10:22:39Z</time>
      </trkpt>
      <trkpt lat="44.40188" lon="6.12492">
        <ele>1272.9228516</ele>
        <time>2012-08-02T10:23:01Z</time>
      </trkpt>
      <trkpt lat="44.40187" lon="6.12494">
        <ele>1272.9228516</ele>
        <time>2012-08-02T10:23:34Z</time>
      </trkpt>
      <trkpt lat="44.40179" lon="6.12498">
        <ele>1271.0002441</ele>
        <time>2012-08-02T10:23:40Z</time>
      </trkpt>
      <trkpt lat="44.40177" lon="6.12497">
        <ele>1270.5195313</ele>
        <time>2012-08-02T10:23:41Z</time>
      </trkpt>
      <trkpt lat="44.40175" lon="6.12504">
        <ele>1269.5583496</ele>
        <time>2012-08-02T10:23:44Z</time>
      </trkpt>
      <trkpt lat="44.40167" lon="6.12516">
        <ele>1270.0388184</ele>
        <time>2012-08-02T10:23:52Z</time>
      </trkpt>
      <trkpt lat="44.40164" lon="6.12518">
        <ele>1268.5969238</ele>
        <time>2012-08-02T10:23:54Z</time>
      </trkpt>
      <trkpt lat="44.40162" lon="6.1252">
        <ele>1269.0776367</ele>
        <time>2012-08-02T10:23:55Z</time>
      </trkpt>
      <trkpt lat="44.40154" lon="6.12533">
        <ele>1269.5583496</ele>
        <time>2012-08-02T10:24:03Z</time>
      </trkpt>
      <trkpt lat="44.40151" lon="6.12541">
        <ele>1268.1162109</ele>
        <time>2012-08-02T10:24:14Z</time>
      </trkpt>
      <trkpt lat="44.40148" lon="6.12554">
        <ele>1268.1162109</ele>
        <time>2012-08-02T10:24:25Z</time>
      </trkpt>
      <trkpt lat="44.40146" lon="6.1256">
        <ele>1267.1550293</ele>
        <time>2012-08-02T10:24:31Z</time>
      </trkpt>
      <trkpt lat="44.40142" lon="6.12572">
        <ele>1268.1162109</ele>
        <time>2012-08-02T10:24:49Z</time>
      </trkpt>
      <trkpt lat="44.4014" lon="6.1258">
        <ele>1268.5969238</ele>
        <time>2012-08-02T10:25:02Z</time>
      </trkpt>
      <trkpt lat="44.40139" lon="6.1259">
        <ele>1269.0776367</ele>
        <time>2012-08-02T10:25:16Z</time>
      </trkpt>
      <trkpt lat="44.40134" lon="6.126">
        <ele>1269.0776367</ele>
        <time>2012-08-02T10:25:30Z</time>
      </trkpt>
      <trkpt lat="44.40129" lon="6.12617">
        <ele>1269.0776367</ele>
        <time>2012-08-02T10:25:45Z</time>
      </trkpt>
      <trkpt lat="44.40129" lon="6.12621">
        <ele>1269.5583496</ele>
        <time>2012-08-02T10:25:49Z</time>
      </trkpt>
      <trkpt lat="44.40128" lon="6.12623">
        <ele>1269.0776367</ele>
        <time>2012-08-02T10:25:51Z</time>
      </trkpt>
      <trkpt lat="44.40123" lon="6.12635">
        <ele>1270.5195313</ele>
        <time>2012-08-02T10:26:03Z</time>
      </trkpt>
      <trkpt lat="44.40119" lon="6.12639">
        <ele>1270.0388184</ele>
        <time>2012-08-02T10:26:12Z</time>
      </trkpt>
      <trkpt lat="44.40118" lon="6.12644">
        <ele>1269.5583496</ele>
        <time>2012-08-02T10:26:24Z</time>
      </trkpt>
      <trkpt lat="44.40118" lon="6.12644">
        <ele>1270.5195313</ele>
        <time>2012-08-02T10:26:38Z</time>
      </trkpt>
      <trkpt lat="44.40118" lon="6.12644">
        <ele>1270.0388184</ele>
        <time>2012-08-02T10:26:39Z</time>
      </trkpt>
      <trkpt lat="44.40117" lon="6.12649">
        <ele>1270.0388184</ele>
        <time>2012-08-02T10:26:50Z</time>
      </trkpt>
      <trkpt lat="44.40114" lon="6.12655">
        <ele>1268.5969238</ele>
        <time>2012-08-02T10:27:10Z</time>
      </trkpt>
      <trkpt lat="44.40116" lon="6.12665">
        <ele>1266.1936035</ele>
        <time>2012-08-02T10:27:32Z</time>
      </trkpt>
      <trkpt lat="44.40117" lon="6.1269">
        <ele>1265.7131348</ele>
        <time>2012-08-02T10:27:57Z</time>
      </trkpt>
      <trkpt lat="44.40104" lon="6.127">
        <ele>1267.635498</ele>
        <time>2012-08-02T10:28:18Z</time>
      </trkpt>
      <trkpt lat="44.40096" lon="6.12709">
        <ele>1269.0776367</ele>
        <time>2012-08-02T10:28:31Z</time>
      </trkpt>
      <trkpt lat="44.40097" lon="6.1272">
        <ele>1269.5583496</ele>
        <time>2012-08-02T10:28:53Z</time>
      </trkpt>
      <trkpt lat="44.40097" lon="6.12725">
        <ele>1269.0776367</ele>
        <time>2012-08-02T10:29:01Z</time>
      </trkpt>
      <trkpt lat="44.40095" lon="6.12735">
        <ele>1268.1162109</ele>
        <time>2012-08-02T10:29:05Z</time>
      </trkpt>
      <trkpt lat="44.40095" lon="6.12744">
        <ele>1268.5969238</ele>
        <time>2012-08-02T10:29:15Z</time>
      </trkpt>
      <trkpt lat="44.40096" lon="6.12747">
        <ele>1268.5969238</ele>
        <time>2012-08-02T10:29:29Z</time>
      </trkpt>
      <trkpt lat="44.40094" lon="6.12753">
        <ele>1268.1162109</ele>
        <time>2012-08-02T10:29:41Z</time>
      </trkpt>
      <trkpt lat="44.4009" lon="6.12777">
        <ele>1269.0776367</ele>
        <time>2012-08-02T10:30:02Z</time>
      </trkpt>
      <trkpt lat="44.40089" lon="6.12778">
        <ele>1271.0002441</ele>
        <time>2012-08-02T10:30:04Z</time>
      </trkpt>
      <trkpt lat="44.40078" lon="6.12764">
        <ele>1271.0002441</ele>
        <time>2012-08-02T10:30:22Z</time>
      </trkpt>
      <trkpt lat="44.40072" lon="6.12762">
        <ele>1272.4421387</ele>
        <time>2012-08-02T10:30:29Z</time>
      </trkpt>
      <trkpt lat="44.40071" lon="6.12761">
        <ele>1271.0002441</ele>
        <time>2012-08-02T10:30:32Z</time>
      </trkpt>
      <trkpt lat="44.40062" lon="6.12753">
        <ele>1274.3647461</ele>
        <time>2012-08-02T10:30:47Z</time>
      </trkpt>
      <trkpt lat="44.40049" lon="6.12751">
        <ele>1275.3259277</ele>
        <time>2012-08-02T10:31:06Z</time>
      </trkpt>
      <trkpt lat="44.40036" lon="6.12752">
        <ele>1278.2102051</ele>
        <time>2012-08-02T10:31:26Z</time>
      </trkpt>
      <trkpt lat="44.4003" lon="6.12768">
        <ele>1279.1713867</ele>
        <time>2012-08-02T10:31:42Z</time>
      </trkpt>
      <trkpt lat="44.40028" lon="6.1278">
        <ele>1278.690918</ele>
        <time>2012-08-02T10:31:52Z</time>
      </trkpt>
      <trkpt lat="44.40028" lon="6.12781">
        <ele>1278.690918</ele>
        <time>2012-08-02T10:31:53Z</time>
      </trkpt>
      <trkpt lat="44.40025" lon="6.12793">
        <ele>1279.1713867</ele>
        <time>2012-08-02T10:32:04Z</time>
      </trkpt>
      <trkpt lat="44.40022" lon="6.12799">
        <ele>1279.6520996</ele>
        <time>2012-08-02T10:32:09Z</time>
      </trkpt>
      <trkpt lat="44.40018" lon="6.12816">
        <ele>1280.1328125</ele>
        <time>2012-08-02T10:32:22Z</time>
      </trkpt>
      <trkpt lat="44.40014" lon="6.12833">
        <ele>1280.6135254</ele>
        <time>2012-08-02T10:32:40Z</time>
      </trkpt>
      <trkpt lat="44.40012" lon="6.12839">
        <ele>1281.0942383</ele>
        <time>2012-08-02T10:32:46Z</time>
      </trkpt>
      <trkpt lat="44.4001" lon="6.1285">
        <ele>1281.0942383</ele>
        <time>2012-08-02T10:33:03Z</time>
      </trkpt>
      <trkpt lat="44.40009" lon="6.12874">
        <ele>1283.0166016</ele>
        <time>2012-08-02T10:33:20Z</time>
      </trkpt>
      <trkpt lat="44.40012" lon="6.12884">
        <ele>1283.4973145</ele>
        <time>2012-08-02T10:33:33Z</time>
      </trkpt>
      <trkpt lat="44.40007" lon="6.12899">
        <ele>1284.9394531</ele>
        <time>2012-08-02T10:33:50Z</time>
      </trkpt>
      <trkpt lat="44.40001" lon="6.12911">
        <ele>1284.9394531</ele>
        <time>2012-08-02T10:34:06Z</time>
      </trkpt>
      <trkpt lat="44.39997" lon="6.1292">
        <ele>1283.9780273</ele>
        <time>2012-08-02T10:34:20Z</time>
      </trkpt>
      <trkpt lat="44.39995" lon="6.12932">
        <ele>1283.4973145</ele>
        <time>2012-08-02T10:34:35Z</time>
      </trkpt>
      <trkpt lat="44.39994" lon="6.12933">
        <ele>1283.9780273</ele>
        <time>2012-08-02T10:34:36Z</time>
      </trkpt>
      <trkpt lat="44.39988" lon="6.12944">
        <ele>1285.4199219</ele>
        <time>2012-08-02T10:34:46Z</time>
      </trkpt>
      <trkpt lat="44.39983" lon="6.12953">
        <ele>1284.9394531</ele>
        <time>2012-08-02T10:34:59Z</time>
      </trkpt>
      <trkpt lat="44.39978" lon="6.12969">
        <ele>1284.4587402</ele>
        <time>2012-08-02T10:35:16Z</time>
      </trkpt>
      <trkpt lat="44.39969" lon="6.12983">
        <ele>1284.9394531</ele>
        <time>2012-08-02T10:35:34Z</time>
      </trkpt>
      <trkpt lat="44.39963" lon="6.12994">
        <ele>1284.9394531</ele>
        <time>2012-08-02T10:35:49Z</time>
      </trkpt>
      <trkpt lat="44.39952" lon="6.13008">
        <ele>1285.9006348</ele>
        <time>2012-08-02T10:36:05Z</time>
      </trkpt>
      <trkpt lat="44.39941" lon="6.13017">
        <ele>1287.3425293</ele>
        <time>2012-08-02T10:36:22Z</time>
      </trkpt>
      <trkpt lat="44.39944" lon="6.1302">
        <ele>1286.3813477</ele>
        <time>2012-08-02T10:36:26Z</time>
      </trkpt>
      <trkpt lat="44.39944" lon="6.1302">
        <ele>1287.3425293</ele>
        <time>2012-08-02T10:36:40Z</time>
      </trkpt>
      <trkpt lat="44.39937" lon="6.13026">
        <ele>1287.3425293</ele>
        <time>2012-08-02T10:36:57Z</time>
      </trkpt>
      <trkpt lat="44.39914" lon="6.13051">
        <ele>1289.2651367</ele>
        <time>2012-08-02T10:37:28Z</time>
      </trkpt>
      <trkpt lat="44.39909" lon="6.13083">
        <ele>1291.1877441</ele>
        <time>2012-08-02T10:37:56Z</time>
      </trkpt>
      <trkpt lat="44.39891" lon="6.13084">
        <ele>1292.630127</ele>
        <time>2012-08-02T10:38:14Z</time>
      </trkpt>
      <trkpt lat="44.39882" lon="6.13091">
        <ele>1293.5913086</ele>
        <time>2012-08-02T10:38:27Z</time>
      </trkpt>
      <trkpt lat="44.39876" lon="6.131">
        <ele>1295.0332031</ele>
        <time>2012-08-02T10:38:49Z</time>
      </trkpt>
      <trkpt lat="44.39867" lon="6.13107">
        <ele>1295.513916</ele>
        <time>2012-08-02T10:39:04Z</time>
      </trkpt>
      <trkpt lat="44.39859" lon="6.13112">
        <ele>1295.0332031</ele>
        <time>2012-08-02T10:39:22Z</time>
      </trkpt>
      <trkpt lat="44.39852" lon="6.13108">
        <ele>1294.0720215</ele>
        <time>2012-08-02T10:39:32Z</time>
      </trkpt>
      <trkpt lat="44.39846" lon="6.13101">
        <ele>1294.0720215</ele>
        <time>2012-08-02T10:39:35Z</time>
      </trkpt>
      <trkpt lat="44.39841" lon="6.13098">
        <ele>1294.0720215</ele>
        <time>2012-08-02T10:39:41Z</time>
      </trkpt>
      <trkpt lat="44.39837" lon="6.131">
        <ele>1294.0720215</ele>
        <time>2012-08-02T10:39:45Z</time>
      </trkpt>
      <trkpt lat="44.39835" lon="6.13103">
        <ele>1294.5524902</ele>
        <time>2012-08-02T10:39:48Z</time>
      </trkpt>
      <trkpt lat="44.39826" lon="6.13108">
        <ele>1295.0332031</ele>
        <time>2012-08-02T10:40:00Z</time>
      </trkpt>
      <trkpt lat="44.3982" lon="6.13122">
        <ele>1294.5524902</ele>
        <time>2012-08-02T10:40:16Z</time>
      </trkpt>
      <trkpt lat="44.39816" lon="6.1313">
        <ele>1293.5913086</ele>
        <time>2012-08-02T10:40:24Z</time>
      </trkpt>
      <trkpt lat="44.39809" lon="6.13143">
        <ele>1293.5913086</ele>
        <time>2012-08-02T10:40:38Z</time>
      </trkpt>
      <trkpt lat="44.39803" lon="6.13156">
        <ele>1292.630127</ele>
        <time>2012-08-02T10:40:51Z</time>
      </trkpt>
      <trkpt lat="44.398" lon="6.13172">
        <ele>1291.668457</ele>
        <time>2012-08-02T10:41:04Z</time>
      </trkpt>
      <trkpt lat="44.398" lon="6.13174">
        <ele>1291.1877441</ele>
        <time>2012-08-02T10:41:06Z</time>
      </trkpt>
      <trkpt lat="44.39799" lon="6.13185">
        <ele>1291.668457</ele>
        <time>2012-08-02T10:41:20Z</time>
      </trkpt>
      <trkpt lat="44.39799" lon="6.13201">
        <ele>1294.0720215</ele>
        <time>2012-08-02T10:41:37Z</time>
      </trkpt>
      <trkpt lat="44.39797" lon="6.13214">
        <ele>1295.0332031</ele>
        <time>2012-08-02T10:41:49Z</time>
      </trkpt>
      <trkpt lat="44.39792" lon="6.13221">
        <ele>1295.513916</ele>
        <time>2012-08-02T10:42:07Z</time>
      </trkpt>
      <trkpt lat="44.39791" lon="6.1322">
        <ele>1292.630127</ele>
        <time>2012-08-02T10:43:34Z</time>
      </trkpt>
      <trkpt lat="44.39797" lon="6.13198">
        <ele>1293.1105957</ele>
        <time>2012-08-02T10:44:33Z</time>
      </trkpt>
      <trkpt lat="44.39798" lon="6.13183">
        <ele>1291.1877441</ele>
        <time>2012-08-02T10:44:54Z</time>
      </trkpt>
      <trkpt lat="44.39798" lon="6.13181">
        <ele>1291.1877441</ele>
        <time>2012-08-02T10:44:59Z</time>
      </trkpt>
      <trkpt lat="44.39797" lon="6.13179">
        <ele>1291.668457</ele>
        <time>2012-08-02T10:45:03Z</time>
      </trkpt>
      <trkpt lat="44.39794" lon="6.13172">
        <ele>1289.7458496</ele>
        <time>2012-08-02T10:45:07Z</time>
      </trkpt>
      <trkpt lat="44.39788" lon="6.1316">
        <ele>1290.2265625</ele>
        <time>2012-08-02T10:45:17Z</time>
      </trkpt>
      <trkpt lat="44.39788" lon="6.13155">
        <ele>1289.7458496</ele>
        <time>2012-08-02T10:45:20Z</time>
      </trkpt>
      <trkpt lat="44.39786" lon="6.13152">
        <ele>1291.1877441</ele>
        <time>2012-08-02T10:45:23Z</time>
      </trkpt>
      <trkpt lat="44.39779" lon="6.13139">
        <ele>1291.668457</ele>
        <time>2012-08-02T10:45:38Z</time>
      </trkpt>
      <trkpt lat="44.39776" lon="6.13138">
        <ele>1292.1494141</ele>
        <time>2012-08-02T10:45:42Z</time>
      </trkpt>
      <trkpt lat="44.39756" lon="6.13132">
        <ele>1294.0720215</ele>
        <time>2012-08-02T10:46:01Z</time>
      </trkpt>
      <trkpt lat="44.39739" lon="6.1313">
        <ele>1294.5524902</ele>
        <time>2012-08-02T10:46:21Z</time>
      </trkpt>
      <trkpt lat="44.39731" lon="6.13135">
        <ele>1295.513916</ele>
        <time>2012-08-02T10:46:39Z</time>
      </trkpt>
      <trkpt lat="44.39731" lon="6.13135">
        <ele>1297.9172363</ele>
        <time>2012-08-02T10:46:47Z</time>
      </trkpt>
      <trkpt lat="44.39731" lon="6.13135">
        <ele>1295.9946289</ele>
        <time>2012-08-02T10:46:49Z</time>
      </trkpt>
      <trkpt lat="44.39731" lon="6.13135">
        <ele>1297.4365234</ele>
        <time>2012-08-02T10:46:51Z</time>
      </trkpt>
      <trkpt lat="44.39731" lon="6.13135">
        <ele>1297.9172363</ele>
        <time>2012-08-02T10:46:58Z</time>
      </trkpt>
      <trkpt lat="44.39731" lon="6.13135">
        <ele>1296.4753418</ele>
        <time>2012-08-02T10:47:26Z</time>
      </trkpt>
      <trkpt lat="44.39731" lon="6.13135">
        <ele>1295.513916</ele>
        <time>2012-08-02T10:47:37Z</time>
      </trkpt>
      <trkpt lat="44.39731" lon="6.13135">
        <ele>1296.9558105</ele>
        <time>2012-08-02T10:47:47Z</time>
      </trkpt>
      <trkpt lat="44.39731" lon="6.13135">
        <ele>1295.513916</ele>
        <time>2012-08-02T10:47:49Z</time>
      </trkpt>
      <trkpt lat="44.39731" lon="6.13135">
        <ele>1295.0332031</ele>
        <time>2012-08-02T10:47:54Z</time>
      </trkpt>
      <trkpt lat="44.3972" lon="6.13136">
        <ele>1298.3977051</ele>
        <time>2012-08-02T10:49:02Z</time>
      </trkpt>
      <trkpt lat="44.39715" lon="6.13136">
        <ele>1297.9172363</ele>
        <time>2012-08-02T10:49:06Z</time>
      </trkpt>
      <trkpt lat="44.39707" lon="6.13144">
        <ele>1297.4365234</ele>
        <time>2012-08-02T10:49:18Z</time>
      </trkpt>
      <trkpt lat="44.39709" lon="6.13156">
        <ele>1296.4753418</ele>
        <time>2012-08-02T10:49:32Z</time>
      </trkpt>
      <trkpt lat="44.39708" lon="6.13158">
        <ele>1295.0332031</ele>
        <time>2012-08-02T10:49:36Z</time>
      </trkpt>
      <trkpt lat="44.39689" lon="6.13164">
        <ele>1295.0332031</ele>
        <time>2012-08-02T10:49:55Z</time>
      </trkpt>
      <trkpt lat="44.39682" lon="6.13166">
        <ele>1293.5913086</ele>
        <time>2012-08-02T10:50:12Z</time>
      </trkpt>
      <trkpt lat="44.39681" lon="6.13168">
        <ele>1294.5524902</ele>
        <time>2012-08-02T10:50:14Z</time>
      </trkpt>
      <trkpt lat="44.39679" lon="6.13173">
        <ele>1294.0720215</ele>
        <time>2012-08-02T10:50:22Z</time>
      </trkpt>
      <trkpt lat="44.39663" lon="6.13182">
        <ele>1295.0332031</ele>
        <time>2012-08-02T10:50:34Z</time>
      </trkpt>
      <trkpt lat="44.39662" lon="6.13183">
        <ele>1295.9946289</ele>
        <time>2012-08-02T10:50:35Z</time>
      </trkpt>
      <trkpt lat="44.39658" lon="6.13186">
        <ele>1295.0332031</ele>
        <time>2012-08-02T10:50:38Z</time>
      </trkpt>
      <trkpt lat="44.39642" lon="6.13181">
        <ele>1292.1494141</ele>
        <time>2012-08-02T10:50:48Z</time>
      </trkpt>
      <trkpt lat="44.39641" lon="6.13181">
        <ele>1291.1877441</ele>
        <time>2012-08-02T10:50:50Z</time>
      </trkpt>
      <trkpt lat="44.39639" lon="6.13185">
        <ele>1290.7070313</ele>
        <time>2012-08-02T10:50:51Z</time>
      </trkpt>
      <trkpt lat="44.39626" lon="6.13209">
        <ele>1289.2651367</ele>
        <time>2012-08-02T10:51:02Z</time>
      </trkpt>
      <trkpt lat="44.39619" lon="6.13211">
        <ele>1288.3039551</ele>
        <time>2012-08-02T10:51:15Z</time>
      </trkpt>
      <trkpt lat="44.39615" lon="6.13214">
        <ele>1287.8232422</ele>
        <time>2012-08-02T10:51:29Z</time>
      </trkpt>
      <trkpt lat="44.39592" lon="6.13232">
        <ele>1286.8618164</ele>
        <time>2012-08-02T10:51:43Z</time>
      </trkpt>
      <trkpt lat="44.39582" lon="6.13244">
        <ele>1286.3813477</ele>
        <time>2012-08-02T10:51:50Z</time>
      </trkpt>
      <trkpt lat="44.3958" lon="6.13248">
        <ele>1285.4199219</ele>
        <time>2012-08-02T10:51:53Z</time>
      </trkpt>
      <trkpt lat="44.39579" lon="6.13253">
        <ele>1284.9394531</ele>
        <time>2012-08-02T10:52:04Z</time>
      </trkpt>
      <trkpt lat="44.39573" lon="6.13258">
        <ele>1283.4973145</ele>
        <time>2012-08-02T10:52:16Z</time>
      </trkpt>
      <trkpt lat="44.39565" lon="6.13265">
        <ele>1279.1713867</ele>
        <time>2012-08-02T10:52:24Z</time>
      </trkpt>
      <trkpt lat="44.39564" lon="6.13266">
        <ele>1279.1713867</ele>
        <time>2012-08-02T10:52:25Z</time>
      </trkpt>
      <trkpt lat="44.39556" lon="6.13272">
        <ele>1276.2875977</ele>
        <time>2012-08-02T10:52:32Z</time>
      </trkpt>
      <trkpt lat="44.39545" lon="6.13281">
        <ele>1272.4421387</ele>
        <time>2012-08-02T10:52:40Z</time>
      </trkpt>
      <trkpt lat="44.39538" lon="6.13288">
        <ele>1270.5195313</ele>
        <time>2012-08-02T10:52:45Z</time>
      </trkpt>
      <trkpt lat="44.39526" lon="6.13299">
        <ele>1267.635498</ele>
        <time>2012-08-02T10:52:53Z</time>
      </trkpt>
      <trkpt lat="44.39517" lon="6.13308">
        <ele>1265.2324219</ele>
        <time>2012-08-02T10:52:59Z</time>
      </trkpt>
      <trkpt lat="44.39515" lon="6.13318">
        <ele>1262.8291016</ele>
        <time>2012-08-02T10:53:09Z</time>
      </trkpt>
      <trkpt lat="44.39516" lon="6.13319">
        <ele>1262.8291016</ele>
        <time>2012-08-02T10:53:11Z</time>
      </trkpt>
      <trkpt lat="44.39526" lon="6.13318">
        <ele>1259.9448242</ele>
        <time>2012-08-02T10:53:20Z</time>
      </trkpt>
      <trkpt lat="44.39527" lon="6.13318">
        <ele>1259.4643555</ele>
        <time>2012-08-02T10:53:21Z</time>
      </trkpt>
      <trkpt lat="44.3953" lon="6.13319">
        <ele>1258.9836426</ele>
        <time>2012-08-02T10:53:23Z</time>
      </trkpt>
      <trkpt lat="44.39542" lon="6.13323">
        <ele>1256.0996094</ele>
        <time>2012-08-02T10:53:30Z</time>
      </trkpt>
      <trkpt lat="44.39546" lon="6.13323">
        <ele>1255.1384277</ele>
        <time>2012-08-02T10:53:34Z</time>
      </trkpt>
      <trkpt lat="44.39561" lon="6.13326">
        <ele>1252.2543945</ele>
        <time>2012-08-02T10:53:43Z</time>
      </trkpt>
      <trkpt lat="44.39577" lon="6.13341">
        <ele>1249.8513184</ele>
        <time>2012-08-02T10:53:52Z</time>
      </trkpt>
      <trkpt lat="44.39588" lon="6.13353">
        <ele>1246.9672852</ele>
        <time>2012-08-02T10:54:00Z</time>
      </trkpt>
      <trkpt lat="44.39595" lon="6.13359">
        <ele>1244.5639648</ele>
        <time>2012-08-02T10:54:13Z</time>
      </trkpt>
      <trkpt lat="44.39599" lon="6.13362">
        <ele>1243.6025391</ele>
        <time>2012-08-02T10:54:16Z</time>
      </trkpt>
      <trkpt lat="44.39607" lon="6.13364">
        <ele>1242.1606445</ele>
        <time>2012-08-02T10:54:20Z</time>
      </trkpt>
      <trkpt lat="44.39611" lon="6.13377">
        <ele>1239.2766113</ele>
        <time>2012-08-02T10:54:29Z</time>
      </trkpt>
      <trkpt lat="44.39597" lon="6.13388">
        <ele>1235.9121094</ele>
        <time>2012-08-02T10:54:38Z</time>
      </trkpt>
      <trkpt lat="44.39579" lon="6.13379">
        <ele>1233.0280762</ele>
        <time>2012-08-02T10:54:50Z</time>
      </trkpt>
      <trkpt lat="44.39567" lon="6.13372">
        <ele>1229.1828613</ele>
        <time>2012-08-02T10:55:06Z</time>
      </trkpt>
      <trkpt lat="44.39561" lon="6.13371">
        <ele>1227.2602539</ele>
        <time>2012-08-02T10:55:14Z</time>
      </trkpt>
      <trkpt lat="44.39544" lon="6.13379">
        <ele>1224.3762207</ele>
        <time>2012-08-02T10:55:21Z</time>
      </trkpt>
      <trkpt lat="44.39534" lon="6.13386">
        <ele>1222.9343262</ele>
        <time>2012-08-02T10:55:26Z</time>
      </trkpt>
      <trkpt lat="44.39533" lon="6.13389">
        <ele>1221.9729004</ele>
        <time>2012-08-02T10:55:28Z</time>
      </trkpt>
      <trkpt lat="44.39525" lon="6.13397">
        <ele>1220.050293</ele>
        <time>2012-08-02T10:55:34Z</time>
      </trkpt>
      <trkpt lat="44.39516" lon="6.1342">
        <ele>1216.685791</ele>
        <time>2012-08-02T10:55:43Z</time>
      </trkpt>
      <trkpt lat="44.39507" lon="6.13432">
        <ele>1214.2824707</ele>
        <time>2012-08-02T10:55:55Z</time>
      </trkpt>
      <trkpt lat="44.39505" lon="6.13436">
        <ele>1212.8405762</ele>
        <time>2012-08-02T10:55:58Z</time>
      </trkpt>
      <trkpt lat="44.39503" lon="6.1344">
        <ele>1213.3212891</ele>
        <time>2012-08-02T10:56:00Z</time>
      </trkpt>
      <trkpt lat="44.39503" lon="6.13447">
        <ele>1210.9177246</ele>
        <time>2012-08-02T10:56:05Z</time>
      </trkpt>
      <trkpt lat="44.39506" lon="6.13446">
        <ele>1211.3984375</ele>
        <time>2012-08-02T10:56:36Z</time>
      </trkpt>
      <trkpt lat="44.39512" lon="6.13446">
        <ele>1210.4370117</ele>
        <time>2012-08-02T10:56:44Z</time>
      </trkpt>
      <trkpt lat="44.39522" lon="6.13444">
        <ele>1207.0725098</ele>
        <time>2012-08-02T10:56:55Z</time>
      </trkpt>
      <trkpt lat="44.39536" lon="6.13439">
        <ele>1203.7080078</ele>
        <time>2012-08-02T10:57:10Z</time>
      </trkpt>
      <trkpt lat="44.39545" lon="6.13443">
        <ele>1201.3046875</ele>
        <time>2012-08-02T10:57:23Z</time>
      </trkpt>
      <trkpt lat="44.39541" lon="6.13452">
        <ele>1199.3820801</ele>
        <time>2012-08-02T10:57:37Z</time>
      </trkpt>
      <trkpt lat="44.39535" lon="6.13461">
        <ele>1197.9401855</ele>
        <time>2012-08-02T10:57:53Z</time>
      </trkpt>
      <trkpt lat="44.39533" lon="6.13462">
        <ele>1197.4594727</ele>
        <time>2012-08-02T10:58:03Z</time>
      </trkpt>
      <trkpt lat="44.39532" lon="6.13463">
        <ele>1196.9787598</ele>
        <time>2012-08-02T10:58:05Z</time>
      </trkpt>
      <trkpt lat="44.39526" lon="6.13466">
        <ele>1196.498291</ele>
        <time>2012-08-02T10:58:11Z</time>
      </trkpt>
      <trkpt lat="44.39524" lon="6.1348">
        <ele>1193.1333008</ele>
        <time>2012-08-02T10:58:16Z</time>
      </trkpt>
      <trkpt lat="44.39526" lon="6.13484">
        <ele>1193.1333008</ele>
        <time>2012-08-02T10:58:17Z</time>
      </trkpt>
      <trkpt lat="44.39525" lon="6.13488">
        <ele>1192.1721191</ele>
        <time>2012-08-02T10:58:28Z</time>
      </trkpt>
      <trkpt lat="44.39522" lon="6.13488">
        <ele>1191.2106934</ele>
        <time>2012-08-02T10:58:49Z</time>
      </trkpt>
      <trkpt lat="44.39519" lon="6.13489">
        <ele>1191.2106934</ele>
        <time>2012-08-02T10:59:05Z</time>
      </trkpt>
      <trkpt lat="44.39507" lon="6.13499">
        <ele>1187.8461914</ele>
        <time>2012-08-02T10:59:13Z</time>
      </trkpt>
      <trkpt lat="44.39505" lon="6.13502">
        <ele>1186.4042969</ele>
        <time>2012-08-02T10:59:15Z</time>
      </trkpt>
      <trkpt lat="44.39501" lon="6.13504">
        <ele>1185.4428711</ele>
        <time>2012-08-02T10:59:17Z</time>
      </trkpt>
      <trkpt lat="44.39496" lon="6.13515">
        <ele>1183.0395508</ele>
        <time>2012-08-02T10:59:21Z</time>
      </trkpt>
      <trkpt lat="44.39496" lon="6.13519">
        <ele>1183.0395508</ele>
        <time>2012-08-02T10:59:22Z</time>
      </trkpt>
      <trkpt lat="44.39493" lon="6.13527">
        <ele>1181.1171875</ele>
        <time>2012-08-02T10:59:24Z</time>
      </trkpt>
      <trkpt lat="44.39491" lon="6.13536">
        <ele>1181.5976563</ele>
        <time>2012-08-02T10:59:33Z</time>
      </trkpt>
      <trkpt lat="44.3949" lon="6.13539">
        <ele>1181.5976563</ele>
        <time>2012-08-02T10:59:49Z</time>
      </trkpt>
      <trkpt lat="44.39483" lon="6.1354">
        <ele>1183.0395508</ele>
        <time>2012-08-02T11:00:04Z</time>
      </trkpt>
      <trkpt lat="44.39474" lon="6.13546">
        <ele>1184.9624023</ele>
        <time>2012-08-02T11:00:13Z</time>
      </trkpt>
      <trkpt lat="44.39472" lon="6.13549">
        <ele>1185.4428711</ele>
        <time>2012-08-02T11:00:16Z</time>
      </trkpt>
      <trkpt lat="44.39467" lon="6.13553">
        <ele>1185.4428711</ele>
        <time>2012-08-02T11:00:24Z</time>
      </trkpt>
      <trkpt lat="44.39461" lon="6.13562">
        <ele>1185.923584</ele>
        <time>2012-08-02T11:00:38Z</time>
      </trkpt>
      <trkpt lat="44.39457" lon="6.13568">
        <ele>1187.8461914</ele>
        <time>2012-08-02T11:00:42Z</time>
      </trkpt>
      <trkpt lat="44.39456" lon="6.13573">
        <ele>1186.8847656</ele>
        <time>2012-08-02T11:00:44Z</time>
      </trkpt>
      <trkpt lat="44.39456" lon="6.1358">
        <ele>1188.8076172</ele>
        <time>2012-08-02T11:00:52Z</time>
      </trkpt>
      <trkpt lat="44.3945" lon="6.13589">
        <ele>1189.7687988</ele>
        <time>2012-08-02T11:01:08Z</time>
      </trkpt>
      <trkpt lat="44.39449" lon="6.13589">
        <ele>1189.2880859</ele>
        <time>2012-08-02T11:01:09Z</time>
      </trkpt>
      <trkpt lat="44.39448" lon="6.13602">
        <ele>1188.3269043</ele>
        <time>2012-08-02T11:01:13Z</time>
      </trkpt>
      <trkpt lat="44.39451" lon="6.13628">
        <ele>1187.3654785</ele>
        <time>2012-08-02T11:01:21Z</time>
      </trkpt>
      <trkpt lat="44.39446" lon="6.13643">
        <ele>1184.4816895</ele>
        <time>2012-08-02T11:01:28Z</time>
      </trkpt>
      <trkpt lat="44.39439" lon="6.13648">
        <ele>1183.0395508</ele>
        <time>2012-08-02T11:01:33Z</time>
      </trkpt>
      <trkpt lat="44.39437" lon="6.13651">
        <ele>1181.5976563</ele>
        <time>2012-08-02T11:01:35Z</time>
      </trkpt>
      <trkpt lat="44.39435" lon="6.13657">
        <ele>1180.6364746</ele>
        <time>2012-08-02T11:01:39Z</time>
      </trkpt>
      <trkpt lat="44.3943" lon="6.1367">
        <ele>1180.1557617</ele>
        <time>2012-08-02T11:01:48Z</time>
      </trkpt>
      <trkpt lat="44.39429" lon="6.13671">
        <ele>1180.1557617</ele>
        <time>2012-08-02T11:01:49Z</time>
      </trkpt>
      <trkpt lat="44.39428" lon="6.13681">
        <ele>1178.713623</ele>
        <time>2012-08-02T11:02:00Z</time>
      </trkpt>
      <trkpt lat="44.39428" lon="6.13684">
        <ele>1178.2329102</ele>
        <time>2012-08-02T11:02:04Z</time>
      </trkpt>
      <trkpt lat="44.39424" lon="6.13695">
        <ele>1177.2717285</ele>
        <time>2012-08-02T11:02:10Z</time>
      </trkpt>
      <trkpt lat="44.3942" lon="6.13712">
        <ele>1175.348877</ele>
        <time>2012-08-02T11:02:18Z</time>
      </trkpt>
      <trkpt lat="44.39417" lon="6.13715">
        <ele>1174.8684082</ele>
        <time>2012-08-02T11:02:20Z</time>
      </trkpt>
      <trkpt lat="44.3941" lon="6.13724">
        <ele>1172.9458008</ele>
        <time>2012-08-02T11:02:25Z</time>
      </trkpt>
      <trkpt lat="44.39407" lon="6.13729">
        <ele>1170.5424805</ele>
        <time>2012-08-02T11:02:35Z</time>
      </trkpt>
      <trkpt lat="44.39404" lon="6.1373">
        <ele>1170.5424805</ele>
        <time>2012-08-02T11:02:53Z</time>
      </trkpt>
      <trkpt lat="44.39399" lon="6.13736">
        <ele>1169.5812988</ele>
        <time>2012-08-02T11:03:01Z</time>
      </trkpt>
      <trkpt lat="44.39398" lon="6.13738">
        <ele>1169.1005859</ele>
        <time>2012-08-02T11:03:02Z</time>
      </trkpt>
      <trkpt lat="44.39395" lon="6.1374">
        <ele>1168.1391602</ele>
        <time>2012-08-02T11:03:04Z</time>
      </trkpt>
      <trkpt lat="44.39383" lon="6.13748">
        <ele>1164.7746582</ele>
        <time>2012-08-02T11:03:10Z</time>
      </trkpt>
      <trkpt lat="44.39383" lon="6.13749">
        <ele>1164.7746582</ele>
        <time>2012-08-02T11:03:11Z</time>
      </trkpt>
      <trkpt lat="44.39377" lon="6.13758">
        <ele>1162.3710938</ele>
        <time>2012-08-02T11:03:15Z</time>
      </trkpt>
      <trkpt lat="44.39371" lon="6.13772">
        <ele>1159.9677734</ele>
        <time>2012-08-02T11:03:18Z</time>
      </trkpt>
      <trkpt lat="44.39363" lon="6.13806">
        <ele>1156.6032715</ele>
        <time>2012-08-02T11:03:28Z</time>
      </trkpt>
      <trkpt lat="44.39359" lon="6.13819">
        <ele>1154.2001953</ele>
        <time>2012-08-02T11:03:32Z</time>
      </trkpt>
      <trkpt lat="44.39354" lon="6.13829">
        <ele>1153.7194824</ele>
        <time>2012-08-02T11:03:35Z</time>
      </trkpt>
      <trkpt lat="44.39346" lon="6.13845">
        <ele>1151.796875</ele>
        <time>2012-08-02T11:03:40Z</time>
      </trkpt>
      <trkpt lat="44.39343" lon="6.13865">
        <ele>1148.9128418</ele>
        <time>2012-08-02T11:03:48Z</time>
      </trkpt>
      <trkpt lat="44.39345" lon="6.13873">
        <ele>1146.0288086</ele>
        <time>2012-08-02T11:03:53Z</time>
      </trkpt>
      <trkpt lat="44.39364" lon="6.1391">
        <ele>1142.1835938</ele>
        <time>2012-08-02T11:04:08Z</time>
      </trkpt>
      <trkpt lat="44.39365" lon="6.13913">
        <ele>1142.1835938</ele>
        <time>2012-08-02T11:04:09Z</time>
      </trkpt>
      <trkpt lat="44.39376" lon="6.13941">
        <ele>1138.8190918</ele>
        <time>2012-08-02T11:04:21Z</time>
      </trkpt>
      <trkpt lat="44.39381" lon="6.13961">
        <ele>1135.9350586</ele>
        <time>2012-08-02T11:04:30Z</time>
      </trkpt>
      <trkpt lat="44.39384" lon="6.13969">
        <ele>1134.4931641</ele>
        <time>2012-08-02T11:04:34Z</time>
      </trkpt>
      <trkpt lat="44.39389" lon="6.13972">
        <ele>1132.5705566</ele>
        <time>2012-08-02T11:04:47Z</time>
      </trkpt>
      <trkpt lat="44.39392" lon="6.13977">
        <ele>1131.128418</ele>
        <time>2012-08-02T11:05:01Z</time>
      </trkpt>
      <trkpt lat="44.39406" lon="6.13965">
        <ele>1129.2055664</ele>
        <time>2012-08-02T11:05:11Z</time>
      </trkpt>
      <trkpt lat="44.39409" lon="6.1396">
        <ele>1128.2443848</ele>
        <time>2012-08-02T11:05:14Z</time>
      </trkpt>
      <trkpt lat="44.39413" lon="6.13957">
        <ele>1127.7636719</ele>
        <time>2012-08-02T11:05:16Z</time>
      </trkpt>
      <trkpt lat="44.39416" lon="6.13955">
        <ele>1127.7636719</ele>
        <time>2012-08-02T11:05:18Z</time>
      </trkpt>
      <trkpt lat="44.39425" lon="6.1395">
        <ele>1126.3217773</ele>
        <time>2012-08-02T11:05:23Z</time>
      </trkpt>
      <trkpt lat="44.39442" lon="6.13942">
        <ele>1122.9572754</ele>
        <time>2012-08-02T11:05:35Z</time>
      </trkpt>
      <trkpt lat="44.39445" lon="6.13942">
        <ele>1122.4765625</ele>
        <time>2012-08-02T11:05:37Z</time>
      </trkpt>
      <trkpt lat="44.39447" lon="6.13942">
        <ele>1121.5151367</ele>
        <time>2012-08-02T11:05:39Z</time>
      </trkpt>
      <trkpt lat="44.39462" lon="6.13945">
        <ele>1119.1120605</ele>
        <time>2012-08-02T11:05:46Z</time>
      </trkpt>
      <trkpt lat="44.39476" lon="6.13954">
        <ele>1117.6699219</ele>
        <time>2012-08-02T11:05:55Z</time>
      </trkpt>
      <trkpt lat="44.3948" lon="6.13959">
        <ele>1116.2280273</ele>
        <time>2012-08-02T11:05:59Z</time>
      </trkpt>
      <trkpt lat="44.39491" lon="6.13971">
        <ele>1112.8632813</ele>
        <time>2012-08-02T11:06:06Z</time>
      </trkpt>
      <trkpt lat="44.39493" lon="6.13972">
        <ele>1112.8632813</ele>
        <time>2012-08-02T11:06:07Z</time>
      </trkpt>
      <trkpt lat="44.39495" lon="6.13974">
        <ele>1112.3825684</ele>
        <time>2012-08-02T11:06:08Z</time>
      </trkpt>
      <trkpt lat="44.395" lon="6.13978">
        <ele>1111.4213867</ele>
        <time>2012-08-02T11:06:17Z</time>
      </trkpt>
      <trkpt lat="44.39507" lon="6.13993">
        <ele>1110.9406738</ele>
        <time>2012-08-02T11:06:32Z</time>
      </trkpt>
      <trkpt lat="44.39511" lon="6.14004">
        <ele>1110.4599609</ele>
        <time>2012-08-02T11:06:48Z</time>
      </trkpt>
      <trkpt lat="44.39513" lon="6.14007">
        <ele>1109.979248</ele>
        <time>2012-08-02T11:06:53Z</time>
      </trkpt>
      <trkpt lat="44.39516" lon="6.1401">
        <ele>1109.0180664</ele>
        <time>2012-08-02T11:07:07Z</time>
      </trkpt>
      <trkpt lat="44.39524" lon="6.14035">
        <ele>1109.4987793</ele>
        <time>2012-08-02T11:07:19Z</time>
      </trkpt>
      <trkpt lat="44.39525" lon="6.14079">
        <ele>1110.4599609</ele>
        <time>2012-08-02T11:07:41Z</time>
      </trkpt>
      <trkpt lat="44.39512" lon="6.14124">
        <ele>1110.4599609</ele>
        <time>2012-08-02T11:08:02Z</time>
      </trkpt>
      <trkpt lat="44.39511" lon="6.1415">
        <ele>1108.5373535</ele>
        <time>2012-08-02T11:08:12Z</time>
      </trkpt>
      <trkpt lat="44.39532" lon="6.14161">
        <ele>1104.2116699</ele>
        <time>2012-08-02T11:08:27Z</time>
      </trkpt>
      <trkpt lat="44.39541" lon="6.14157">
        <ele>1102.7695313</ele>
        <time>2012-08-02T11:08:33Z</time>
      </trkpt>
      <trkpt lat="44.39549" lon="6.14154">
        <ele>1101.8083496</ele>
        <time>2012-08-02T11:08:39Z</time>
      </trkpt>
      <trkpt lat="44.39559" lon="6.14153">
        <ele>1100.8469238</ele>
        <time>2012-08-02T11:08:56Z</time>
      </trkpt>
      <trkpt lat="44.39569" lon="6.14151">
        <ele>1098.9240723</ele>
        <time>2012-08-02T11:09:14Z</time>
      </trkpt>
      <trkpt lat="44.39579" lon="6.14152">
        <ele>1096.0402832</ele>
        <time>2012-08-02T11:09:31Z</time>
      </trkpt>
      <trkpt lat="44.39584" lon="6.14157">
        <ele>1095.5595703</ele>
        <time>2012-08-02T11:09:40Z</time>
      </trkpt>
      <trkpt lat="44.39597" lon="6.14167">
        <ele>1093.6369629</ele>
        <time>2012-08-02T11:09:57Z</time>
      </trkpt>
      <trkpt lat="44.39597" lon="6.14171">
        <ele>1093.6369629</ele>
        <time>2012-08-02T11:10:00Z</time>
      </trkpt>
      <trkpt lat="44.39596" lon="6.14176">
        <ele>1093.6369629</ele>
        <time>2012-08-02T11:10:04Z</time>
      </trkpt>
      <trkpt lat="44.39597" lon="6.14179">
        <ele>1094.1176758</ele>
        <time>2012-08-02T11:10:07Z</time>
      </trkpt>
      <trkpt lat="44.39597" lon="6.14192">
        <ele>1093.6369629</ele>
        <time>2012-08-02T11:10:17Z</time>
      </trkpt>
      <trkpt lat="44.39594" lon="6.14209">
        <ele>1095.0788574</ele>
        <time>2012-08-02T11:10:32Z</time>
      </trkpt>
      <trkpt lat="44.39593" lon="6.14231">
        <ele>1096.5209961</ele>
        <time>2012-08-02T11:10:51Z</time>
      </trkpt>
      <trkpt lat="44.39591" lon="6.14258">
        <ele>1099.4047852</ele>
        <time>2012-08-02T11:11:17Z</time>
      </trkpt>
      <trkpt lat="44.39592" lon="6.14279">
        <ele>1102.2888184</ele>
        <time>2012-08-02T11:11:40Z</time>
      </trkpt>
      <trkpt lat="44.39597" lon="6.14291">
        <ele>1105.1728516</ele>
        <time>2012-08-02T11:11:55Z</time>
      </trkpt>
      <trkpt lat="44.39599" lon="6.14293">
        <ele>1104.2116699</ele>
        <time>2012-08-02T11:12:14Z</time>
      </trkpt>
      <trkpt lat="44.39598" lon="6.14295">
        <ele>1104.6921387</ele>
        <time>2012-08-02T11:12:38Z</time>
      </trkpt>
      <trkpt lat="44.3958" lon="6.14333">
        <ele>1101.8083496</ele>
        <time>2012-08-02T11:12:51Z</time>
      </trkpt>
      <trkpt lat="44.39575" lon="6.14363">
        <ele>1098.4433594</ele>
        <time>2012-08-02T11:13:02Z</time>
      </trkpt>
      <trkpt lat="44.39577" lon="6.14382">
        <ele>1096.0402832</ele>
        <time>2012-08-02T11:13:10Z</time>
      </trkpt>
      <trkpt lat="44.39575" lon="6.14395">
        <ele>1093.6369629</ele>
        <time>2012-08-02T11:13:15Z</time>
      </trkpt>
      <trkpt lat="44.39575" lon="6.14409">
        <ele>1091.7143555</ele>
        <time>2012-08-02T11:13:20Z</time>
      </trkpt>
      <trkpt lat="44.39574" lon="6.14418">
        <ele>1090.7529297</ele>
        <time>2012-08-02T11:13:33Z</time>
      </trkpt>
      <trkpt lat="44.39573" lon="6.14435">
        <ele>1089.3110352</ele>
        <time>2012-08-02T11:13:43Z</time>
      </trkpt>
      <trkpt lat="44.39563" lon="6.14443">
        <ele>1088.8305664</ele>
        <time>2012-08-02T11:13:48Z</time>
      </trkpt>
      <trkpt lat="44.39553" lon="6.14445">
        <ele>1087.8691406</ele>
        <time>2012-08-02T11:13:53Z</time>
      </trkpt>
      <trkpt lat="44.39553" lon="6.14462">
        <ele>1085.4658203</ele>
        <time>2012-08-02T11:14:01Z</time>
      </trkpt>
      <trkpt lat="44.39554" lon="6.14463">
        <ele>1085.4658203</ele>
        <time>2012-08-02T11:14:02Z</time>
      </trkpt>
      <trkpt lat="44.39575" lon="6.14463">
        <ele>1082.5817871</ele>
        <time>2012-08-02T11:14:12Z</time>
      </trkpt>
      <trkpt lat="44.39569" lon="6.14484">
        <ele>1081.1398926</ele>
        <time>2012-08-02T11:14:19Z</time>
      </trkpt>
      <trkpt lat="44.39547" lon="6.14519">
        <ele>1079.217041</ele>
        <time>2012-08-02T11:14:30Z</time>
      </trkpt>
      <trkpt lat="44.39526" lon="6.14537">
        <ele>1077.7751465</ele>
        <time>2012-08-02T11:14:38Z</time>
      </trkpt>
      <trkpt lat="44.39522" lon="6.1454">
        <ele>1076.8139648</ele>
        <time>2012-08-02T11:14:48Z</time>
      </trkpt>
      <trkpt lat="44.39523" lon="6.14541">
        <ele>1075.3718262</ele>
        <time>2012-08-02T11:15:15Z</time>
      </trkpt>
      <trkpt lat="44.39514" lon="6.14548">
        <ele>1076.333252</ele>
        <time>2012-08-02T11:15:36Z</time>
      </trkpt>
      <trkpt lat="44.3951" lon="6.14545">
        <ele>1075.8525391</ele>
        <time>2012-08-02T11:15:39Z</time>
      </trkpt>
      <trkpt lat="44.39492" lon="6.14561">
        <ele>1075.3718262</ele>
        <time>2012-08-02T11:15:45Z</time>
      </trkpt>
      <trkpt lat="44.39485" lon="6.14579">
        <ele>1073.9299316</ele>
        <time>2012-08-02T11:15:48Z</time>
      </trkpt>
      <trkpt lat="44.39481" lon="6.14599">
        <ele>1072.96875</ele>
        <time>2012-08-02T11:15:51Z</time>
      </trkpt>
      <trkpt lat="44.39481" lon="6.14621">
        <ele>1071.0461426</ele>
        <time>2012-08-02T11:15:54Z</time>
      </trkpt>
      <trkpt lat="44.39487" lon="6.14659">
        <ele>1070.0847168</ele>
        <time>2012-08-02T11:15:59Z</time>
      </trkpt>
      <trkpt lat="44.39482" lon="6.147">
        <ele>1066.2392578</ele>
        <time>2012-08-02T11:16:04Z</time>
      </trkpt>
      <trkpt lat="44.39475" lon="6.14713">
        <ele>1065.2780762</ele>
        <time>2012-08-02T11:16:06Z</time>
      </trkpt>
      <trkpt lat="44.39466" lon="6.14726">
        <ele>1062.394043</ele>
        <time>2012-08-02T11:16:08Z</time>
      </trkpt>
      <trkpt lat="44.39457" lon="6.14759">
        <ele>1060.9521484</ele>
        <time>2012-08-02T11:16:12Z</time>
      </trkpt>
      <trkpt lat="44.39455" lon="6.14786">
        <ele>1058.0683594</ele>
        <time>2012-08-02T11:16:15Z</time>
      </trkpt>
      <trkpt lat="44.39455" lon="6.14794">
        <ele>1058.0683594</ele>
        <time>2012-08-02T11:16:16Z</time>
      </trkpt>
      <trkpt lat="44.39455" lon="6.14801">
        <ele>1057.1069336</ele>
        <time>2012-08-02T11:16:17Z</time>
      </trkpt>
      <trkpt lat="44.39468" lon="6.14834">
        <ele>1054.7036133</ele>
        <time>2012-08-02T11:16:22Z</time>
      </trkpt>
      <trkpt lat="44.39476" lon="6.1485">
        <ele>1053.7424316</ele>
        <time>2012-08-02T11:16:24Z</time>
      </trkpt>
      <trkpt lat="44.39485" lon="6.14874">
        <ele>1051.3388672</ele>
        <time>2012-08-02T11:16:27Z</time>
      </trkpt>
      <trkpt lat="44.39482" lon="6.14899">
        <ele>1050.3776855</ele>
        <time>2012-08-02T11:16:30Z</time>
      </trkpt>
      <trkpt lat="44.39481" lon="6.14915">
        <ele>1050.3776855</ele>
        <time>2012-08-02T11:16:32Z</time>
      </trkpt>
      <trkpt lat="44.39483" lon="6.14947">
        <ele>1047.9743652</ele>
        <time>2012-08-02T11:16:37Z</time>
      </trkpt>
      <trkpt lat="44.39483" lon="6.1496">
        <ele>1047.0129395</ele>
        <time>2012-08-02T11:16:39Z</time>
      </trkpt>
      <trkpt lat="44.39474" lon="6.14983">
        <ele>1046.0517578</ele>
        <time>2012-08-02T11:16:43Z</time>
      </trkpt>
      <trkpt lat="44.39466" lon="6.14992">
        <ele>1044.6096191</ele>
        <time>2012-08-02T11:16:45Z</time>
      </trkpt>
      <trkpt lat="44.39454" lon="6.15013">
        <ele>1045.090332</ele>
        <time>2012-08-02T11:16:49Z</time>
      </trkpt>
      <trkpt lat="44.39451" lon="6.15052">
        <ele>1044.1291504</ele>
        <time>2012-08-02T11:16:55Z</time>
      </trkpt>
      <trkpt lat="44.39454" lon="6.15089">
        <ele>1043.6484375</ele>
        <time>2012-08-02T11:17:00Z</time>
      </trkpt>
      <trkpt lat="44.39457" lon="6.15118">
        <ele>1043.6484375</ele>
        <time>2012-08-02T11:17:04Z</time>
      </trkpt>
      <trkpt lat="44.3946" lon="6.1514">
        <ele>1044.1291504</ele>
        <time>2012-08-02T11:17:07Z</time>
      </trkpt>
      <trkpt lat="44.39488" lon="6.15185">
        <ele>1043.6484375</ele>
        <time>2012-08-02T11:17:19Z</time>
      </trkpt>
      <trkpt lat="44.39491" lon="6.15187">
        <ele>1043.6484375</ele>
        <time>2012-08-02T11:17:20Z</time>
      </trkpt>
      <trkpt lat="44.3953" lon="6.15194">
        <ele>1044.1291504</ele>
        <time>2012-08-02T11:17:36Z</time>
      </trkpt>
      <trkpt lat="44.39562" lon="6.15187">
        <ele>1044.1291504</ele>
        <time>2012-08-02T11:17:50Z</time>
      </trkpt>
      <trkpt lat="44.39573" lon="6.1521">
        <ele>1044.1291504</ele>
        <time>2012-08-02T11:17:58Z</time>
      </trkpt>
      <trkpt lat="44.39576" lon="6.15266">
        <ele>1044.1291504</ele>
        <time>2012-08-02T11:18:12Z</time>
      </trkpt>
      <trkpt lat="44.39578" lon="6.15274">
        <ele>1045.090332</ele>
        <time>2012-08-02T11:18:14Z</time>
      </trkpt>
      <trkpt lat="44.39592" lon="6.15333">
        <ele>1044.1291504</ele>
        <time>2012-08-02T11:18:28Z</time>
      </trkpt>
      <trkpt lat="44.39589" lon="6.15361">
        <ele>1042.206543</ele>
        <time>2012-08-02T11:18:33Z</time>
      </trkpt>
      <trkpt lat="44.39574" lon="6.15369">
        <ele>1042.206543</ele>
        <time>2012-08-02T11:18:37Z</time>
      </trkpt>
      <trkpt lat="44.39561" lon="6.15374">
        <ele>1040.7644043</ele>
        <time>2012-08-02T11:18:40Z</time>
      </trkpt>
      <trkpt lat="44.39547" lon="6.15396">
        <ele>1040.2839355</ele>
        <time>2012-08-02T11:18:46Z</time>
      </trkpt>
      <trkpt lat="44.39552" lon="6.15412">
        <ele>1039.3225098</ele>
        <time>2012-08-02T11:18:51Z</time>
      </trkpt>
      <trkpt lat="44.39579" lon="6.15455">
        <ele>1041.7258301</ele>
        <time>2012-08-02T11:19:07Z</time>
      </trkpt>
      <trkpt lat="44.39581" lon="6.15474">
        <ele>1041.2451172</ele>
        <time>2012-08-02T11:19:14Z</time>
      </trkpt>
      <trkpt lat="44.39588" lon="6.15515">
        <ele>1042.6872559</ele>
        <time>2012-08-02T11:19:25Z</time>
      </trkpt>
      <trkpt lat="44.39593" lon="6.1554">
        <ele>1042.6872559</ele>
        <time>2012-08-02T11:19:34Z</time>
      </trkpt>
      <trkpt lat="44.39603" lon="6.15572">
        <ele>1043.6484375</ele>
        <time>2012-08-02T11:19:47Z</time>
      </trkpt>
      <trkpt lat="44.3962" lon="6.15609">
        <ele>1044.1291504</ele>
        <time>2012-08-02T11:20:02Z</time>
      </trkpt>
      <trkpt lat="44.39637" lon="6.15658">
        <ele>1044.6096191</ele>
        <time>2012-08-02T11:20:21Z</time>
      </trkpt>
      <trkpt lat="44.3965" lon="6.15697">
        <ele>1044.1291504</ele>
        <time>2012-08-02T11:20:32Z</time>
      </trkpt>
      <trkpt lat="44.39646" lon="6.15745">
        <ele>1041.7258301</ele>
        <time>2012-08-02T11:20:38Z</time>
      </trkpt>
      <trkpt lat="44.39641" lon="6.15762">
        <ele>1040.2839355</ele>
        <time>2012-08-02T11:20:40Z</time>
      </trkpt>
      <trkpt lat="44.39632" lon="6.15815">
        <ele>1037.3999023</ele>
        <time>2012-08-02T11:20:46Z</time>
      </trkpt>
      <trkpt lat="44.39631" lon="6.15831">
        <ele>1035.9577637</ele>
        <time>2012-08-02T11:20:48Z</time>
      </trkpt>
      <trkpt lat="44.39622" lon="6.15871">
        <ele>1032.5932617</ele>
        <time>2012-08-02T11:20:54Z</time>
      </trkpt>
      <trkpt lat="44.39633" lon="6.15886">
        <ele>1031.1513672</ele>
        <time>2012-08-02T11:20:57Z</time>
      </trkpt>
      <trkpt lat="44.39663" lon="6.15899">
        <ele>1027.7866211</ele>
        <time>2012-08-02T11:21:02Z</time>
      </trkpt>
      <trkpt lat="44.3968" lon="6.1591">
        <ele>1025.8640137</ele>
        <time>2012-08-02T11:21:05Z</time>
      </trkpt>
      <trkpt lat="44.39705" lon="6.15912">
        <ele>1023.4609375</ele>
        <time>2012-08-02T11:21:09Z</time>
      </trkpt>
      <trkpt lat="44.39724" lon="6.15902">
        <ele>1022.9802246</ele>
        <time>2012-08-02T11:21:13Z</time>
      </trkpt>
      <trkpt lat="44.39744" lon="6.15894">
        <ele>1021.0576172</ele>
        <time>2012-08-02T11:21:17Z</time>
      </trkpt>
      <trkpt lat="44.39747" lon="6.15895">
        <ele>1021.5380859</ele>
        <time>2012-08-02T11:21:18Z</time>
      </trkpt>
      <trkpt lat="44.39801" lon="6.15883">
        <ele>1022.0187988</ele>
        <time>2012-08-02T11:21:33Z</time>
      </trkpt>
      <trkpt lat="44.39839" lon="6.15852">
        <ele>1022.0187988</ele>
        <time>2012-08-02T11:21:48Z</time>
      </trkpt>
      <trkpt lat="44.39863" lon="6.15807">
        <ele>1022.9802246</ele>
        <time>2012-08-02T11:22:04Z</time>
      </trkpt>
      <trkpt lat="44.399" lon="6.15807">
        <ele>1023.4609375</ele>
        <time>2012-08-02T11:22:18Z</time>
      </trkpt>
      <trkpt lat="44.39938" lon="6.15826">
        <ele>1023.9414063</ele>
        <time>2012-08-02T11:22:33Z</time>
      </trkpt>
      <trkpt lat="44.39969" lon="6.1585">
        <ele>1024.902832</ele>
        <time>2012-08-02T11:22:48Z</time>
      </trkpt>
      <trkpt lat="44.39991" lon="6.15896">
        <ele>1025.8640137</ele>
        <time>2012-08-02T11:23:02Z</time>
      </trkpt>
      <trkpt lat="44.39991" lon="6.15902">
        <ele>1025.8640137</ele>
        <time>2012-08-02T11:23:04Z</time>
      </trkpt>
      <trkpt lat="44.39988" lon="6.15949">
        <ele>1024.902832</ele>
        <time>2012-08-02T11:23:15Z</time>
      </trkpt>
      <trkpt lat="44.3999" lon="6.15998">
        <ele>1023.4609375</ele>
        <time>2012-08-02T11:23:22Z</time>
      </trkpt>
      <trkpt lat="44.39993" lon="6.16011">
        <ele>1022.0187988</ele>
        <time>2012-08-02T11:23:24Z</time>
      </trkpt>
      <trkpt lat="44.39997" lon="6.16022">
        <ele>1021.5380859</ele>
        <time>2012-08-02T11:23:26Z</time>
      </trkpt>
      <trkpt lat="44.4" lon="6.16031">
        <ele>1020.0961914</ele>
        <time>2012-08-02T11:23:28Z</time>
      </trkpt>
      <trkpt lat="44.39986" lon="6.1604">
        <ele>1018.1733398</ele>
        <time>2012-08-02T11:23:35Z</time>
      </trkpt>
      <trkpt lat="44.39975" lon="6.16029">
        <ele>1016.2507324</ele>
        <time>2012-08-02T11:23:38Z</time>
      </trkpt>
      <trkpt lat="44.39948" lon="6.16052">
        <ele>1014.328125</ele>
        <time>2012-08-02T11:23:45Z</time>
      </trkpt>
      <trkpt lat="44.39946" lon="6.16058">
        <ele>1013.8474121</ele>
        <time>2012-08-02T11:23:46Z</time>
      </trkpt>
      <trkpt lat="44.39943" lon="6.16072">
        <ele>1013.3669434</ele>
        <time>2012-08-02T11:23:48Z</time>
      </trkpt>
      <trkpt lat="44.39928" lon="6.16098">
        <ele>1011.9250488</ele>
        <time>2012-08-02T11:23:52Z</time>
      </trkpt>
      <trkpt lat="44.39894" lon="6.16149">
        <ele>1008.079834</ele>
        <time>2012-08-02T11:23:59Z</time>
      </trkpt>
      <trkpt lat="44.39885" lon="6.16166">
        <ele>1006.6376953</ele>
        <time>2012-08-02T11:24:01Z</time>
      </trkpt>
      <trkpt lat="44.3988" lon="6.16185">
        <ele>1004.7150879</ele>
        <time>2012-08-02T11:24:03Z</time>
      </trkpt>
      <trkpt lat="44.39876" lon="6.16213">
        <ele>1003.2729492</ele>
        <time>2012-08-02T11:24:06Z</time>
      </trkpt>
      <trkpt lat="44.39863" lon="6.16258">
        <ele>1001.3503418</ele>
        <time>2012-08-02T11:24:11Z</time>
      </trkpt>
      <trkpt lat="44.39856" lon="6.16273">
        <ele>998.4663086</ele>
        <time>2012-08-02T11:24:13Z</time>
      </trkpt>
      <trkpt lat="44.3984" lon="6.16288">
        <ele>996.0632324</ele>
        <time>2012-08-02T11:24:16Z</time>
      </trkpt>
      <trkpt lat="44.39827" lon="6.16295">
        <ele>996.5439453</ele>
        <time>2012-08-02T11:24:18Z</time>
      </trkpt>
      <trkpt lat="44.39808" lon="6.16317">
        <ele>994.140625</ele>
        <time>2012-08-02T11:24:22Z</time>
      </trkpt>
      <trkpt lat="44.39792" lon="6.1635">
        <ele>990.2954102</ele>
        <time>2012-08-02T11:24:28Z</time>
      </trkpt>
      <trkpt lat="44.39792" lon="6.16355">
        <ele>990.2954102</ele>
        <time>2012-08-02T11:24:29Z</time>
      </trkpt>
      <trkpt lat="44.39792" lon="6.16359">
        <ele>991.2565918</ele>
        <time>2012-08-02T11:24:30Z</time>
      </trkpt>
      <trkpt lat="44.39793" lon="6.16381">
        <ele>988.3728027</ele>
        <time>2012-08-02T11:24:33Z</time>
      </trkpt>
      <trkpt lat="44.39798" lon="6.16395">
        <ele>988.8535156</ele>
        <time>2012-08-02T11:24:34Z</time>
      </trkpt>
      <trkpt lat="44.39792" lon="6.16419">
        <ele>987.4111328</ele>
        <time>2012-08-02T11:24:37Z</time>
      </trkpt>
      <trkpt lat="44.39795" lon="6.16446">
        <ele>986.4499512</ele>
        <time>2012-08-02T11:24:40Z</time>
      </trkpt>
      <trkpt lat="44.39801" lon="6.16462">
        <ele>986.4499512</ele>
        <time>2012-08-02T11:24:42Z</time>
      </trkpt>
      <trkpt lat="44.39805" lon="6.16491">
        <ele>986.9304199</ele>
        <time>2012-08-02T11:24:46Z</time>
      </trkpt>
      <trkpt lat="44.39789" lon="6.16527">
        <ele>990.7758789</ele>
        <time>2012-08-02T11:24:56Z</time>
      </trkpt>
      <trkpt lat="44.39787" lon="6.1653">
        <ele>990.7758789</ele>
        <time>2012-08-02T11:24:57Z</time>
      </trkpt>
      <trkpt lat="44.39782" lon="6.16539">
        <ele>989.3339844</ele>
        <time>2012-08-02T11:25:01Z</time>
      </trkpt>
      <trkpt lat="44.39781" lon="6.1654">
        <ele>988.8535156</ele>
        <time>2012-08-02T11:25:02Z</time>
      </trkpt>
      <trkpt lat="44.39761" lon="6.16571">
        <ele>990.2954102</ele>
        <time>2012-08-02T11:25:17Z</time>
      </trkpt>
      <trkpt lat="44.39743" lon="6.16601">
        <ele>990.7758789</ele>
        <time>2012-08-02T11:25:33Z</time>
      </trkpt>
      <trkpt lat="44.39728" lon="6.16626">
        <ele>993.1791992</ele>
        <time>2012-08-02T11:25:47Z</time>
      </trkpt>
      <trkpt lat="44.39704" lon="6.16666">
        <ele>994.140625</ele>
        <time>2012-08-02T11:26:07Z</time>
      </trkpt>
      <trkpt lat="44.39683" lon="6.16701">
        <ele>995.5825195</ele>
        <time>2012-08-02T11:26:27Z</time>
      </trkpt>
      <trkpt lat="44.39677" lon="6.16711">
        <ele>997.505127</ele>
        <time>2012-08-02T11:26:33Z</time>
      </trkpt>
      <trkpt lat="44.39655" lon="6.16748">
        <ele>999.4277344</ele>
        <time>2012-08-02T11:26:53Z</time>
      </trkpt>
      <trkpt lat="44.39638" lon="6.16792">
        <ele>1001.3503418</ele>
        <time>2012-08-02T11:27:14Z</time>
      </trkpt>
      <trkpt lat="44.39628" lon="6.16822">
        <ele>1001.8310547</ele>
        <time>2012-08-02T11:27:28Z</time>
      </trkpt>
      <trkpt lat="44.3962" lon="6.16863">
        <ele>1003.7536621</ele>
        <time>2012-08-02T11:27:47Z</time>
      </trkpt>
      <trkpt lat="44.39617" lon="6.16874">
        <ele>1005.1958008</ele>
        <time>2012-08-02T11:27:52Z</time>
      </trkpt>
      <trkpt lat="44.39608" lon="6.1692">
        <ele>1005.6765137</ele>
        <time>2012-08-02T11:28:12Z</time>
      </trkpt>
      <trkpt lat="44.39593" lon="6.16971">
        <ele>1008.5603027</ele>
        <time>2012-08-02T11:28:36Z</time>
      </trkpt>
      <trkpt lat="44.396" lon="6.16982">
        <ele>1008.079834</ele>
        <time>2012-08-02T11:28:39Z</time>
      </trkpt>
      <trkpt lat="44.39606" lon="6.16988">
        <ele>1008.079834</ele>
        <time>2012-08-02T11:28:43Z</time>
      </trkpt>
      <trkpt lat="44.39636" lon="6.16996">
        <ele>1009.0410156</ele>
        <time>2012-08-02T11:28:59Z</time>
      </trkpt>
      <trkpt lat="44.39668" lon="6.16998">
        <ele>1010.963623</ele>
        <time>2012-08-02T11:29:17Z</time>
      </trkpt>
      <trkpt lat="44.39702" lon="6.16993">
        <ele>1013.3669434</ele>
        <time>2012-08-02T11:29:38Z</time>
      </trkpt>
      <trkpt lat="44.3971" lon="6.16998">
        <ele>1015.2895508</ele>
        <time>2012-08-02T11:29:44Z</time>
      </trkpt>
      <trkpt lat="44.39742" lon="6.17025">
        <ele>1016.7314453</ele>
        <time>2012-08-02T11:30:09Z</time>
      </trkpt>
      <trkpt lat="44.39771" lon="6.17035">
        <ele>1018.1733398</ele>
        <time>2012-08-02T11:30:29Z</time>
      </trkpt>
      <trkpt lat="44.39795" lon="6.17039">
        <ele>1019.6154785</ele>
        <time>2012-08-02T11:30:45Z</time>
      </trkpt>
      <trkpt lat="44.39811" lon="6.17041">
        <ele>1020.5769043</ele>
        <time>2012-08-02T11:30:55Z</time>
      </trkpt>
      <trkpt lat="44.39814" lon="6.17048">
        <ele>1021.0576172</ele>
        <time>2012-08-02T11:31:00Z</time>
      </trkpt>
      <trkpt lat="44.39802" lon="6.17088">
        <ele>1018.1733398</ele>
        <time>2012-08-02T11:31:09Z</time>
      </trkpt>
      <trkpt lat="44.39796" lon="6.17104">
        <ele>1017.2121582</ele>
        <time>2012-08-02T11:31:12Z</time>
      </trkpt>
      <trkpt lat="44.39789" lon="6.17119">
        <ele>1015.2895508</ele>
        <time>2012-08-02T11:31:20Z</time>
      </trkpt>
      <trkpt lat="44.39789" lon="6.17119">
        <ele>1016.2507324</ele>
        <time>2012-08-02T11:31:55Z</time>
      </trkpt>
      <trkpt lat="44.39789" lon="6.17119">
        <ele>1015.7702637</ele>
        <time>2012-08-02T11:32:11Z</time>
      </trkpt>
      <trkpt lat="44.39789" lon="6.17119">
        <ele>1017.2121582</ele>
        <time>2012-08-02T11:32:25Z</time>
      </trkpt>
      <trkpt lat="44.39789" lon="6.17119">
        <ele>1017.692627</ele>
        <time>2012-08-02T11:32:43Z</time>
      </trkpt>
      <trkpt lat="44.39789" lon="6.17119">
        <ele>1016.7314453</ele>
        <time>2012-08-02T11:33:09Z</time>
      </trkpt>
      <trkpt lat="44.39789" lon="6.17119">
        <ele>1018.6540527</ele>
        <time>2012-08-02T11:33:26Z</time>
      </trkpt>
      <trkpt lat="44.39789" lon="6.17119">
        <ele>1020.5769043</ele>
        <time>2012-08-02T11:33:31Z</time>
      </trkpt>
      <trkpt lat="44.39789" lon="6.17119">
        <ele>1018.1733398</ele>
        <time>2012-08-02T11:33:33Z</time>
      </trkpt>
    </trkseg>
  </trk>
</gpx>